<?xml version="1.0" encoding="UTF-8" standalone="no" ?>
<gpx xmlns="http://www.topografix.com/GPX/1/1" xmlns:xsi="http://www.w3.org/2001/XMLSchema-instance" xsi:schemaLocation="http://www.topografix.com/GPX/1/1 http://www.topografix.com/GPX/1/1/gpx.xsd" version="1.1" creator="VisuGPX - https://www.visugpx.com">
  <metadata>
    <name>cima 30/10</name>
    <desc><![CDATA[ti training avant mardi!]]></desc>
  </metadata>
  <trk>
    <name><![CDATA[Cima 30/10]]></name>
    <desc><![CDATA[(null)]]></desc>
    <trkseg>
      <trkpt lat="43.78254" lon="7.25229">
        <ele>526.420586</ele>
        <time>2011-10-30T12:46:19Z</time>
      </trkpt>
      <trkpt lat="43.78254" lon="7.25229">
        <ele>526.420586</ele>
        <time>2011-10-30T12:46:19Z</time>
      </trkpt>
      <trkpt lat="43.78254" lon="7.25229">
        <ele>526.420586</ele>
        <time>2011-10-30T12:46:20Z</time>
      </trkpt>
      <trkpt lat="43.78255" lon="7.25241">
        <ele>531.420609</ele>
        <time>2011-10-30T12:47:01Z</time>
      </trkpt>
      <trkpt lat="43.78248" lon="7.2525">
        <ele>534.420616</ele>
        <time>2011-10-30T12:47:08Z</time>
      </trkpt>
      <trkpt lat="43.7824" lon="7.25258">
        <ele>535.420624</ele>
        <time>2011-10-30T12:47:14Z</time>
      </trkpt>
      <trkpt lat="43.78232" lon="7.25265">
        <ele>537.420631</ele>
        <time>2011-10-30T12:47:21Z</time>
      </trkpt>
      <trkpt lat="43.78242" lon="7.25271">
        <ele>551.420654</ele>
        <time>2011-10-30T12:47:41Z</time>
      </trkpt>
      <trkpt lat="43.78254" lon="7.25267">
        <ele>555.420662</ele>
        <time>2011-10-30T12:47:49Z</time>
      </trkpt>
      <trkpt lat="43.78264" lon="7.25261">
        <ele>558.420662</ele>
        <time>2011-10-30T12:47:57Z</time>
      </trkpt>
      <trkpt lat="43.78273" lon="7.25258">
        <ele>563.42067</ele>
        <time>2011-10-30T12:48:04Z</time>
      </trkpt>
      <trkpt lat="43.78281" lon="7.25255">
        <ele>568.420673</ele>
        <time>2011-10-30T12:48:10Z</time>
      </trkpt>
      <trkpt lat="43.7829" lon="7.25251">
        <ele>576.420677</ele>
        <time>2011-10-30T12:48:16Z</time>
      </trkpt>
      <trkpt lat="43.78303" lon="7.25246">
        <ele>581.420685</ele>
        <time>2011-10-30T12:48:25Z</time>
      </trkpt>
      <trkpt lat="43.78312" lon="7.25241">
        <ele>583.420685</ele>
        <time>2011-10-30T12:48:32Z</time>
      </trkpt>
      <trkpt lat="43.78332" lon="7.25204">
        <ele>589.420639</ele>
        <time>2011-10-30T12:48:53Z</time>
      </trkpt>
      <trkpt lat="43.78343" lon="7.25189">
        <ele>591.42062</ele>
        <time>2011-10-30T12:49:04Z</time>
      </trkpt>
      <trkpt lat="43.78351" lon="7.25182">
        <ele>593.420616</ele>
        <time>2011-10-30T12:49:12Z</time>
      </trkpt>
      <trkpt lat="43.78354" lon="7.2518">
        <ele>594.420616</ele>
        <time>2011-10-30T12:49:15Z</time>
      </trkpt>
      <trkpt lat="43.78363" lon="7.25173">
        <ele>597.420612</ele>
        <time>2011-10-30T12:49:22Z</time>
      </trkpt>
      <trkpt lat="43.78371" lon="7.25167">
        <ele>599.420609</ele>
        <time>2011-10-30T12:49:29Z</time>
      </trkpt>
      <trkpt lat="43.7838" lon="7.25163">
        <ele>602.420616</ele>
        <time>2011-10-30T12:49:36Z</time>
      </trkpt>
      <trkpt lat="43.78392" lon="7.25158">
        <ele>606.420624</ele>
        <time>2011-10-30T12:49:44Z</time>
      </trkpt>
      <trkpt lat="43.78402" lon="7.25154">
        <ele>606.420631</ele>
        <time>2011-10-30T12:49:51Z</time>
      </trkpt>
      <trkpt lat="43.78416" lon="7.25143">
        <ele>611.420624</ele>
        <time>2011-10-30T12:50:01Z</time>
      </trkpt>
      <trkpt lat="43.78424" lon="7.25136">
        <ele>614.42062</ele>
        <time>2011-10-30T12:50:08Z</time>
      </trkpt>
      <trkpt lat="43.78431" lon="7.25128">
        <ele>615.420612</ele>
        <time>2011-10-30T12:50:15Z</time>
      </trkpt>
      <trkpt lat="43.78439" lon="7.2512">
        <ele>615.420609</ele>
        <time>2011-10-30T12:50:21Z</time>
      </trkpt>
      <trkpt lat="43.78444" lon="7.25114">
        <ele>616.420601</ele>
        <time>2011-10-30T12:50:25Z</time>
      </trkpt>
      <trkpt lat="43.78451" lon="7.25105">
        <ele>616.420593</ele>
        <time>2011-10-30T12:50:31Z</time>
      </trkpt>
      <trkpt lat="43.78458" lon="7.25097">
        <ele>618.420586</ele>
        <time>2011-10-30T12:50:37Z</time>
      </trkpt>
      <trkpt lat="43.78465" lon="7.25088">
        <ele>619.420574</ele>
        <time>2011-10-30T12:50:43Z</time>
      </trkpt>
      <trkpt lat="43.78473" lon="7.25079">
        <ele>621.420563</ele>
        <time>2011-10-30T12:50:50Z</time>
      </trkpt>
      <trkpt lat="43.78479" lon="7.25068">
        <ele>624.420551</ele>
        <time>2011-10-30T12:50:57Z</time>
      </trkpt>
      <trkpt lat="43.78485" lon="7.25057">
        <ele>627.420536</ele>
        <time>2011-10-30T12:51:03Z</time>
      </trkpt>
      <trkpt lat="43.78492" lon="7.25044">
        <ele>629.420521</ele>
        <time>2011-10-30T12:51:09Z</time>
      </trkpt>
      <trkpt lat="43.78499" lon="7.25031">
        <ele>630.420502</ele>
        <time>2011-10-30T12:51:13Z</time>
      </trkpt>
      <trkpt lat="43.78501" lon="7.25028">
        <ele>631.420502</ele>
        <time>2011-10-30T12:51:14Z</time>
      </trkpt>
      <trkpt lat="43.78508" lon="7.25019">
        <ele>631.420486</ele>
        <time>2011-10-30T12:51:17Z</time>
      </trkpt>
      <trkpt lat="43.78516" lon="7.25011">
        <ele>631.420479</ele>
        <time>2011-10-30T12:51:20Z</time>
      </trkpt>
      <trkpt lat="43.78525" lon="7.25004">
        <ele>632.420479</ele>
        <time>2011-10-30T12:51:23Z</time>
      </trkpt>
      <trkpt lat="43.78537" lon="7.24997">
        <ele>633.420483</ele>
        <time>2011-10-30T12:51:26Z</time>
      </trkpt>
      <trkpt lat="43.78541" lon="7.24993">
        <ele>633.420479</ele>
        <time>2011-10-30T12:51:27Z</time>
      </trkpt>
      <trkpt lat="43.7855" lon="7.24987">
        <ele>633.420479</ele>
        <time>2011-10-30T12:51:29Z</time>
      </trkpt>
      <trkpt lat="43.7856" lon="7.24981">
        <ele>634.420479</ele>
        <time>2011-10-30T12:51:31Z</time>
      </trkpt>
      <trkpt lat="43.78569" lon="7.24975">
        <ele>634.420479</ele>
        <time>2011-10-30T12:51:33Z</time>
      </trkpt>
      <trkpt lat="43.78577" lon="7.2497">
        <ele>634.420479</ele>
        <time>2011-10-30T12:51:35Z</time>
      </trkpt>
      <trkpt lat="43.78588" lon="7.24964">
        <ele>635.420483</ele>
        <time>2011-10-30T12:51:38Z</time>
      </trkpt>
      <trkpt lat="43.78599" lon="7.24958">
        <ele>635.420486</ele>
        <time>2011-10-30T12:51:41Z</time>
      </trkpt>
      <trkpt lat="43.78603" lon="7.24957">
        <ele>636.420486</ele>
        <time>2011-10-30T12:51:42Z</time>
      </trkpt>
      <trkpt lat="43.78615" lon="7.24951">
        <ele>637.42049</ele>
        <time>2011-10-30T12:51:45Z</time>
      </trkpt>
      <trkpt lat="43.78628" lon="7.24945">
        <ele>638.420494</ele>
        <time>2011-10-30T12:51:48Z</time>
      </trkpt>
      <trkpt lat="43.78638" lon="7.24942">
        <ele>638.420509</ele>
        <time>2011-10-30T12:51:50Z</time>
      </trkpt>
      <trkpt lat="43.78647" lon="7.24941">
        <ele>639.420517</ele>
        <time>2011-10-30T12:51:52Z</time>
      </trkpt>
      <trkpt lat="43.78651" lon="7.24923">
        <ele>639.420486</ele>
        <time>2011-10-30T12:51:55Z</time>
      </trkpt>
      <trkpt lat="43.78649" lon="7.24909">
        <ele>640.420452</ele>
        <time>2011-10-30T12:51:57Z</time>
      </trkpt>
      <trkpt lat="43.78648" lon="7.24895">
        <ele>641.420418</ele>
        <time>2011-10-30T12:51:59Z</time>
      </trkpt>
      <trkpt lat="43.78646" lon="7.24879">
        <ele>643.420383</ele>
        <time>2011-10-30T12:52:01Z</time>
      </trkpt>
      <trkpt lat="43.78644" lon="7.24862">
        <ele>643.420341</ele>
        <time>2011-10-30T12:52:03Z</time>
      </trkpt>
      <trkpt lat="43.78642" lon="7.24843">
        <ele>640.420303</ele>
        <time>2011-10-30T12:52:05Z</time>
      </trkpt>
      <trkpt lat="43.7864" lon="7.24825">
        <ele>636.420261</ele>
        <time>2011-10-30T12:52:07Z</time>
      </trkpt>
      <trkpt lat="43.7864" lon="7.24809">
        <ele>634.420231</ele>
        <time>2011-10-30T12:52:09Z</time>
      </trkpt>
      <trkpt lat="43.78643" lon="7.24795">
        <ele>633.4202</ele>
        <time>2011-10-30T12:52:11Z</time>
      </trkpt>
      <trkpt lat="43.78649" lon="7.24785">
        <ele>633.420189</ele>
        <time>2011-10-30T12:52:13Z</time>
      </trkpt>
      <trkpt lat="43.78653" lon="7.24782">
        <ele>633.420189</ele>
        <time>2011-10-30T12:52:14Z</time>
      </trkpt>
      <trkpt lat="43.78662" lon="7.24777">
        <ele>633.420189</ele>
        <time>2011-10-30T12:52:16Z</time>
      </trkpt>
      <trkpt lat="43.78673" lon="7.24772">
        <ele>633.420193</ele>
        <time>2011-10-30T12:52:12Z</time>
      </trkpt>
      <trkpt lat="43.78684" lon="7.24769">
        <ele>633.420204</ele>
        <time>2011-10-30T12:52:14Z</time>
      </trkpt>
      <trkpt lat="43.78692" lon="7.24772">
        <ele>633.420219</ele>
        <time>2011-10-30T12:52:15Z</time>
      </trkpt>
      <trkpt lat="43.78705" lon="7.24775">
        <ele>633.42025</ele>
        <time>2011-10-30T12:52:17Z</time>
      </trkpt>
      <trkpt lat="43.78718" lon="7.24777">
        <ele>632.420265</ele>
        <time>2011-10-30T12:52:19Z</time>
      </trkpt>
      <trkpt lat="43.78728" lon="7.24777">
        <ele>632.42028</ele>
        <time>2011-10-30T12:52:21Z</time>
      </trkpt>
      <trkpt lat="43.78732" lon="7.24777">
        <ele>632.420288</ele>
        <time>2011-10-30T12:52:22Z</time>
      </trkpt>
      <trkpt lat="43.78744" lon="7.24776">
        <ele>633.420303</ele>
        <time>2011-10-30T12:52:25Z</time>
      </trkpt>
      <trkpt lat="43.78754" lon="7.24768">
        <ele>634.420296</ele>
        <time>2011-10-30T12:52:29Z</time>
      </trkpt>
      <trkpt lat="43.78758" lon="7.24764">
        <ele>635.420296</ele>
        <time>2011-10-30T12:52:31Z</time>
      </trkpt>
      <trkpt lat="43.78763" lon="7.24747">
        <ele>636.420265</ele>
        <time>2011-10-30T12:52:39Z</time>
      </trkpt>
      <trkpt lat="43.78768" lon="7.24734">
        <ele>636.420242</ele>
        <time>2011-10-30T12:52:44Z</time>
      </trkpt>
      <trkpt lat="43.78774" lon="7.24716">
        <ele>638.420219</ele>
        <time>2011-10-30T12:52:50Z</time>
      </trkpt>
      <trkpt lat="43.78778" lon="7.24702">
        <ele>639.420193</ele>
        <time>2011-10-30T12:52:54Z</time>
      </trkpt>
      <trkpt lat="43.78783" lon="7.24683">
        <ele>637.420162</ele>
        <time>2011-10-30T12:52:59Z</time>
      </trkpt>
      <trkpt lat="43.78789" lon="7.24663">
        <ele>637.420128</ele>
        <time>2011-10-30T12:53:05Z</time>
      </trkpt>
      <trkpt lat="43.78796" lon="7.24641">
        <ele>636.42009</ele>
        <time>2011-10-30T12:53:13Z</time>
      </trkpt>
      <trkpt lat="43.78797" lon="7.24637">
        <ele>635.420082</ele>
        <time>2011-10-30T12:53:20Z</time>
      </trkpt>
      <trkpt lat="43.788" lon="7.24623">
        <ele>635.420055</ele>
        <time>2011-10-30T12:53:21Z</time>
      </trkpt>
      <trkpt lat="43.78816" lon="7.24622">
        <ele>633.420074</ele>
        <time>2011-10-30T12:53:39Z</time>
      </trkpt>
      <trkpt lat="43.78825" lon="7.24631">
        <ele>632.420113</ele>
        <time>2011-10-30T12:53:45Z</time>
      </trkpt>
      <trkpt lat="43.7884" lon="7.24643">
        <ele>627.420155</ele>
        <time>2011-10-30T12:53:54Z</time>
      </trkpt>
      <trkpt lat="43.78841" lon="7.24644">
        <ele>627.420158</ele>
        <time>2011-10-30T12:53:58Z</time>
      </trkpt>
      <trkpt lat="43.78851" lon="7.2465">
        <ele>624.420181</ele>
        <time>2011-10-30T12:54:07Z</time>
      </trkpt>
      <trkpt lat="43.78859" lon="7.24657">
        <ele>626.420212</ele>
        <time>2011-10-30T12:54:17Z</time>
      </trkpt>
      <trkpt lat="43.78869" lon="7.24659">
        <ele>628.420227</ele>
        <time>2011-10-30T12:54:26Z</time>
      </trkpt>
      <trkpt lat="43.7888" lon="7.24656">
        <ele>631.420235</ele>
        <time>2011-10-30T12:54:32Z</time>
      </trkpt>
      <trkpt lat="43.78893" lon="7.24651">
        <ele>630.420242</ele>
        <time>2011-10-30T12:54:38Z</time>
      </trkpt>
      <trkpt lat="43.78902" lon="7.24649">
        <ele>631.42025</ele>
        <time>2011-10-30T12:54:42Z</time>
      </trkpt>
      <trkpt lat="43.78912" lon="7.24649">
        <ele>630.420265</ele>
        <time>2011-10-30T12:54:46Z</time>
      </trkpt>
      <trkpt lat="43.78922" lon="7.24652">
        <ele>629.420284</ele>
        <time>2011-10-30T12:54:51Z</time>
      </trkpt>
      <trkpt lat="43.78932" lon="7.24657">
        <ele>629.420307</ele>
        <time>2011-10-30T12:54:56Z</time>
      </trkpt>
      <trkpt lat="43.78932" lon="7.24657">
        <ele>629.420307</ele>
        <time>2011-10-30T12:54:57Z</time>
      </trkpt>
      <trkpt lat="43.7894" lon="7.24665">
        <ele>629.420334</ele>
        <time>2011-10-30T12:55:05Z</time>
      </trkpt>
      <trkpt lat="43.78941" lon="7.24666">
        <ele>629.420341</ele>
        <time>2011-10-30T12:55:12Z</time>
      </trkpt>
      <trkpt lat="43.78948" lon="7.24677">
        <ele>631.420372</ele>
        <time>2011-10-30T12:55:13Z</time>
      </trkpt>
      <trkpt lat="43.78955" lon="7.24686">
        <ele>631.420403</ele>
        <time>2011-10-30T12:55:17Z</time>
      </trkpt>
      <trkpt lat="43.78963" lon="7.24693">
        <ele>629.420425</ele>
        <time>2011-10-30T12:55:22Z</time>
      </trkpt>
      <trkpt lat="43.78968" lon="7.24697">
        <ele>628.420444</ele>
        <time>2011-10-30T12:55:26Z</time>
      </trkpt>
      <trkpt lat="43.78979" lon="7.24698">
        <ele>629.420464</ele>
        <time>2011-10-30T12:55:33Z</time>
      </trkpt>
      <trkpt lat="43.78993" lon="7.24695">
        <ele>632.420471</ele>
        <time>2011-10-30T12:55:40Z</time>
      </trkpt>
      <trkpt lat="43.79002" lon="7.24695">
        <ele>633.420486</ele>
        <time>2011-10-30T12:55:44Z</time>
      </trkpt>
      <trkpt lat="43.79013" lon="7.24695">
        <ele>634.420502</ele>
        <time>2011-10-30T12:55:49Z</time>
      </trkpt>
      <trkpt lat="43.79023" lon="7.24693">
        <ele>634.420509</ele>
        <time>2011-10-30T12:55:54Z</time>
      </trkpt>
      <trkpt lat="43.79035" lon="7.24691">
        <ele>637.420525</ele>
        <time>2011-10-30T12:56:04Z</time>
      </trkpt>
      <trkpt lat="43.79037" lon="7.24691">
        <ele>637.420525</ele>
        <time>2011-10-30T12:56:07Z</time>
      </trkpt>
      <trkpt lat="43.79047" lon="7.24692">
        <ele>638.42054</ele>
        <time>2011-10-30T12:56:18Z</time>
      </trkpt>
      <trkpt lat="43.79059" lon="7.24692">
        <ele>640.420559</ele>
        <time>2011-10-30T12:56:26Z</time>
      </trkpt>
      <trkpt lat="43.7907" lon="7.24691">
        <ele>641.42057</ele>
        <time>2011-10-30T12:56:31Z</time>
      </trkpt>
      <trkpt lat="43.7908" lon="7.24689">
        <ele>641.420582</ele>
        <time>2011-10-30T12:56:35Z</time>
      </trkpt>
      <trkpt lat="43.79091" lon="7.24687">
        <ele>643.420593</ele>
        <time>2011-10-30T12:56:40Z</time>
      </trkpt>
      <trkpt lat="43.791" lon="7.24684">
        <ele>644.420597</ele>
        <time>2011-10-30T12:56:44Z</time>
      </trkpt>
      <trkpt lat="43.79103" lon="7.24683">
        <ele>644.420601</ele>
        <time>2011-10-30T12:56:45Z</time>
      </trkpt>
      <trkpt lat="43.79114" lon="7.24681">
        <ele>646.420616</ele>
        <time>2011-10-30T12:56:49Z</time>
      </trkpt>
      <trkpt lat="43.79133" lon="7.24676">
        <ele>651.420628</ele>
        <time>2011-10-30T12:56:56Z</time>
      </trkpt>
      <trkpt lat="43.79149" lon="7.24672">
        <ele>652.420639</ele>
        <time>2011-10-30T12:57:03Z</time>
      </trkpt>
      <trkpt lat="43.7916" lon="7.24668">
        <ele>653.420647</ele>
        <time>2011-10-30T12:57:08Z</time>
      </trkpt>
      <trkpt lat="43.79172" lon="7.24659">
        <ele>653.420643</ele>
        <time>2011-10-30T12:57:13Z</time>
      </trkpt>
      <trkpt lat="43.7918" lon="7.24652">
        <ele>653.420639</ele>
        <time>2011-10-30T12:57:16Z</time>
      </trkpt>
      <trkpt lat="43.79189" lon="7.24643">
        <ele>652.420635</ele>
        <time>2011-10-30T12:57:20Z</time>
      </trkpt>
      <trkpt lat="43.792" lon="7.24631">
        <ele>652.420624</ele>
        <time>2011-10-30T12:57:26Z</time>
      </trkpt>
      <trkpt lat="43.79207" lon="7.24622">
        <ele>652.420609</ele>
        <time>2011-10-30T12:57:30Z</time>
      </trkpt>
      <trkpt lat="43.79213" lon="7.24611">
        <ele>652.420601</ele>
        <time>2011-10-30T12:57:34Z</time>
      </trkpt>
      <trkpt lat="43.79219" lon="7.246">
        <ele>653.420582</ele>
        <time>2011-10-30T12:57:38Z</time>
      </trkpt>
      <trkpt lat="43.79224" lon="7.24589">
        <ele>652.42057</ele>
        <time>2011-10-30T12:57:42Z</time>
      </trkpt>
      <trkpt lat="43.79227" lon="7.24584">
        <ele>652.420563</ele>
        <time>2011-10-30T12:57:44Z</time>
      </trkpt>
      <trkpt lat="43.79233" lon="7.24574">
        <ele>651.420547</ele>
        <time>2011-10-30T12:57:49Z</time>
      </trkpt>
      <trkpt lat="43.79236" lon="7.2457">
        <ele>650.420547</ele>
        <time>2011-10-30T12:57:51Z</time>
      </trkpt>
      <trkpt lat="43.79242" lon="7.24561">
        <ele>649.420536</ele>
        <time>2011-10-30T12:57:56Z</time>
      </trkpt>
      <trkpt lat="43.79243" lon="7.24559">
        <ele>649.420532</ele>
        <time>2011-10-30T12:57:57Z</time>
      </trkpt>
      <trkpt lat="43.79257" lon="7.24544">
        <ele>649.420517</ele>
        <time>2011-10-30T12:58:06Z</time>
      </trkpt>
      <trkpt lat="43.79267" lon="7.24534">
        <ele>648.420513</ele>
        <time>2011-10-30T12:58:12Z</time>
      </trkpt>
      <trkpt lat="43.79276" lon="7.24526">
        <ele>650.420506</ele>
        <time>2011-10-30T12:58:18Z</time>
      </trkpt>
      <trkpt lat="43.79278" lon="7.24525">
        <ele>650.420502</ele>
        <time>2011-10-30T12:58:20Z</time>
      </trkpt>
      <trkpt lat="43.79291" lon="7.24508">
        <ele>649.42049</ele>
        <time>2011-10-30T12:58:29Z</time>
      </trkpt>
      <trkpt lat="43.79298" lon="7.24498">
        <ele>649.420483</ele>
        <time>2011-10-30T12:58:33Z</time>
      </trkpt>
      <trkpt lat="43.79301" lon="7.24495">
        <ele>649.420479</ele>
        <time>2011-10-30T12:58:34Z</time>
      </trkpt>
      <trkpt lat="43.79308" lon="7.24487">
        <ele>650.420471</ele>
        <time>2011-10-30T12:58:38Z</time>
      </trkpt>
      <trkpt lat="43.7931" lon="7.24486">
        <ele>650.420471</ele>
        <time>2011-10-30T12:58:39Z</time>
      </trkpt>
      <trkpt lat="43.79321" lon="7.24476">
        <ele>651.420464</ele>
        <time>2011-10-30T12:58:45Z</time>
      </trkpt>
      <trkpt lat="43.7933" lon="7.24469">
        <ele>654.420464</ele>
        <time>2011-10-30T12:58:50Z</time>
      </trkpt>
      <trkpt lat="43.7934" lon="7.24462">
        <ele>655.420464</ele>
        <time>2011-10-30T12:58:55Z</time>
      </trkpt>
      <trkpt lat="43.79349" lon="7.24457">
        <ele>655.420464</ele>
        <time>2011-10-30T12:59:00Z</time>
      </trkpt>
      <trkpt lat="43.79359" lon="7.24451">
        <ele>657.420464</ele>
        <time>2011-10-30T12:59:06Z</time>
      </trkpt>
      <trkpt lat="43.79362" lon="7.2445">
        <ele>657.420464</ele>
        <time>2011-10-30T12:59:08Z</time>
      </trkpt>
      <trkpt lat="43.79371" lon="7.24444">
        <ele>657.420464</ele>
        <time>2011-10-30T12:59:14Z</time>
      </trkpt>
      <trkpt lat="43.79372" lon="7.24443">
        <ele>657.420464</ele>
        <time>2011-10-30T12:59:15Z</time>
      </trkpt>
      <trkpt lat="43.79381" lon="7.24437">
        <ele>658.420464</ele>
        <time>2011-10-30T12:59:21Z</time>
      </trkpt>
      <trkpt lat="43.79384" lon="7.24436">
        <ele>659.420464</ele>
        <time>2011-10-30T12:59:23Z</time>
      </trkpt>
      <trkpt lat="43.79393" lon="7.2443">
        <ele>658.420464</ele>
        <time>2011-10-30T12:59:29Z</time>
      </trkpt>
      <trkpt lat="43.79402" lon="7.24424">
        <ele>658.420467</ele>
        <time>2011-10-30T12:59:35Z</time>
      </trkpt>
      <trkpt lat="43.79405" lon="7.24421">
        <ele>658.420464</ele>
        <time>2011-10-30T12:59:37Z</time>
      </trkpt>
      <trkpt lat="43.79414" lon="7.24414">
        <ele>658.42046</ele>
        <time>2011-10-30T12:59:43Z</time>
      </trkpt>
      <trkpt lat="43.7942" lon="7.24409">
        <ele>658.42046</ele>
        <time>2011-10-30T12:59:47Z</time>
      </trkpt>
      <trkpt lat="43.79428" lon="7.244">
        <ele>660.420448</ele>
        <time>2011-10-30T12:59:53Z</time>
      </trkpt>
      <trkpt lat="43.79429" lon="7.24399">
        <ele>660.420452</ele>
        <time>2011-10-30T12:59:54Z</time>
      </trkpt>
      <trkpt lat="43.79436" lon="7.24391">
        <ele>661.420441</ele>
        <time>2011-10-30T13:00:00Z</time>
      </trkpt>
      <trkpt lat="43.79444" lon="7.24383">
        <ele>662.420441</ele>
        <time>2011-10-30T13:00:06Z</time>
      </trkpt>
      <trkpt lat="43.79453" lon="7.24376">
        <ele>663.420433</ele>
        <time>2011-10-30T13:00:12Z</time>
      </trkpt>
      <trkpt lat="43.79458" lon="7.24372">
        <ele>664.420437</ele>
        <time>2011-10-30T13:00:15Z</time>
      </trkpt>
      <trkpt lat="43.79466" lon="7.24366">
        <ele>666.420433</ele>
        <time>2011-10-30T13:00:20Z</time>
      </trkpt>
      <trkpt lat="43.79473" lon="7.24359">
        <ele>667.420425</ele>
        <time>2011-10-30T13:00:25Z</time>
      </trkpt>
      <trkpt lat="43.7948" lon="7.2435">
        <ele>667.420418</ele>
        <time>2011-10-30T13:00:30Z</time>
      </trkpt>
      <trkpt lat="43.79483" lon="7.24347">
        <ele>668.420418</ele>
        <time>2011-10-30T13:00:32Z</time>
      </trkpt>
      <trkpt lat="43.7949" lon="7.24338">
        <ele>670.420406</ele>
        <time>2011-10-30T13:00:37Z</time>
      </trkpt>
      <trkpt lat="43.79497" lon="7.24328">
        <ele>669.420399</ele>
        <time>2011-10-30T13:00:42Z</time>
      </trkpt>
      <trkpt lat="43.79504" lon="7.24319">
        <ele>668.420387</ele>
        <time>2011-10-30T13:00:47Z</time>
      </trkpt>
      <trkpt lat="43.79511" lon="7.24311">
        <ele>668.42038</ele>
        <time>2011-10-30T13:00:52Z</time>
      </trkpt>
      <trkpt lat="43.79518" lon="7.24301">
        <ele>668.420368</ele>
        <time>2011-10-30T13:00:58Z</time>
      </trkpt>
      <trkpt lat="43.79525" lon="7.24291">
        <ele>669.420357</ele>
        <time>2011-10-30T13:01:03Z</time>
      </trkpt>
      <trkpt lat="43.79532" lon="7.2428">
        <ele>668.420341</ele>
        <time>2011-10-30T13:01:09Z</time>
      </trkpt>
      <trkpt lat="43.79539" lon="7.2427">
        <ele>669.42033</ele>
        <time>2011-10-30T13:01:15Z</time>
      </trkpt>
      <trkpt lat="43.79545" lon="7.24258">
        <ele>670.420315</ele>
        <time>2011-10-30T13:01:21Z</time>
      </trkpt>
      <trkpt lat="43.79548" lon="7.24251">
        <ele>670.420303</ele>
        <time>2011-10-30T13:01:24Z</time>
      </trkpt>
      <trkpt lat="43.79553" lon="7.24239">
        <ele>669.420284</ele>
        <time>2011-10-30T13:01:29Z</time>
      </trkpt>
      <trkpt lat="43.79557" lon="7.24226">
        <ele>669.420265</ele>
        <time>2011-10-30T13:01:34Z</time>
      </trkpt>
      <trkpt lat="43.79561" lon="7.24216">
        <ele>671.420246</ele>
        <time>2011-10-30T13:01:39Z</time>
      </trkpt>
      <trkpt lat="43.79566" lon="7.24204">
        <ele>671.420235</ele>
        <time>2011-10-30T13:01:44Z</time>
      </trkpt>
      <trkpt lat="43.79571" lon="7.24192">
        <ele>670.420212</ele>
        <time>2011-10-30T13:01:49Z</time>
      </trkpt>
      <trkpt lat="43.79577" lon="7.24179">
        <ele>669.420193</ele>
        <time>2011-10-30T13:01:54Z</time>
      </trkpt>
      <trkpt lat="43.79585" lon="7.24171">
        <ele>671.420189</ele>
        <time>2011-10-30T13:01:59Z</time>
      </trkpt>
      <trkpt lat="43.79587" lon="7.24171">
        <ele>673.420189</ele>
        <time>2011-10-30T13:02:04Z</time>
      </trkpt>
      <trkpt lat="43.79582" lon="7.24182">
        <ele>671.420204</ele>
        <time>2011-10-30T13:02:12Z</time>
      </trkpt>
      <trkpt lat="43.79577" lon="7.24195">
        <ele>671.420227</ele>
        <time>2011-10-30T13:02:20Z</time>
      </trkpt>
      <trkpt lat="43.79573" lon="7.24208">
        <ele>672.42025</ele>
        <time>2011-10-30T13:02:28Z</time>
      </trkpt>
      <trkpt lat="43.79572" lon="7.24212">
        <ele>672.420258</ele>
        <time>2011-10-30T13:02:30Z</time>
      </trkpt>
      <trkpt lat="43.7957" lon="7.24225">
        <ele>671.42028</ele>
        <time>2011-10-30T13:02:37Z</time>
      </trkpt>
      <trkpt lat="43.79567" lon="7.24239">
        <ele>672.420303</ele>
        <time>2011-10-30T13:02:44Z</time>
      </trkpt>
      <trkpt lat="43.79565" lon="7.24251">
        <ele>672.420326</ele>
        <time>2011-10-30T13:02:50Z</time>
      </trkpt>
      <trkpt lat="43.79559" lon="7.2427">
        <ele>673.420361</ele>
        <time>2011-10-30T13:02:59Z</time>
      </trkpt>
      <trkpt lat="43.79554" lon="7.24282">
        <ele>672.420376</ele>
        <time>2011-10-30T13:03:05Z</time>
      </trkpt>
      <trkpt lat="43.79549" lon="7.24294">
        <ele>673.420395</ele>
        <time>2011-10-30T13:03:10Z</time>
      </trkpt>
      <trkpt lat="43.79545" lon="7.24306">
        <ele>674.420414</ele>
        <time>2011-10-30T13:03:15Z</time>
      </trkpt>
      <trkpt lat="43.7954" lon="7.24317">
        <ele>675.420433</ele>
        <time>2011-10-30T13:03:20Z</time>
      </trkpt>
      <trkpt lat="43.79536" lon="7.24328">
        <ele>677.420448</ele>
        <time>2011-10-30T13:03:25Z</time>
      </trkpt>
      <trkpt lat="43.7953" lon="7.24338">
        <ele>677.420464</ele>
        <time>2011-10-30T13:03:30Z</time>
      </trkpt>
      <trkpt lat="43.79525" lon="7.24349">
        <ele>678.420475</ele>
        <time>2011-10-30T13:03:35Z</time>
      </trkpt>
      <trkpt lat="43.79519" lon="7.2436">
        <ele>679.420494</ele>
        <time>2011-10-30T13:03:40Z</time>
      </trkpt>
      <trkpt lat="43.79513" lon="7.24371">
        <ele>679.420509</ele>
        <time>2011-10-30T13:03:45Z</time>
      </trkpt>
      <trkpt lat="43.79508" lon="7.24381">
        <ele>680.420517</ele>
        <time>2011-10-30T13:03:50Z</time>
      </trkpt>
      <trkpt lat="43.79501" lon="7.24391">
        <ele>680.420532</ele>
        <time>2011-10-30T13:03:55Z</time>
      </trkpt>
      <trkpt lat="43.79495" lon="7.24403">
        <ele>680.420551</ele>
        <time>2011-10-30T13:04:01Z</time>
      </trkpt>
      <trkpt lat="43.79489" lon="7.24412">
        <ele>681.420563</ele>
        <time>2011-10-30T13:04:06Z</time>
      </trkpt>
      <trkpt lat="43.79483" lon="7.24424">
        <ele>681.420578</ele>
        <time>2011-10-30T13:04:12Z</time>
      </trkpt>
      <trkpt lat="43.79475" lon="7.24435">
        <ele>681.420589</ele>
        <time>2011-10-30T13:04:18Z</time>
      </trkpt>
      <trkpt lat="43.79471" lon="7.24443">
        <ele>682.420601</ele>
        <time>2011-10-30T13:04:23Z</time>
      </trkpt>
      <trkpt lat="43.79464" lon="7.24454">
        <ele>684.420609</ele>
        <time>2011-10-30T13:04:28Z</time>
      </trkpt>
      <trkpt lat="43.79456" lon="7.24462">
        <ele>684.420624</ele>
        <time>2011-10-30T13:04:34Z</time>
      </trkpt>
      <trkpt lat="43.79448" lon="7.2447">
        <ele>684.420628</ele>
        <time>2011-10-30T13:04:41Z</time>
      </trkpt>
      <trkpt lat="43.79444" lon="7.24475">
        <ele>684.420631</ele>
        <time>2011-10-30T13:04:46Z</time>
      </trkpt>
      <trkpt lat="43.79435" lon="7.24486">
        <ele>686.420639</ele>
        <time>2011-10-30T13:04:53Z</time>
      </trkpt>
      <trkpt lat="43.79432" lon="7.24489">
        <ele>686.420647</ele>
        <time>2011-10-30T13:04:55Z</time>
      </trkpt>
      <trkpt lat="43.79425" lon="7.24498">
        <ele>686.420654</ele>
        <time>2011-10-30T13:05:01Z</time>
      </trkpt>
      <trkpt lat="43.79418" lon="7.24506">
        <ele>687.420662</ele>
        <time>2011-10-30T13:05:06Z</time>
      </trkpt>
      <trkpt lat="43.7941" lon="7.24514">
        <ele>687.420666</ele>
        <time>2011-10-30T13:05:11Z</time>
      </trkpt>
      <trkpt lat="43.79402" lon="7.24523">
        <ele>689.420677</ele>
        <time>2011-10-30T13:05:17Z</time>
      </trkpt>
      <trkpt lat="43.794" lon="7.24526">
        <ele>689.420677</ele>
        <time>2011-10-30T13:05:19Z</time>
      </trkpt>
      <trkpt lat="43.79393" lon="7.24535">
        <ele>690.420685</ele>
        <time>2011-10-30T13:05:25Z</time>
      </trkpt>
      <trkpt lat="43.79391" lon="7.24537">
        <ele>689.420685</ele>
        <time>2011-10-30T13:05:26Z</time>
      </trkpt>
      <trkpt lat="43.79385" lon="7.24548">
        <ele>690.4207</ele>
        <time>2011-10-30T13:05:32Z</time>
      </trkpt>
      <trkpt lat="43.79379" lon="7.24558">
        <ele>693.420715</ele>
        <time>2011-10-30T13:05:38Z</time>
      </trkpt>
      <trkpt lat="43.79374" lon="7.24568">
        <ele>694.420731</ele>
        <time>2011-10-30T13:05:44Z</time>
      </trkpt>
      <trkpt lat="43.79368" lon="7.24579">
        <ele>695.420746</ele>
        <time>2011-10-30T13:05:50Z</time>
      </trkpt>
      <trkpt lat="43.79364" lon="7.24591">
        <ele>696.420761</ele>
        <time>2011-10-30T13:05:56Z</time>
      </trkpt>
      <trkpt lat="43.79359" lon="7.24602">
        <ele>696.420784</ele>
        <time>2011-10-30T13:06:02Z</time>
      </trkpt>
      <trkpt lat="43.79358" lon="7.24604">
        <ele>697.420784</ele>
        <time>2011-10-30T13:06:03Z</time>
      </trkpt>
      <trkpt lat="43.79355" lon="7.24616">
        <ele>699.420803</ele>
        <time>2011-10-30T13:06:09Z</time>
      </trkpt>
      <trkpt lat="43.79354" lon="7.24618">
        <ele>699.420807</ele>
        <time>2011-10-30T13:06:10Z</time>
      </trkpt>
      <trkpt lat="43.79349" lon="7.24629">
        <ele>700.420822</ele>
        <time>2011-10-30T13:06:16Z</time>
      </trkpt>
      <trkpt lat="43.79348" lon="7.2463">
        <ele>700.42083</ele>
        <time>2011-10-30T13:06:18Z</time>
      </trkpt>
      <trkpt lat="43.79343" lon="7.24641">
        <ele>701.420841</ele>
        <time>2011-10-30T13:06:23Z</time>
      </trkpt>
      <trkpt lat="43.79338" lon="7.24653">
        <ele>702.42086</ele>
        <time>2011-10-30T13:06:29Z</time>
      </trkpt>
      <trkpt lat="43.79334" lon="7.24665">
        <ele>702.420879</ele>
        <time>2011-10-30T13:06:35Z</time>
      </trkpt>
      <trkpt lat="43.79331" lon="7.24678">
        <ele>702.420906</ele>
        <time>2011-10-30T13:06:41Z</time>
      </trkpt>
      <trkpt lat="43.79327" lon="7.2469">
        <ele>703.420921</ele>
        <time>2011-10-30T13:06:47Z</time>
      </trkpt>
      <trkpt lat="43.79323" lon="7.24702">
        <ele>704.420944</ele>
        <time>2011-10-30T13:06:53Z</time>
      </trkpt>
      <trkpt lat="43.7932" lon="7.24716">
        <ele>705.420967</ele>
        <time>2011-10-30T13:06:59Z</time>
      </trkpt>
      <trkpt lat="43.7932" lon="7.24718">
        <ele>705.420971</ele>
        <time>2011-10-30T13:07:00Z</time>
      </trkpt>
      <trkpt lat="43.79319" lon="7.24731">
        <ele>706.420998</ele>
        <time>2011-10-30T13:07:05Z</time>
      </trkpt>
      <trkpt lat="43.7932" lon="7.24745">
        <ele>706.421028</ele>
        <time>2011-10-30T13:07:11Z</time>
      </trkpt>
      <trkpt lat="43.79321" lon="7.24759">
        <ele>708.421059</ele>
        <time>2011-10-30T13:07:17Z</time>
      </trkpt>
      <trkpt lat="43.79325" lon="7.24772">
        <ele>707.421089</ele>
        <time>2011-10-30T13:07:23Z</time>
      </trkpt>
      <trkpt lat="43.7933" lon="7.24788">
        <ele>706.421135</ele>
        <time>2011-10-30T13:07:28Z</time>
      </trkpt>
      <trkpt lat="43.79335" lon="7.24799">
        <ele>707.421165</ele>
        <time>2011-10-30T13:07:30Z</time>
      </trkpt>
      <trkpt lat="43.79342" lon="7.24811">
        <ele>707.421196</ele>
        <time>2011-10-30T13:07:32Z</time>
      </trkpt>
      <trkpt lat="43.79349" lon="7.24821">
        <ele>707.421227</ele>
        <time>2011-10-30T13:07:34Z</time>
      </trkpt>
      <trkpt lat="43.79358" lon="7.24831">
        <ele>706.421257</ele>
        <time>2011-10-30T13:07:37Z</time>
      </trkpt>
      <trkpt lat="43.79361" lon="7.24833">
        <ele>706.421268</ele>
        <time>2011-10-30T13:07:38Z</time>
      </trkpt>
      <trkpt lat="43.79371" lon="7.24837">
        <ele>706.421291</ele>
        <time>2011-10-30T13:07:41Z</time>
      </trkpt>
      <trkpt lat="43.7938" lon="7.24841">
        <ele>706.421318</ele>
        <time>2011-10-30T13:07:44Z</time>
      </trkpt>
      <trkpt lat="43.79384" lon="7.24843">
        <ele>706.421326</ele>
        <time>2011-10-30T13:07:45Z</time>
      </trkpt>
      <trkpt lat="43.79394" lon="7.24849">
        <ele>706.421349</ele>
        <time>2011-10-30T13:07:48Z</time>
      </trkpt>
      <trkpt lat="43.79404" lon="7.24854">
        <ele>705.421371</ele>
        <time>2011-10-30T13:07:51Z</time>
      </trkpt>
      <trkpt lat="43.79414" lon="7.2486">
        <ele>706.421398</ele>
        <time>2011-10-30T13:07:54Z</time>
      </trkpt>
      <trkpt lat="43.79424" lon="7.24866">
        <ele>706.421429</ele>
        <time>2011-10-30T13:07:57Z</time>
      </trkpt>
      <trkpt lat="43.79434" lon="7.24871">
        <ele>706.421448</ele>
        <time>2011-10-30T13:08:01Z</time>
      </trkpt>
      <trkpt lat="43.79443" lon="7.24875">
        <ele>705.421471</ele>
        <time>2011-10-30T13:08:05Z</time>
      </trkpt>
      <trkpt lat="43.79454" lon="7.24879">
        <ele>706.421494</ele>
        <time>2011-10-30T13:08:10Z</time>
      </trkpt>
      <trkpt lat="43.79454" lon="7.24879">
        <ele>706.421494</ele>
        <time>2011-10-30T13:08:11Z</time>
      </trkpt>
      <trkpt lat="43.79463" lon="7.24882">
        <ele>706.421513</ele>
        <time>2011-10-30T13:08:15Z</time>
      </trkpt>
      <trkpt lat="43.79473" lon="7.24888">
        <ele>705.421539</ele>
        <time>2011-10-30T13:08:21Z</time>
      </trkpt>
      <trkpt lat="43.79481" lon="7.24893">
        <ele>706.421558</ele>
        <time>2011-10-30T13:08:26Z</time>
      </trkpt>
      <trkpt lat="43.79493" lon="7.24897">
        <ele>705.421585</ele>
        <time>2011-10-30T13:08:32Z</time>
      </trkpt>
      <trkpt lat="43.79503" lon="7.249">
        <ele>705.421608</ele>
        <time>2011-10-30T13:08:37Z</time>
      </trkpt>
      <trkpt lat="43.79513" lon="7.24902">
        <ele>706.421627</ele>
        <time>2011-10-30T13:08:42Z</time>
      </trkpt>
      <trkpt lat="43.79522" lon="7.24904">
        <ele>706.421642</ele>
        <time>2011-10-30T13:08:47Z</time>
      </trkpt>
      <trkpt lat="43.79531" lon="7.24905">
        <ele>707.421654</ele>
        <time>2011-10-30T13:08:52Z</time>
      </trkpt>
      <trkpt lat="43.79541" lon="7.24906">
        <ele>707.421669</ele>
        <time>2011-10-30T13:08:57Z</time>
      </trkpt>
      <trkpt lat="43.79552" lon="7.24907">
        <ele>707.421688</ele>
        <time>2011-10-30T13:09:02Z</time>
      </trkpt>
      <trkpt lat="43.79554" lon="7.24907">
        <ele>707.421692</ele>
        <time>2011-10-30T13:09:03Z</time>
      </trkpt>
      <trkpt lat="43.79563" lon="7.24908">
        <ele>707.421703</ele>
        <time>2011-10-30T13:09:08Z</time>
      </trkpt>
      <trkpt lat="43.79574" lon="7.24909">
        <ele>707.421722</ele>
        <time>2011-10-30T13:09:14Z</time>
      </trkpt>
      <trkpt lat="43.79584" lon="7.24911">
        <ele>707.421738</ele>
        <time>2011-10-30T13:09:20Z</time>
      </trkpt>
      <trkpt lat="43.79593" lon="7.24911">
        <ele>707.421753</ele>
        <time>2011-10-30T13:09:25Z</time>
      </trkpt>
      <trkpt lat="43.79604" lon="7.2491">
        <ele>707.421768</ele>
        <time>2011-10-30T13:09:31Z</time>
      </trkpt>
      <trkpt lat="43.79618" lon="7.24907">
        <ele>709.42178</ele>
        <time>2011-10-30T13:09:38Z</time>
      </trkpt>
      <trkpt lat="43.79627" lon="7.24906">
        <ele>709.421791</ele>
        <time>2011-10-30T13:09:43Z</time>
      </trkpt>
      <trkpt lat="43.79642" lon="7.24899">
        <ele>708.421795</ele>
        <time>2011-10-30T13:09:51Z</time>
      </trkpt>
      <trkpt lat="43.79643" lon="7.24898">
        <ele>709.421795</ele>
        <time>2011-10-30T13:09:52Z</time>
      </trkpt>
      <trkpt lat="43.79651" lon="7.24891">
        <ele>710.421791</ele>
        <time>2011-10-30T13:09:58Z</time>
      </trkpt>
      <trkpt lat="43.79662" lon="7.24881">
        <ele>712.421783</ele>
        <time>2011-10-30T13:10:07Z</time>
      </trkpt>
      <trkpt lat="43.79674" lon="7.2487">
        <ele>714.421776</ele>
        <time>2011-10-30T13:10:18Z</time>
      </trkpt>
      <trkpt lat="43.79675" lon="7.24869">
        <ele>715.421776</ele>
        <time>2011-10-30T13:10:19Z</time>
      </trkpt>
      <trkpt lat="43.79686" lon="7.24856">
        <ele>716.421764</ele>
        <time>2011-10-30T13:10:31Z</time>
      </trkpt>
      <trkpt lat="43.79693" lon="7.24848">
        <ele>718.421761</ele>
        <time>2011-10-30T13:10:38Z</time>
      </trkpt>
      <trkpt lat="43.79702" lon="7.24839">
        <ele>719.421749</ele>
        <time>2011-10-30T13:10:45Z</time>
      </trkpt>
      <trkpt lat="43.79705" lon="7.24836">
        <ele>719.421753</ele>
        <time>2011-10-30T13:10:47Z</time>
      </trkpt>
      <trkpt lat="43.79715" lon="7.24827">
        <ele>722.421745</ele>
        <time>2011-10-30T13:10:54Z</time>
      </trkpt>
      <trkpt lat="43.7972" lon="7.24823">
        <ele>722.421741</ele>
        <time>2011-10-30T13:10:57Z</time>
      </trkpt>
      <trkpt lat="43.79728" lon="7.24818">
        <ele>723.421741</ele>
        <time>2011-10-30T13:11:02Z</time>
      </trkpt>
      <trkpt lat="43.79737" lon="7.24813">
        <ele>724.421745</ele>
        <time>2011-10-30T13:11:07Z</time>
      </trkpt>
      <trkpt lat="43.79746" lon="7.24808">
        <ele>726.421745</ele>
        <time>2011-10-30T13:11:12Z</time>
      </trkpt>
      <trkpt lat="43.79755" lon="7.24805">
        <ele>728.421753</ele>
        <time>2011-10-30T13:11:17Z</time>
      </trkpt>
      <trkpt lat="43.79765" lon="7.24801">
        <ele>729.421757</ele>
        <time>2011-10-30T13:11:22Z</time>
      </trkpt>
      <trkpt lat="43.79775" lon="7.24795">
        <ele>729.421761</ele>
        <time>2011-10-30T13:11:27Z</time>
      </trkpt>
      <trkpt lat="43.79784" lon="7.24787">
        <ele>728.421753</ele>
        <time>2011-10-30T13:11:31Z</time>
      </trkpt>
      <trkpt lat="43.79793" lon="7.2478">
        <ele>730.421753</ele>
        <time>2011-10-30T13:11:35Z</time>
      </trkpt>
      <trkpt lat="43.79803" lon="7.24773">
        <ele>731.421753</ele>
        <time>2011-10-30T13:11:39Z</time>
      </trkpt>
      <trkpt lat="43.79811" lon="7.24763">
        <ele>730.421745</ele>
        <time>2011-10-30T13:11:43Z</time>
      </trkpt>
      <trkpt lat="43.79819" lon="7.24753">
        <ele>731.421734</ele>
        <time>2011-10-30T13:11:47Z</time>
      </trkpt>
      <trkpt lat="43.79825" lon="7.24745">
        <ele>731.421722</ele>
        <time>2011-10-30T13:11:51Z</time>
      </trkpt>
      <trkpt lat="43.7983" lon="7.24738">
        <ele>731.421722</ele>
        <time>2011-10-30T13:11:54Z</time>
      </trkpt>
      <trkpt lat="43.79837" lon="7.24728">
        <ele>732.421703</ele>
        <time>2011-10-30T13:11:59Z</time>
      </trkpt>
      <trkpt lat="43.79845" lon="7.24719">
        <ele>733.4217</ele>
        <time>2011-10-30T13:12:04Z</time>
      </trkpt>
      <trkpt lat="43.79853" lon="7.24713">
        <ele>734.421692</ele>
        <time>2011-10-30T13:12:10Z</time>
      </trkpt>
      <trkpt lat="43.79861" lon="7.24706">
        <ele>735.421692</ele>
        <time>2011-10-30T13:12:16Z</time>
      </trkpt>
      <trkpt lat="43.79864" lon="7.24704">
        <ele>736.421688</ele>
        <time>2011-10-30T13:12:18Z</time>
      </trkpt>
      <trkpt lat="43.79873" lon="7.24697">
        <ele>737.421692</ele>
        <time>2011-10-30T13:12:24Z</time>
      </trkpt>
      <trkpt lat="43.79883" lon="7.24689">
        <ele>739.421688</ele>
        <time>2011-10-30T13:12:30Z</time>
      </trkpt>
      <trkpt lat="43.79884" lon="7.24688">
        <ele>739.421684</ele>
        <time>2011-10-30T13:12:31Z</time>
      </trkpt>
      <trkpt lat="43.79893" lon="7.24678">
        <ele>739.421677</ele>
        <time>2011-10-30T13:12:36Z</time>
      </trkpt>
      <trkpt lat="43.79899" lon="7.24668">
        <ele>740.421669</ele>
        <time>2011-10-30T13:12:40Z</time>
      </trkpt>
      <trkpt lat="43.79906" lon="7.24659">
        <ele>738.421654</ele>
        <time>2011-10-30T13:12:44Z</time>
      </trkpt>
      <trkpt lat="43.79911" lon="7.24652">
        <ele>737.421646</ele>
        <time>2011-10-30T13:12:47Z</time>
      </trkpt>
      <trkpt lat="43.79918" lon="7.24642">
        <ele>736.421635</ele>
        <time>2011-10-30T13:12:51Z</time>
      </trkpt>
      <trkpt lat="43.79925" lon="7.24631">
        <ele>735.421619</ele>
        <time>2011-10-30T13:12:56Z</time>
      </trkpt>
      <trkpt lat="43.79931" lon="7.24618">
        <ele>734.421604</ele>
        <time>2011-10-30T13:13:01Z</time>
      </trkpt>
      <trkpt lat="43.79936" lon="7.24605">
        <ele>732.421577</ele>
        <time>2011-10-30T13:13:06Z</time>
      </trkpt>
      <trkpt lat="43.79939" lon="7.24592">
        <ele>732.421558</ele>
        <time>2011-10-30T13:13:11Z</time>
      </trkpt>
      <trkpt lat="43.79942" lon="7.24579">
        <ele>733.421535</ele>
        <time>2011-10-30T13:13:16Z</time>
      </trkpt>
      <trkpt lat="43.79946" lon="7.24568">
        <ele>733.421516</ele>
        <time>2011-10-30T13:13:21Z</time>
      </trkpt>
      <trkpt lat="43.79951" lon="7.24556">
        <ele>735.421501</ele>
        <time>2011-10-30T13:13:26Z</time>
      </trkpt>
      <trkpt lat="43.79952" lon="7.24554">
        <ele>735.421494</ele>
        <time>2011-10-30T13:13:27Z</time>
      </trkpt>
      <trkpt lat="43.79958" lon="7.24545">
        <ele>736.421486</ele>
        <time>2011-10-30T13:13:33Z</time>
      </trkpt>
      <trkpt lat="43.79967" lon="7.24541">
        <ele>737.42149</ele>
        <time>2011-10-30T13:13:38Z</time>
      </trkpt>
      <trkpt lat="43.79982" lon="7.24541">
        <ele>737.421509</ele>
        <time>2011-10-30T13:13:46Z</time>
      </trkpt>
      <trkpt lat="43.7999" lon="7.24546">
        <ele>738.421532</ele>
        <time>2011-10-30T13:13:51Z</time>
      </trkpt>
      <trkpt lat="43.79999" lon="7.24549">
        <ele>739.421551</ele>
        <time>2011-10-30T13:13:56Z</time>
      </trkpt>
      <trkpt lat="43.80009" lon="7.24552">
        <ele>738.42157</ele>
        <time>2011-10-30T13:14:02Z</time>
      </trkpt>
      <trkpt lat="43.80019" lon="7.24555">
        <ele>736.421593</ele>
        <time>2011-10-30T13:14:08Z</time>
      </trkpt>
      <trkpt lat="43.8003" lon="7.24558">
        <ele>737.421612</ele>
        <time>2011-10-30T13:14:14Z</time>
      </trkpt>
      <trkpt lat="43.80037" lon="7.24548">
        <ele>741.421604</ele>
        <time>2011-10-30T13:14:21Z</time>
      </trkpt>
      <trkpt lat="43.80042" lon="7.24535">
        <ele>743.421581</ele>
        <time>2011-10-30T13:14:26Z</time>
      </trkpt>
      <trkpt lat="43.80044" lon="7.24522">
        <ele>744.421555</ele>
        <time>2011-10-30T13:14:31Z</time>
      </trkpt>
      <trkpt lat="43.80049" lon="7.2451">
        <ele>744.421539</ele>
        <time>2011-10-30T13:14:37Z</time>
      </trkpt>
      <trkpt lat="43.80053" lon="7.24498">
        <ele>745.42152</ele>
        <time>2011-10-30T13:14:43Z</time>
      </trkpt>
      <trkpt lat="43.80059" lon="7.24488">
        <ele>746.421505</ele>
        <time>2011-10-30T13:14:49Z</time>
      </trkpt>
      <trkpt lat="43.80068" lon="7.24481">
        <ele>750.421501</ele>
        <time>2011-10-30T13:14:55Z</time>
      </trkpt>
      <trkpt lat="43.80077" lon="7.24482">
        <ele>751.421516</ele>
        <time>2011-10-30T13:14:59Z</time>
      </trkpt>
      <trkpt lat="43.80082" lon="7.24484">
        <ele>752.421528</ele>
        <time>2011-10-30T13:15:01Z</time>
      </trkpt>
      <trkpt lat="43.80091" lon="7.24493">
        <ele>753.421558</ele>
        <time>2011-10-30T13:15:06Z</time>
      </trkpt>
      <trkpt lat="43.80099" lon="7.24503">
        <ele>754.421593</ele>
        <time>2011-10-30T13:15:11Z</time>
      </trkpt>
      <trkpt lat="43.80105" lon="7.24512">
        <ele>755.421619</ele>
        <time>2011-10-30T13:15:15Z</time>
      </trkpt>
      <trkpt lat="43.80111" lon="7.24524">
        <ele>757.421654</ele>
        <time>2011-10-30T13:15:20Z</time>
      </trkpt>
      <trkpt lat="43.80118" lon="7.24533">
        <ele>758.421684</ele>
        <time>2011-10-30T13:15:25Z</time>
      </trkpt>
      <trkpt lat="43.80125" lon="7.24543">
        <ele>759.421711</ele>
        <time>2011-10-30T13:15:30Z</time>
      </trkpt>
      <trkpt lat="43.80126" lon="7.24545">
        <ele>759.421715</ele>
        <time>2011-10-30T13:15:31Z</time>
      </trkpt>
      <trkpt lat="43.80132" lon="7.24555">
        <ele>760.421745</ele>
        <time>2011-10-30T13:15:36Z</time>
      </trkpt>
      <trkpt lat="43.8014" lon="7.24563">
        <ele>762.421772</ele>
        <time>2011-10-30T13:15:41Z</time>
      </trkpt>
      <trkpt lat="43.80148" lon="7.24569">
        <ele>762.421799</ele>
        <time>2011-10-30T13:15:47Z</time>
      </trkpt>
      <trkpt lat="43.80155" lon="7.24578">
        <ele>761.421829</ele>
        <time>2011-10-30T13:15:54Z</time>
      </trkpt>
      <trkpt lat="43.80162" lon="7.24587">
        <ele>761.421856</ele>
        <time>2011-10-30T13:16:00Z</time>
      </trkpt>
      <trkpt lat="43.80169" lon="7.24595">
        <ele>762.421883</ele>
        <time>2011-10-30T13:16:11Z</time>
      </trkpt>
      <trkpt lat="43.80178" lon="7.24597">
        <ele>765.421898</ele>
        <time>2011-10-30T13:16:19Z</time>
      </trkpt>
      <trkpt lat="43.80192" lon="7.24596">
        <ele>767.421913</ele>
        <time>2011-10-30T13:16:29Z</time>
      </trkpt>
      <trkpt lat="43.80201" lon="7.24591">
        <ele>770.421921</ele>
        <time>2011-10-30T13:16:36Z</time>
      </trkpt>
      <trkpt lat="43.8021" lon="7.24587">
        <ele>772.421921</ele>
        <time>2011-10-30T13:16:43Z</time>
      </trkpt>
      <trkpt lat="43.80219" lon="7.24583">
        <ele>773.421928</ele>
        <time>2011-10-30T13:16:49Z</time>
      </trkpt>
      <trkpt lat="43.80227" lon="7.24577">
        <ele>776.421925</ele>
        <time>2011-10-30T13:16:55Z</time>
      </trkpt>
      <trkpt lat="43.80234" lon="7.2457">
        <ele>778.421921</ele>
        <time>2011-10-30T13:17:01Z</time>
      </trkpt>
      <trkpt lat="43.80236" lon="7.24569">
        <ele>779.421921</ele>
        <time>2011-10-30T13:17:02Z</time>
      </trkpt>
      <trkpt lat="43.80247" lon="7.24559">
        <ele>781.421917</ele>
        <time>2011-10-30T13:17:12Z</time>
      </trkpt>
      <trkpt lat="43.80256" lon="7.24556">
        <ele>782.421921</ele>
        <time>2011-10-30T13:17:20Z</time>
      </trkpt>
      <trkpt lat="43.80266" lon="7.24553">
        <ele>784.421928</ele>
        <time>2011-10-30T13:17:28Z</time>
      </trkpt>
      <trkpt lat="43.80275" lon="7.24551">
        <ele>785.421936</ele>
        <time>2011-10-30T13:17:35Z</time>
      </trkpt>
      <trkpt lat="43.80285" lon="7.2455">
        <ele>788.421951</ele>
        <time>2011-10-30T13:17:43Z</time>
      </trkpt>
      <trkpt lat="43.8029" lon="7.2455">
        <ele>788.421955</ele>
        <time>2011-10-30T13:17:46Z</time>
      </trkpt>
      <trkpt lat="43.803" lon="7.24547">
        <ele>790.421959</ele>
        <time>2011-10-30T13:17:53Z</time>
      </trkpt>
      <trkpt lat="43.8031" lon="7.24545">
        <ele>790.42197</ele>
        <time>2011-10-30T13:18:00Z</time>
      </trkpt>
      <trkpt lat="43.80312" lon="7.24545">
        <ele>790.421974</ele>
        <time>2011-10-30T13:18:02Z</time>
      </trkpt>
      <trkpt lat="43.80321" lon="7.24544">
        <ele>793.421982</ele>
        <time>2011-10-30T13:18:07Z</time>
      </trkpt>
      <trkpt lat="43.80331" lon="7.24542">
        <ele>794.421997</ele>
        <time>2011-10-30T13:18:13Z</time>
      </trkpt>
      <trkpt lat="43.80346" lon="7.2454">
        <ele>796.422012</ele>
        <time>2011-10-30T13:18:23Z</time>
      </trkpt>
      <trkpt lat="43.80351" lon="7.24539">
        <ele>795.422016</ele>
        <time>2011-10-30T13:18:26Z</time>
      </trkpt>
      <trkpt lat="43.80363" lon="7.24536">
        <ele>796.422028</ele>
        <time>2011-10-30T13:18:32Z</time>
      </trkpt>
      <trkpt lat="43.80372" lon="7.24533">
        <ele>797.422035</ele>
        <time>2011-10-30T13:18:37Z</time>
      </trkpt>
      <trkpt lat="43.80382" lon="7.24531">
        <ele>798.422043</ele>
        <time>2011-10-30T13:18:42Z</time>
      </trkpt>
      <trkpt lat="43.80391" lon="7.24528">
        <ele>798.422047</ele>
        <time>2011-10-30T13:18:47Z</time>
      </trkpt>
      <trkpt lat="43.80393" lon="7.24527">
        <ele>798.422047</ele>
        <time>2011-10-30T13:18:48Z</time>
      </trkpt>
      <trkpt lat="43.80402" lon="7.24525">
        <ele>799.422058</ele>
        <time>2011-10-30T13:18:53Z</time>
      </trkpt>
      <trkpt lat="43.80413" lon="7.24523">
        <ele>799.422066</ele>
        <time>2011-10-30T13:18:59Z</time>
      </trkpt>
      <trkpt lat="43.80423" lon="7.24521">
        <ele>799.422077</ele>
        <time>2011-10-30T13:19:05Z</time>
      </trkpt>
      <trkpt lat="43.80425" lon="7.2452">
        <ele>799.422077</ele>
        <time>2011-10-30T13:19:06Z</time>
      </trkpt>
      <trkpt lat="43.80435" lon="7.24518">
        <ele>799.422085</ele>
        <time>2011-10-30T13:19:12Z</time>
      </trkpt>
      <trkpt lat="43.80445" lon="7.24518">
        <ele>801.4221</ele>
        <time>2011-10-30T13:19:18Z</time>
      </trkpt>
      <trkpt lat="43.80446" lon="7.24518">
        <ele>801.422104</ele>
        <time>2011-10-30T13:19:19Z</time>
      </trkpt>
      <trkpt lat="43.80456" lon="7.24518">
        <ele>801.422119</ele>
        <time>2011-10-30T13:19:25Z</time>
      </trkpt>
      <trkpt lat="43.80466" lon="7.24518">
        <ele>803.422127</ele>
        <time>2011-10-30T13:19:31Z</time>
      </trkpt>
      <trkpt lat="43.80476" lon="7.24519">
        <ele>803.422142</ele>
        <time>2011-10-30T13:19:36Z</time>
      </trkpt>
      <trkpt lat="43.80481" lon="7.24519">
        <ele>803.42215</ele>
        <time>2011-10-30T13:19:38Z</time>
      </trkpt>
      <trkpt lat="43.80491" lon="7.24519">
        <ele>804.422165</ele>
        <time>2011-10-30T13:19:42Z</time>
      </trkpt>
      <trkpt lat="43.80501" lon="7.2452">
        <ele>803.42218</ele>
        <time>2011-10-30T13:19:45Z</time>
      </trkpt>
      <trkpt lat="43.80511" lon="7.24521">
        <ele>803.422199</ele>
        <time>2011-10-30T13:19:48Z</time>
      </trkpt>
      <trkpt lat="43.80523" lon="7.24522">
        <ele>802.422218</ele>
        <time>2011-10-30T13:19:52Z</time>
      </trkpt>
      <trkpt lat="43.80535" lon="7.24523">
        <ele>802.422237</ele>
        <time>2011-10-30T13:19:56Z</time>
      </trkpt>
      <trkpt lat="43.80546" lon="7.24523">
        <ele>802.422253</ele>
        <time>2011-10-30T13:19:59Z</time>
      </trkpt>
      <trkpt lat="43.80559" lon="7.24522">
        <ele>802.422264</ele>
        <time>2011-10-30T13:20:02Z</time>
      </trkpt>
      <trkpt lat="43.80564" lon="7.24521">
        <ele>803.422272</ele>
        <time>2011-10-30T13:20:03Z</time>
      </trkpt>
      <trkpt lat="43.80576" lon="7.24519">
        <ele>803.422287</ele>
        <time>2011-10-30T13:20:06Z</time>
      </trkpt>
      <trkpt lat="43.80585" lon="7.24518">
        <ele>804.422295</ele>
        <time>2011-10-30T13:20:09Z</time>
      </trkpt>
      <trkpt lat="43.80596" lon="7.24517">
        <ele>804.42231</ele>
        <time>2011-10-30T13:20:12Z</time>
      </trkpt>
      <trkpt lat="43.80606" lon="7.24517">
        <ele>805.422325</ele>
        <time>2011-10-30T13:20:14Z</time>
      </trkpt>
      <trkpt lat="43.80616" lon="7.24516">
        <ele>806.422333</ele>
        <time>2011-10-30T13:20:16Z</time>
      </trkpt>
      <trkpt lat="43.80621" lon="7.24516">
        <ele>806.42234</ele>
        <time>2011-10-30T13:20:17Z</time>
      </trkpt>
      <trkpt lat="43.80631" lon="7.24515">
        <ele>807.422356</ele>
        <time>2011-10-30T13:20:19Z</time>
      </trkpt>
      <trkpt lat="43.8064" lon="7.24515">
        <ele>807.422363</ele>
        <time>2011-10-30T13:20:21Z</time>
      </trkpt>
      <trkpt lat="43.8065" lon="7.24514">
        <ele>807.422375</ele>
        <time>2011-10-30T13:20:23Z</time>
      </trkpt>
      <trkpt lat="43.8066" lon="7.24513">
        <ele>807.422386</ele>
        <time>2011-10-30T13:20:25Z</time>
      </trkpt>
      <trkpt lat="43.8067" lon="7.24513">
        <ele>807.422398</ele>
        <time>2011-10-30T13:20:27Z</time>
      </trkpt>
      <trkpt lat="43.80675" lon="7.24512">
        <ele>807.422401</ele>
        <time>2011-10-30T13:20:28Z</time>
      </trkpt>
      <trkpt lat="43.80687" lon="7.24512">
        <ele>807.422424</ele>
        <time>2011-10-30T13:20:31Z</time>
      </trkpt>
      <trkpt lat="43.807" lon="7.24511">
        <ele>808.422432</ele>
        <time>2011-10-30T13:20:34Z</time>
      </trkpt>
      <trkpt lat="43.80704" lon="7.2451">
        <ele>808.42244</ele>
        <time>2011-10-30T13:20:35Z</time>
      </trkpt>
      <trkpt lat="43.80716" lon="7.24509">
        <ele>808.422455</ele>
        <time>2011-10-30T13:20:38Z</time>
      </trkpt>
      <trkpt lat="43.8072" lon="7.24509">
        <ele>808.422459</ele>
        <time>2011-10-30T13:20:39Z</time>
      </trkpt>
      <trkpt lat="43.80732" lon="7.24508">
        <ele>808.422478</ele>
        <time>2011-10-30T13:20:42Z</time>
      </trkpt>
      <trkpt lat="43.80742" lon="7.24507">
        <ele>809.422485</ele>
        <time>2011-10-30T13:20:44Z</time>
      </trkpt>
      <trkpt lat="43.80747" lon="7.24507">
        <ele>808.422493</ele>
        <time>2011-10-30T13:20:45Z</time>
      </trkpt>
      <trkpt lat="43.8076" lon="7.24506">
        <ele>808.422508</ele>
        <time>2011-10-30T13:20:47Z</time>
      </trkpt>
      <trkpt lat="43.80771" lon="7.24507">
        <ele>807.422523</ele>
        <time>2011-10-30T13:20:49Z</time>
      </trkpt>
      <trkpt lat="43.80776" lon="7.24508">
        <ele>807.422535</ele>
        <time>2011-10-30T13:20:50Z</time>
      </trkpt>
      <trkpt lat="43.80785" lon="7.2451">
        <ele>807.422554</ele>
        <time>2011-10-30T13:20:52Z</time>
      </trkpt>
      <trkpt lat="43.80795" lon="7.24521">
        <ele>807.422592</ele>
        <time>2011-10-30T13:20:55Z</time>
      </trkpt>
      <trkpt lat="43.80801" lon="7.24535">
        <ele>806.422626</ele>
        <time>2011-10-30T13:20:58Z</time>
      </trkpt>
      <trkpt lat="43.80805" lon="7.24548">
        <ele>805.422661</ele>
        <time>2011-10-30T13:21:01Z</time>
      </trkpt>
      <trkpt lat="43.80806" lon="7.24552">
        <ele>805.422668</ele>
        <time>2011-10-30T13:21:02Z</time>
      </trkpt>
      <trkpt lat="43.80814" lon="7.2456">
        <ele>806.422699</ele>
        <time>2011-10-30T13:21:06Z</time>
      </trkpt>
      <trkpt lat="43.80826" lon="7.2456">
        <ele>808.422714</ele>
        <time>2011-10-30T13:21:11Z</time>
      </trkpt>
      <trkpt lat="43.80838" lon="7.24558">
        <ele>810.422722</ele>
        <time>2011-10-30T13:21:15Z</time>
      </trkpt>
      <trkpt lat="43.80849" lon="7.24554">
        <ele>812.422737</ele>
        <time>2011-10-30T13:21:19Z</time>
      </trkpt>
      <trkpt lat="43.80859" lon="7.24548">
        <ele>813.422733</ele>
        <time>2011-10-30T13:21:22Z</time>
      </trkpt>
      <trkpt lat="43.80871" lon="7.24541">
        <ele>813.422737</ele>
        <time>2011-10-30T13:21:25Z</time>
      </trkpt>
      <trkpt lat="43.80884" lon="7.24537">
        <ele>813.422745</ele>
        <time>2011-10-30T13:21:28Z</time>
      </trkpt>
      <trkpt lat="43.80893" lon="7.24535">
        <ele>812.422752</ele>
        <time>2011-10-30T13:21:30Z</time>
      </trkpt>
      <trkpt lat="43.80902" lon="7.24534">
        <ele>812.42276</ele>
        <time>2011-10-30T13:21:32Z</time>
      </trkpt>
      <trkpt lat="43.80913" lon="7.2453">
        <ele>812.422768</ele>
        <time>2011-10-30T13:21:35Z</time>
      </trkpt>
      <trkpt lat="43.8092" lon="7.24526">
        <ele>811.422768</ele>
        <time>2011-10-30T13:21:37Z</time>
      </trkpt>
      <trkpt lat="43.80927" lon="7.24509">
        <ele>806.422745</ele>
        <time>2011-10-30T13:22:32Z</time>
      </trkpt>
      <trkpt lat="43.80934" lon="7.24499">
        <ele>785.422733</ele>
        <time>2011-10-30T13:23:25Z</time>
      </trkpt>
      <trkpt lat="43.80942" lon="7.24488">
        <ele>786.422722</ele>
        <time>2011-10-30T13:23:29Z</time>
      </trkpt>
      <trkpt lat="43.80948" lon="7.24481">
        <ele>786.422714</ele>
        <time>2011-10-30T13:23:32Z</time>
      </trkpt>
      <trkpt lat="43.80959" lon="7.24462">
        <ele>787.422691</ele>
        <time>2011-10-30T13:23:38Z</time>
      </trkpt>
      <trkpt lat="43.80965" lon="7.24451">
        <ele>787.422676</ele>
        <time>2011-10-30T13:23:41Z</time>
      </trkpt>
      <trkpt lat="43.8097" lon="7.24437">
        <ele>788.422657</ele>
        <time>2011-10-30T13:23:44Z</time>
      </trkpt>
      <trkpt lat="43.80975" lon="7.24418">
        <ele>786.422623</ele>
        <time>2011-10-30T13:23:48Z</time>
      </trkpt>
      <trkpt lat="43.80976" lon="7.24414">
        <ele>786.422615</ele>
        <time>2011-10-30T13:23:49Z</time>
      </trkpt>
      <trkpt lat="43.80983" lon="7.24392">
        <ele>783.422577</ele>
        <time>2011-10-30T13:23:55Z</time>
      </trkpt>
      <trkpt lat="43.80984" lon="7.24389">
        <ele>783.422569</ele>
        <time>2011-10-30T13:23:56Z</time>
      </trkpt>
      <trkpt lat="43.80989" lon="7.24376">
        <ele>782.422554</ele>
        <time>2011-10-30T13:24:00Z</time>
      </trkpt>
      <trkpt lat="43.80996" lon="7.24359">
        <ele>782.422527</ele>
        <time>2011-10-30T13:24:06Z</time>
      </trkpt>
      <trkpt lat="43.81004" lon="7.24349">
        <ele>782.422516</ele>
        <time>2011-10-30T13:24:10Z</time>
      </trkpt>
      <trkpt lat="43.8101" lon="7.24342">
        <ele>782.422508</ele>
        <time>2011-10-30T13:24:12Z</time>
      </trkpt>
      <trkpt lat="43.81016" lon="7.24333">
        <ele>781.422501</ele>
        <time>2011-10-30T13:24:14Z</time>
      </trkpt>
      <trkpt lat="43.81023" lon="7.24324">
        <ele>780.422489</ele>
        <time>2011-10-30T13:24:16Z</time>
      </trkpt>
      <trkpt lat="43.8103" lon="7.24313">
        <ele>780.422474</ele>
        <time>2011-10-30T13:24:18Z</time>
      </trkpt>
      <trkpt lat="43.81037" lon="7.24301">
        <ele>779.422462</ele>
        <time>2011-10-30T13:24:20Z</time>
      </trkpt>
      <trkpt lat="43.81043" lon="7.2429">
        <ele>779.422447</ele>
        <time>2011-10-30T13:24:22Z</time>
      </trkpt>
      <trkpt lat="43.81047" lon="7.24285">
        <ele>779.42244</ele>
        <time>2011-10-30T13:24:23Z</time>
      </trkpt>
      <trkpt lat="43.81053" lon="7.24274">
        <ele>777.422424</ele>
        <time>2011-10-30T13:24:25Z</time>
      </trkpt>
      <trkpt lat="43.81062" lon="7.24261">
        <ele>776.422409</ele>
        <time>2011-10-30T13:24:28Z</time>
      </trkpt>
      <trkpt lat="43.81069" lon="7.24248">
        <ele>775.422394</ele>
        <time>2011-10-30T13:24:31Z</time>
      </trkpt>
      <trkpt lat="43.81071" lon="7.24244">
        <ele>774.422386</ele>
        <time>2011-10-30T13:24:32Z</time>
      </trkpt>
      <trkpt lat="43.81078" lon="7.24233">
        <ele>773.422379</ele>
        <time>2011-10-30T13:24:35Z</time>
      </trkpt>
      <trkpt lat="43.81085" lon="7.24223">
        <ele>772.422367</ele>
        <time>2011-10-30T13:24:39Z</time>
      </trkpt>
      <trkpt lat="43.81094" lon="7.24212">
        <ele>770.422348</ele>
        <time>2011-10-30T13:24:43Z</time>
      </trkpt>
      <trkpt lat="43.811" lon="7.24204">
        <ele>768.422344</ele>
        <time>2011-10-30T13:24:45Z</time>
      </trkpt>
      <trkpt lat="43.8111" lon="7.24193">
        <ele>765.422333</ele>
        <time>2011-10-30T13:24:48Z</time>
      </trkpt>
      <trkpt lat="43.81118" lon="7.24182">
        <ele>763.422325</ele>
        <time>2011-10-30T13:24:51Z</time>
      </trkpt>
      <trkpt lat="43.81126" lon="7.24173">
        <ele>760.422318</ele>
        <time>2011-10-30T13:24:54Z</time>
      </trkpt>
      <trkpt lat="43.81134" lon="7.24164">
        <ele>759.42231</ele>
        <time>2011-10-30T13:24:57Z</time>
      </trkpt>
      <trkpt lat="43.81139" lon="7.24154">
        <ele>757.422295</ele>
        <time>2011-10-30T13:24:59Z</time>
      </trkpt>
      <trkpt lat="43.81143" lon="7.24139">
        <ele>756.422264</ele>
        <time>2011-10-30T13:25:01Z</time>
      </trkpt>
      <trkpt lat="43.81146" lon="7.24124">
        <ele>754.422241</ele>
        <time>2011-10-30T13:25:03Z</time>
      </trkpt>
      <trkpt lat="43.81148" lon="7.24112">
        <ele>751.422218</ele>
        <time>2011-10-30T13:25:05Z</time>
      </trkpt>
      <trkpt lat="43.81153" lon="7.24103">
        <ele>747.422211</ele>
        <time>2011-10-30T13:25:08Z</time>
      </trkpt>
      <trkpt lat="43.81163" lon="7.24111">
        <ele>739.422237</ele>
        <time>2011-10-30T13:25:13Z</time>
      </trkpt>
      <trkpt lat="43.81171" lon="7.24117">
        <ele>734.422264</ele>
        <time>2011-10-30T13:25:17Z</time>
      </trkpt>
      <trkpt lat="43.81173" lon="7.24118">
        <ele>733.422264</ele>
        <time>2011-10-30T13:25:18Z</time>
      </trkpt>
      <trkpt lat="43.81183" lon="7.24125">
        <ele>729.422295</ele>
        <time>2011-10-30T13:25:23Z</time>
      </trkpt>
      <trkpt lat="43.81185" lon="7.24127">
        <ele>729.422302</ele>
        <time>2011-10-30T13:25:24Z</time>
      </trkpt>
      <trkpt lat="43.81192" lon="7.24134">
        <ele>726.422325</ele>
        <time>2011-10-30T13:25:28Z</time>
      </trkpt>
      <trkpt lat="43.81202" lon="7.24135">
        <ele>721.42234</ele>
        <time>2011-10-30T13:25:32Z</time>
      </trkpt>
      <trkpt lat="43.81214" lon="7.24136">
        <ele>713.422363</ele>
        <time>2011-10-30T13:25:36Z</time>
      </trkpt>
      <trkpt lat="43.81224" lon="7.24135">
        <ele>707.422371</ele>
        <time>2011-10-30T13:25:39Z</time>
      </trkpt>
      <trkpt lat="43.81234" lon="7.24133">
        <ele>703.422379</ele>
        <time>2011-10-30T13:25:41Z</time>
      </trkpt>
      <trkpt lat="43.81246" lon="7.24131">
        <ele>699.422394</ele>
        <time>2011-10-30T13:25:44Z</time>
      </trkpt>
      <trkpt lat="43.81257" lon="7.24133">
        <ele>695.422413</ele>
        <time>2011-10-30T13:25:47Z</time>
      </trkpt>
      <trkpt lat="43.81266" lon="7.24134">
        <ele>692.422428</ele>
        <time>2011-10-30T13:25:50Z</time>
      </trkpt>
      <trkpt lat="43.81275" lon="7.24138">
        <ele>688.422447</ele>
        <time>2011-10-30T13:25:54Z</time>
      </trkpt>
      <trkpt lat="43.81281" lon="7.2414">
        <ele>686.422459</ele>
        <time>2011-10-30T13:25:56Z</time>
      </trkpt>
      <trkpt lat="43.81291" lon="7.24143">
        <ele>685.422478</ele>
        <time>2011-10-30T13:26:00Z</time>
      </trkpt>
      <trkpt lat="43.81298" lon="7.24151">
        <ele>683.422508</ele>
        <time>2011-10-30T13:26:03Z</time>
      </trkpt>
      <trkpt lat="43.81301" lon="7.24154">
        <ele>683.422516</ele>
        <time>2011-10-30T13:26:04Z</time>
      </trkpt>
      <trkpt lat="43.8131" lon="7.2416">
        <ele>681.422539</ele>
        <time>2011-10-30T13:26:07Z</time>
      </trkpt>
      <trkpt lat="43.81321" lon="7.24163">
        <ele>679.422565</ele>
        <time>2011-10-30T13:26:11Z</time>
      </trkpt>
      <trkpt lat="43.81332" lon="7.24163">
        <ele>677.422585</ele>
        <time>2011-10-30T13:26:15Z</time>
      </trkpt>
      <trkpt lat="43.81337" lon="7.24167">
        <ele>676.422592</ele>
        <time>2011-10-30T13:26:17Z</time>
      </trkpt>
      <trkpt lat="43.81346" lon="7.24171">
        <ele>674.422615</ele>
        <time>2011-10-30T13:26:21Z</time>
      </trkpt>
      <trkpt lat="43.81346" lon="7.24171">
        <ele>674.422615</ele>
        <time>2011-10-30T13:26:23Z</time>
      </trkpt>
      <trkpt lat="43.81356" lon="7.24176">
        <ele>670.422638</ele>
        <time>2011-10-30T13:26:25Z</time>
      </trkpt>
      <trkpt lat="43.8136" lon="7.24182">
        <ele>668.422657</ele>
        <time>2011-10-30T13:26:27Z</time>
      </trkpt>
      <trkpt lat="43.81369" lon="7.24191">
        <ele>664.422691</ele>
        <time>2011-10-30T13:26:31Z</time>
      </trkpt>
      <trkpt lat="43.81378" lon="7.24214">
        <ele>659.422749</ele>
        <time>2011-10-30T13:26:38Z</time>
      </trkpt>
      <trkpt lat="43.81386" lon="7.24233">
        <ele>655.422798</ele>
        <time>2011-10-30T13:26:44Z</time>
      </trkpt>
      <trkpt lat="43.81389" lon="7.24241">
        <ele>652.422821</ele>
        <time>2011-10-30T13:26:47Z</time>
      </trkpt>
      <trkpt lat="43.81399" lon="7.24255">
        <ele>645.422863</ele>
        <time>2011-10-30T13:26:54Z</time>
      </trkpt>
      <trkpt lat="43.81407" lon="7.24263">
        <ele>639.422897</ele>
        <time>2011-10-30T13:27:00Z</time>
      </trkpt>
      <trkpt lat="43.81407" lon="7.24263">
        <ele>639.422897</ele>
        <time>2011-10-30T13:27:05Z</time>
      </trkpt>
      <trkpt lat="43.81416" lon="7.24273">
        <ele>633.422928</ele>
        <time>2011-10-30T13:27:07Z</time>
      </trkpt>
      <trkpt lat="43.81416" lon="7.24278">
        <ele>630.422935</ele>
        <time>2011-10-30T13:27:10Z</time>
      </trkpt>
      <trkpt lat="43.81406" lon="7.24293">
        <ele>621.422951</ele>
        <time>2011-10-30T13:27:22Z</time>
      </trkpt>
      <trkpt lat="43.81407" lon="7.243">
        <ele>619.422974</ele>
        <time>2011-10-30T13:27:25Z</time>
      </trkpt>
      <trkpt lat="43.81414" lon="7.2431">
        <ele>617.423</ele>
        <time>2011-10-30T13:27:29Z</time>
      </trkpt>
      <trkpt lat="43.81441" lon="7.24315">
        <ele>609.42305</ele>
        <time>2011-10-30T13:27:39Z</time>
      </trkpt>
      <trkpt lat="43.81452" lon="7.24317">
        <ele>605.423065</ele>
        <time>2011-10-30T13:27:43Z</time>
      </trkpt>
      <trkpt lat="43.81461" lon="7.24324">
        <ele>597.423092</ele>
        <time>2011-10-30T13:27:48Z</time>
      </trkpt>
      <trkpt lat="43.81462" lon="7.24325">
        <ele>596.4231</ele>
        <time>2011-10-30T13:27:50Z</time>
      </trkpt>
      <trkpt lat="43.81472" lon="7.24322">
        <ele>590.423103</ele>
        <time>2011-10-30T13:27:55Z</time>
      </trkpt>
      <trkpt lat="43.81473" lon="7.24319">
        <ele>590.423103</ele>
        <time>2011-10-30T13:27:56Z</time>
      </trkpt>
      <trkpt lat="43.81477" lon="7.24307">
        <ele>587.42308</ele>
        <time>2011-10-30T13:27:59Z</time>
      </trkpt>
      <trkpt lat="43.81479" lon="7.24297">
        <ele>585.423061</ele>
        <time>2011-10-30T13:28:01Z</time>
      </trkpt>
      <trkpt lat="43.81482" lon="7.2428">
        <ele>583.423031</ele>
        <time>2011-10-30T13:28:04Z</time>
      </trkpt>
      <trkpt lat="43.81485" lon="7.24267">
        <ele>582.423008</ele>
        <time>2011-10-30T13:28:06Z</time>
      </trkpt>
      <trkpt lat="43.81489" lon="7.24255">
        <ele>583.422989</ele>
        <time>2011-10-30T13:28:08Z</time>
      </trkpt>
      <trkpt lat="43.81493" lon="7.24238">
        <ele>583.422958</ele>
        <time>2011-10-30T13:28:10Z</time>
      </trkpt>
      <trkpt lat="43.81494" lon="7.24228">
        <ele>584.422935</ele>
        <time>2011-10-30T13:28:11Z</time>
      </trkpt>
      <trkpt lat="43.81494" lon="7.24207">
        <ele>584.422897</ele>
        <time>2011-10-30T13:28:13Z</time>
      </trkpt>
      <trkpt lat="43.81493" lon="7.24184">
        <ele>584.422844</ele>
        <time>2011-10-30T13:28:15Z</time>
      </trkpt>
      <trkpt lat="43.81493" lon="7.24161">
        <ele>584.422798</ele>
        <time>2011-10-30T13:28:17Z</time>
      </trkpt>
      <trkpt lat="43.81493" lon="7.24141">
        <ele>583.422752</ele>
        <time>2011-10-30T13:28:19Z</time>
      </trkpt>
      <trkpt lat="43.81498" lon="7.2412">
        <ele>583.422714</ele>
        <time>2011-10-30T13:28:21Z</time>
      </trkpt>
      <trkpt lat="43.81505" lon="7.241">
        <ele>583.422684</ele>
        <time>2011-10-30T13:28:23Z</time>
      </trkpt>
      <trkpt lat="43.81507" lon="7.24092">
        <ele>583.422672</ele>
        <time>2011-10-30T13:28:24Z</time>
      </trkpt>
      <trkpt lat="43.81511" lon="7.24077">
        <ele>583.422646</ele>
        <time>2011-10-30T13:28:26Z</time>
      </trkpt>
      <trkpt lat="43.81511" lon="7.24061">
        <ele>582.422611</ele>
        <time>2011-10-30T13:28:28Z</time>
      </trkpt>
      <trkpt lat="43.81507" lon="7.24043">
        <ele>579.422569</ele>
        <time>2011-10-30T13:28:30Z</time>
      </trkpt>
      <trkpt lat="43.815" lon="7.24026">
        <ele>576.422523</ele>
        <time>2011-10-30T13:28:32Z</time>
      </trkpt>
      <trkpt lat="43.81491" lon="7.24011">
        <ele>573.422478</ele>
        <time>2011-10-30T13:28:34Z</time>
      </trkpt>
      <trkpt lat="43.81481" lon="7.23998">
        <ele>571.42244</ele>
        <time>2011-10-30T13:28:36Z</time>
      </trkpt>
      <trkpt lat="43.81477" lon="7.23991">
        <ele>570.422417</ele>
        <time>2011-10-30T13:28:37Z</time>
      </trkpt>
      <trkpt lat="43.81465" lon="7.23978">
        <ele>568.422379</ele>
        <time>2011-10-30T13:28:39Z</time>
      </trkpt>
      <trkpt lat="43.81458" lon="7.2397">
        <ele>567.422348</ele>
        <time>2011-10-30T13:28:40Z</time>
      </trkpt>
      <trkpt lat="43.81451" lon="7.23962">
        <ele>567.422321</ele>
        <time>2011-10-30T13:28:41Z</time>
      </trkpt>
      <trkpt lat="43.81444" lon="7.23952">
        <ele>566.422295</ele>
        <time>2011-10-30T13:28:42Z</time>
      </trkpt>
      <trkpt lat="43.81431" lon="7.23937">
        <ele>565.422241</ele>
        <time>2011-10-30T13:28:44Z</time>
      </trkpt>
      <trkpt lat="43.81418" lon="7.23924">
        <ele>564.422199</ele>
        <time>2011-10-30T13:28:46Z</time>
      </trkpt>
      <trkpt lat="43.81406" lon="7.23914">
        <ele>563.422157</ele>
        <time>2011-10-30T13:28:48Z</time>
      </trkpt>
      <trkpt lat="43.81399" lon="7.23903">
        <ele>562.422123</ele>
        <time>2011-10-30T13:28:50Z</time>
      </trkpt>
      <trkpt lat="43.81401" lon="7.2389">
        <ele>560.422104</ele>
        <time>2011-10-30T13:28:52Z</time>
      </trkpt>
      <trkpt lat="43.81411" lon="7.23882">
        <ele>561.422104</ele>
        <time>2011-10-30T13:28:56Z</time>
      </trkpt>
      <trkpt lat="43.81414" lon="7.2388">
        <ele>561.422104</ele>
        <time>2011-10-30T13:28:57Z</time>
      </trkpt>
      <trkpt lat="43.81423" lon="7.23875">
        <ele>561.422104</ele>
        <time>2011-10-30T13:28:59Z</time>
      </trkpt>
      <trkpt lat="43.81436" lon="7.23868">
        <ele>562.422104</ele>
        <time>2011-10-30T13:29:01Z</time>
      </trkpt>
      <trkpt lat="43.81449" lon="7.23861">
        <ele>563.422104</ele>
        <time>2011-10-30T13:29:03Z</time>
      </trkpt>
      <trkpt lat="43.81455" lon="7.23857">
        <ele>564.422112</ele>
        <time>2011-10-30T13:29:04Z</time>
      </trkpt>
      <trkpt lat="43.8147" lon="7.23848">
        <ele>564.422112</ele>
        <time>2011-10-30T13:29:06Z</time>
      </trkpt>
      <trkpt lat="43.81478" lon="7.23842">
        <ele>565.422112</ele>
        <time>2011-10-30T13:29:07Z</time>
      </trkpt>
      <trkpt lat="43.81492" lon="7.23831">
        <ele>566.422108</ele>
        <time>2011-10-30T13:29:09Z</time>
      </trkpt>
      <trkpt lat="43.81503" lon="7.23822">
        <ele>567.4221</ele>
        <time>2011-10-30T13:29:11Z</time>
      </trkpt>
      <trkpt lat="43.81496" lon="7.23829">
        <ele>554.422108</ele>
        <time>2011-10-30T13:29:38Z</time>
      </trkpt>
      <trkpt lat="43.81489" lon="7.23835">
        <ele>554.422112</ele>
        <time>2011-10-30T13:29:41Z</time>
      </trkpt>
      <trkpt lat="43.81479" lon="7.23844">
        <ele>553.422115</ele>
        <time>2011-10-30T13:29:44Z</time>
      </trkpt>
      <trkpt lat="43.81469" lon="7.23855">
        <ele>555.422119</ele>
        <time>2011-10-30T13:29:47Z</time>
      </trkpt>
      <trkpt lat="43.81466" lon="7.23858">
        <ele>555.422127</ele>
        <time>2011-10-30T13:29:48Z</time>
      </trkpt>
      <trkpt lat="43.81454" lon="7.23864">
        <ele>556.422119</ele>
        <time>2011-10-30T13:29:51Z</time>
      </trkpt>
      <trkpt lat="43.81446" lon="7.23868">
        <ele>556.422119</ele>
        <time>2011-10-30T13:29:53Z</time>
      </trkpt>
      <trkpt lat="43.81438" lon="7.23876">
        <ele>557.422127</ele>
        <time>2011-10-30T13:29:57Z</time>
      </trkpt>
      <trkpt lat="43.81443" lon="7.23892">
        <ele>558.422165</ele>
        <time>2011-10-30T13:30:09Z</time>
      </trkpt>
      <trkpt lat="43.81465" lon="7.23915">
        <ele>560.422241</ele>
        <time>2011-10-30T13:30:19Z</time>
      </trkpt>
      <trkpt lat="43.81474" lon="7.23925">
        <ele>559.422279</ele>
        <time>2011-10-30T13:30:22Z</time>
      </trkpt>
      <trkpt lat="43.81485" lon="7.23935">
        <ele>559.422314</ele>
        <time>2011-10-30T13:30:25Z</time>
      </trkpt>
      <trkpt lat="43.81496" lon="7.23945">
        <ele>560.422348</ele>
        <time>2011-10-30T13:30:28Z</time>
      </trkpt>
      <trkpt lat="43.815" lon="7.23948">
        <ele>560.422363</ele>
        <time>2011-10-30T13:30:29Z</time>
      </trkpt>
      <trkpt lat="43.81507" lon="7.23958">
        <ele>560.422386</ele>
        <time>2011-10-30T13:30:31Z</time>
      </trkpt>
      <trkpt lat="43.81513" lon="7.23967">
        <ele>559.422417</ele>
        <time>2011-10-30T13:30:33Z</time>
      </trkpt>
      <trkpt lat="43.81521" lon="7.2398">
        <ele>559.422455</ele>
        <time>2011-10-30T13:30:36Z</time>
      </trkpt>
      <trkpt lat="43.81527" lon="7.23992">
        <ele>559.422489</ele>
        <time>2011-10-30T13:30:39Z</time>
      </trkpt>
      <trkpt lat="43.81531" lon="7.23999">
        <ele>559.422508</ele>
        <time>2011-10-30T13:30:42Z</time>
      </trkpt>
      <trkpt lat="43.81537" lon="7.2404">
        <ele>557.422607</ele>
        <time>2011-10-30T13:30:53Z</time>
      </trkpt>
      <trkpt lat="43.81537" lon="7.2404">
        <ele>557.422607</ele>
        <time>2011-10-30T13:30:54Z</time>
      </trkpt>
      <trkpt lat="43.81538" lon="7.2408">
        <ele>560.422691</ele>
        <time>2011-10-30T13:31:09Z</time>
      </trkpt>
      <trkpt lat="43.81538" lon="7.2408">
        <ele>560.422691</ele>
        <time>2011-10-30T13:31:10Z</time>
      </trkpt>
      <trkpt lat="43.81543" lon="7.24121">
        <ele>569.422783</ele>
        <time>2011-10-30T13:31:26Z</time>
      </trkpt>
      <trkpt lat="43.81561" lon="7.2415">
        <ele>570.422867</ele>
        <time>2011-10-30T13:31:34Z</time>
      </trkpt>
      <trkpt lat="43.81575" lon="7.24165">
        <ele>569.42292</ele>
        <time>2011-10-30T13:31:39Z</time>
      </trkpt>
      <trkpt lat="43.81585" lon="7.24173">
        <ele>568.422951</ele>
        <time>2011-10-30T13:31:42Z</time>
      </trkpt>
      <trkpt lat="43.81598" lon="7.24182">
        <ele>564.422985</ele>
        <time>2011-10-30T13:31:45Z</time>
      </trkpt>
      <trkpt lat="43.81611" lon="7.24192">
        <ele>560.423023</ele>
        <time>2011-10-30T13:31:47Z</time>
      </trkpt>
      <trkpt lat="43.81617" lon="7.24197">
        <ele>557.423042</ele>
        <time>2011-10-30T13:31:48Z</time>
      </trkpt>
      <trkpt lat="43.81627" lon="7.24207">
        <ele>552.423077</ele>
        <time>2011-10-30T13:31:50Z</time>
      </trkpt>
      <trkpt lat="43.81631" lon="7.24213">
        <ele>550.423096</ele>
        <time>2011-10-30T13:31:51Z</time>
      </trkpt>
      <trkpt lat="43.8164" lon="7.24221">
        <ele>547.423126</ele>
        <time>2011-10-30T13:31:53Z</time>
      </trkpt>
      <trkpt lat="43.8165" lon="7.24231">
        <ele>543.423164</ele>
        <time>2011-10-30T13:31:56Z</time>
      </trkpt>
      <trkpt lat="43.81655" lon="7.24233">
        <ele>542.423172</ele>
        <time>2011-10-30T13:31:59Z</time>
      </trkpt>
      <trkpt lat="43.81679" lon="7.24254">
        <ele>541.423248</ele>
        <time>2011-10-30T13:32:09Z</time>
      </trkpt>
      <trkpt lat="43.81687" lon="7.24262">
        <ele>541.423275</ele>
        <time>2011-10-30T13:32:13Z</time>
      </trkpt>
      <trkpt lat="43.81695" lon="7.24267">
        <ele>540.423294</ele>
        <time>2011-10-30T13:32:17Z</time>
      </trkpt>
      <trkpt lat="43.81705" lon="7.24271">
        <ele>538.423325</ele>
        <time>2011-10-30T13:32:21Z</time>
      </trkpt>
      <trkpt lat="43.81708" lon="7.24272">
        <ele>537.423325</ele>
        <time>2011-10-30T13:32:22Z</time>
      </trkpt>
      <trkpt lat="43.81717" lon="7.24278">
        <ele>535.423347</ele>
        <time>2011-10-30T13:32:27Z</time>
      </trkpt>
      <trkpt lat="43.81714" lon="7.243">
        <ele>531.423393</ele>
        <time>2011-10-30T13:32:36Z</time>
      </trkpt>
      <trkpt lat="43.81698" lon="7.24317">
        <ele>532.423409</ele>
        <time>2011-10-30T13:32:49Z</time>
      </trkpt>
      <trkpt lat="43.8169" lon="7.24324">
        <ele>533.423409</ele>
        <time>2011-10-30T13:32:53Z</time>
      </trkpt>
      <trkpt lat="43.81679" lon="7.2433">
        <ele>535.423409</ele>
        <time>2011-10-30T13:32:57Z</time>
      </trkpt>
      <trkpt lat="43.81669" lon="7.24337">
        <ele>536.423409</ele>
        <time>2011-10-30T13:33:00Z</time>
      </trkpt>
      <trkpt lat="43.81658" lon="7.24344">
        <ele>538.423409</ele>
        <time>2011-10-30T13:33:03Z</time>
      </trkpt>
      <trkpt lat="43.81649" lon="7.24352">
        <ele>540.423412</ele>
        <time>2011-10-30T13:33:08Z</time>
      </trkpt>
      <trkpt lat="43.81639" lon="7.2436">
        <ele>541.423416</ele>
        <time>2011-10-30T13:33:11Z</time>
      </trkpt>
      <trkpt lat="43.81619" lon="7.24376">
        <ele>543.423416</ele>
        <time>2011-10-30T13:33:17Z</time>
      </trkpt>
      <trkpt lat="43.81609" lon="7.24383">
        <ele>543.423424</ele>
        <time>2011-10-30T13:33:19Z</time>
      </trkpt>
      <trkpt lat="43.81599" lon="7.2439">
        <ele>544.42342</ele>
        <time>2011-10-30T13:33:21Z</time>
      </trkpt>
      <trkpt lat="43.81589" lon="7.24396">
        <ele>544.42342</ele>
        <time>2011-10-30T13:33:23Z</time>
      </trkpt>
      <trkpt lat="43.81579" lon="7.244">
        <ele>544.423416</ele>
        <time>2011-10-30T13:33:25Z</time>
      </trkpt>
      <trkpt lat="43.81568" lon="7.24405">
        <ele>544.423412</ele>
        <time>2011-10-30T13:33:27Z</time>
      </trkpt>
      <trkpt lat="43.81556" lon="7.24411">
        <ele>544.423405</ele>
        <time>2011-10-30T13:33:29Z</time>
      </trkpt>
      <trkpt lat="43.81549" lon="7.24419">
        <ele>544.423416</ele>
        <time>2011-10-30T13:33:31Z</time>
      </trkpt>
      <trkpt lat="43.81548" lon="7.24442">
        <ele>539.423462</ele>
        <time>2011-10-30T13:33:38Z</time>
      </trkpt>
      <trkpt lat="43.81552" lon="7.24454">
        <ele>532.423485</ele>
        <time>2011-10-30T13:33:44Z</time>
      </trkpt>
      <trkpt lat="43.81553" lon="7.24458">
        <ele>530.4235</ele>
        <time>2011-10-30T13:33:47Z</time>
      </trkpt>
      <trkpt lat="43.81556" lon="7.24471">
        <ele>524.423531</ele>
        <time>2011-10-30T13:33:52Z</time>
      </trkpt>
      <trkpt lat="43.81558" lon="7.24484">
        <ele>518.423561</ele>
        <time>2011-10-30T13:34:01Z</time>
      </trkpt>
      <trkpt lat="43.81568" lon="7.245">
        <ele>511.423611</ele>
        <time>2011-10-30T13:34:14Z</time>
      </trkpt>
      <trkpt lat="43.81568" lon="7.24502">
        <ele>510.423615</ele>
        <time>2011-10-30T13:34:15Z</time>
      </trkpt>
      <trkpt lat="43.81574" lon="7.24513">
        <ele>502.423645</ele>
        <time>2011-10-30T13:34:24Z</time>
      </trkpt>
      <trkpt lat="43.81582" lon="7.24518">
        <ele>499.423668</ele>
        <time>2011-10-30T13:34:30Z</time>
      </trkpt>
      <trkpt lat="43.81587" lon="7.24518">
        <ele>499.423672</ele>
        <time>2011-10-30T13:34:34Z</time>
      </trkpt>
      <trkpt lat="43.81598" lon="7.24518">
        <ele>496.423691</ele>
        <time>2011-10-30T13:34:36Z</time>
      </trkpt>
      <trkpt lat="43.816" lon="7.24518">
        <ele>496.423691</ele>
        <time>2011-10-30T13:34:37Z</time>
      </trkpt>
      <trkpt lat="43.81611" lon="7.24517">
        <ele>493.423706</ele>
        <time>2011-10-30T13:34:42Z</time>
      </trkpt>
      <trkpt lat="43.81629" lon="7.24513">
        <ele>488.423721</ele>
        <time>2011-10-30T13:34:48Z</time>
      </trkpt>
      <trkpt lat="43.81639" lon="7.2451">
        <ele>485.423729</ele>
        <time>2011-10-30T13:34:51Z</time>
      </trkpt>
      <trkpt lat="43.81646" lon="7.24508">
        <ele>484.423737</ele>
        <time>2011-10-30T13:34:55Z</time>
      </trkpt>
      <trkpt lat="43.81657" lon="7.24509">
        <ele>481.423748</ele>
        <time>2011-10-30T13:34:57Z</time>
      </trkpt>
      <trkpt lat="43.81661" lon="7.24512">
        <ele>480.423767</ele>
        <time>2011-10-30T13:35:00Z</time>
      </trkpt>
      <trkpt lat="43.81658" lon="7.24525">
        <ele>480.42379</ele>
        <time>2011-10-30T13:35:10Z</time>
      </trkpt>
      <trkpt lat="43.81657" lon="7.24527">
        <ele>481.42379</ele>
        <time>2011-10-30T13:35:11Z</time>
      </trkpt>
      <trkpt lat="43.81647" lon="7.24545">
        <ele>484.423813</ele>
        <time>2011-10-30T13:35:17Z</time>
      </trkpt>
      <trkpt lat="43.81642" lon="7.24548">
        <ele>485.423813</ele>
        <time>2011-10-30T13:35:18Z</time>
      </trkpt>
      <trkpt lat="43.81633" lon="7.24555">
        <ele>486.423813</ele>
        <time>2011-10-30T13:35:22Z</time>
      </trkpt>
      <trkpt lat="43.81625" lon="7.24565">
        <ele>487.42382</ele>
        <time>2011-10-30T13:35:28Z</time>
      </trkpt>
      <trkpt lat="43.81618" lon="7.24575">
        <ele>487.423836</ele>
        <time>2011-10-30T13:35:32Z</time>
      </trkpt>
      <trkpt lat="43.81604" lon="7.24607">
        <ele>485.423885</ele>
        <time>2011-10-30T13:35:44Z</time>
      </trkpt>
      <trkpt lat="43.81603" lon="7.2461">
        <ele>485.423889</ele>
        <time>2011-10-30T13:35:46Z</time>
      </trkpt>
      <trkpt lat="43.81599" lon="7.24628">
        <ele>482.42392</ele>
        <time>2011-10-30T13:35:49Z</time>
      </trkpt>
      <trkpt lat="43.81598" lon="7.24633">
        <ele>481.423927</ele>
        <time>2011-10-30T13:35:50Z</time>
      </trkpt>
      <trkpt lat="43.81595" lon="7.24646">
        <ele>480.42395</ele>
        <time>2011-10-30T13:35:53Z</time>
      </trkpt>
      <trkpt lat="43.8159" lon="7.24659">
        <ele>480.423973</ele>
        <time>2011-10-30T13:35:56Z</time>
      </trkpt>
      <trkpt lat="43.81583" lon="7.2467">
        <ele>479.423985</ele>
        <time>2011-10-30T13:35:59Z</time>
      </trkpt>
      <trkpt lat="43.81573" lon="7.24679">
        <ele>478.423988</ele>
        <time>2011-10-30T13:36:02Z</time>
      </trkpt>
      <trkpt lat="43.8157" lon="7.24681">
        <ele>478.423992</ele>
        <time>2011-10-30T13:36:03Z</time>
      </trkpt>
      <trkpt lat="43.81561" lon="7.24685">
        <ele>477.423988</ele>
        <time>2011-10-30T13:36:08Z</time>
      </trkpt>
      <trkpt lat="43.8155" lon="7.24684">
        <ele>472.423969</ele>
        <time>2011-10-30T13:36:22Z</time>
      </trkpt>
      <trkpt lat="43.8155" lon="7.24684">
        <ele>471.423969</ele>
        <time>2011-10-30T13:36:23Z</time>
      </trkpt>
      <trkpt lat="43.8154" lon="7.24681">
        <ele>466.42395</ele>
        <time>2011-10-30T13:36:52Z</time>
      </trkpt>
      <trkpt lat="43.81539" lon="7.24682">
        <ele>466.42395</ele>
        <time>2011-10-30T13:36:54Z</time>
      </trkpt>
      <trkpt lat="43.81531" lon="7.24693">
        <ele>467.423965</ele>
        <time>2011-10-30T13:37:12Z</time>
      </trkpt>
      <trkpt lat="43.81529" lon="7.24698">
        <ele>468.423969</ele>
        <time>2011-10-30T13:37:19Z</time>
      </trkpt>
      <trkpt lat="43.81528" lon="7.24711">
        <ele>471.423996</ele>
        <time>2011-10-30T13:37:37Z</time>
      </trkpt>
      <trkpt lat="43.81525" lon="7.24727">
        <ele>478.424026</ele>
        <time>2011-10-30T13:38:02Z</time>
      </trkpt>
      <trkpt lat="43.81524" lon="7.24738">
        <ele>477.424049</ele>
        <time>2011-10-30T13:38:14Z</time>
      </trkpt>
      <trkpt lat="43.81527" lon="7.2475">
        <ele>479.424076</ele>
        <time>2011-10-30T13:38:26Z</time>
      </trkpt>
      <trkpt lat="43.81531" lon="7.24759">
        <ele>476.424103</ele>
        <time>2011-10-30T13:38:41Z</time>
      </trkpt>
      <trkpt lat="43.81531" lon="7.24772">
        <ele>479.424129</ele>
        <time>2011-10-30T13:39:01Z</time>
      </trkpt>
      <trkpt lat="43.81536" lon="7.24783">
        <ele>475.424156</ele>
        <time>2011-10-30T13:39:28Z</time>
      </trkpt>
      <trkpt lat="43.81536" lon="7.24783">
        <ele>474.424156</ele>
        <time>2011-10-30T13:39:30Z</time>
      </trkpt>
      <trkpt lat="43.81541" lon="7.24794">
        <ele>474.424187</ele>
        <time>2011-10-30T13:39:45Z</time>
      </trkpt>
      <trkpt lat="43.81543" lon="7.24807">
        <ele>476.424217</ele>
        <time>2011-10-30T13:39:57Z</time>
      </trkpt>
      <trkpt lat="43.81541" lon="7.24821">
        <ele>479.424244</ele>
        <time>2011-10-30T13:40:15Z</time>
      </trkpt>
      <trkpt lat="43.81532" lon="7.24827">
        <ele>482.424248</ele>
        <time>2011-10-30T13:40:55Z</time>
      </trkpt>
      <trkpt lat="43.81532" lon="7.24827">
        <ele>482.424248</ele>
        <time>2011-10-30T13:40:56Z</time>
      </trkpt>
      <trkpt lat="43.81523" lon="7.24826">
        <ele>482.424232</ele>
        <time>2011-10-30T13:41:05Z</time>
      </trkpt>
      <trkpt lat="43.81513" lon="7.24825">
        <ele>484.424213</ele>
        <time>2011-10-30T13:41:17Z</time>
      </trkpt>
      <trkpt lat="43.81511" lon="7.24825">
        <ele>484.42421</ele>
        <time>2011-10-30T13:41:19Z</time>
      </trkpt>
      <trkpt lat="43.81503" lon="7.24831">
        <ele>486.42421</ele>
        <time>2011-10-30T13:41:40Z</time>
      </trkpt>
      <trkpt lat="43.81502" lon="7.24832">
        <ele>485.424217</ele>
        <time>2011-10-30T13:41:42Z</time>
      </trkpt>
      <trkpt lat="43.81493" lon="7.24837">
        <ele>485.42421</ele>
        <time>2011-10-30T13:41:52Z</time>
      </trkpt>
      <trkpt lat="43.81487" lon="7.24847">
        <ele>488.424221</ele>
        <time>2011-10-30T13:42:09Z</time>
      </trkpt>
      <trkpt lat="43.81487" lon="7.24859">
        <ele>494.424248</ele>
        <time>2011-10-30T13:42:43Z</time>
      </trkpt>
      <trkpt lat="43.81478" lon="7.24863">
        <ele>497.424248</ele>
        <time>2011-10-30T13:42:55Z</time>
      </trkpt>
      <trkpt lat="43.81469" lon="7.24872">
        <ele>501.424252</ele>
        <time>2011-10-30T13:43:04Z</time>
      </trkpt>
      <trkpt lat="43.81467" lon="7.24876">
        <ele>501.424255</ele>
        <time>2011-10-30T13:43:07Z</time>
      </trkpt>
      <trkpt lat="43.81462" lon="7.24888">
        <ele>507.424278</ele>
        <time>2011-10-30T13:43:15Z</time>
      </trkpt>
      <trkpt lat="43.81458" lon="7.249">
        <ele>510.424294</ele>
        <time>2011-10-30T13:43:23Z</time>
      </trkpt>
      <trkpt lat="43.81451" lon="7.24909">
        <ele>512.424301</ele>
        <time>2011-10-30T13:43:30Z</time>
      </trkpt>
      <trkpt lat="43.8145" lon="7.2491">
        <ele>513.424305</ele>
        <time>2011-10-30T13:43:33Z</time>
      </trkpt>
      <trkpt lat="43.81442" lon="7.24918">
        <ele>513.424309</ele>
        <time>2011-10-30T13:43:40Z</time>
      </trkpt>
      <trkpt lat="43.81434" lon="7.24927">
        <ele>515.424324</ele>
        <time>2011-10-30T13:43:49Z</time>
      </trkpt>
      <trkpt lat="43.8143" lon="7.24938">
        <ele>519.424339</ele>
        <time>2011-10-30T13:43:57Z</time>
      </trkpt>
      <trkpt lat="43.81427" lon="7.24951">
        <ele>522.424362</ele>
        <time>2011-10-30T13:44:05Z</time>
      </trkpt>
      <trkpt lat="43.81422" lon="7.24962">
        <ele>526.424377</ele>
        <time>2011-10-30T13:44:12Z</time>
      </trkpt>
      <trkpt lat="43.81422" lon="7.24962">
        <ele>526.424377</ele>
        <time>2011-10-30T13:44:13Z</time>
      </trkpt>
      <trkpt lat="43.81415" lon="7.24969">
        <ele>527.424381</ele>
        <time>2011-10-30T13:44:19Z</time>
      </trkpt>
      <trkpt lat="43.81406" lon="7.24974">
        <ele>528.424377</ele>
        <time>2011-10-30T13:44:27Z</time>
      </trkpt>
      <trkpt lat="43.81405" lon="7.24974">
        <ele>529.424377</ele>
        <time>2011-10-30T13:44:28Z</time>
      </trkpt>
      <trkpt lat="43.81396" lon="7.2498">
        <ele>530.424377</ele>
        <time>2011-10-30T13:44:44Z</time>
      </trkpt>
      <trkpt lat="43.8139" lon="7.24983">
        <ele>529.424377</ele>
        <time>2011-10-30T13:44:48Z</time>
      </trkpt>
      <trkpt lat="43.8138" lon="7.24987">
        <ele>526.42437</ele>
        <time>2011-10-30T13:44:54Z</time>
      </trkpt>
      <trkpt lat="43.81371" lon="7.24988">
        <ele>520.424358</ele>
        <time>2011-10-30T13:45:01Z</time>
      </trkpt>
      <trkpt lat="43.81363" lon="7.2498">
        <ele>518.424335</ele>
        <time>2011-10-30T13:45:08Z</time>
      </trkpt>
      <trkpt lat="43.81354" lon="7.24978">
        <ele>517.424316</ele>
        <time>2011-10-30T13:45:16Z</time>
      </trkpt>
      <trkpt lat="43.81353" lon="7.24977">
        <ele>517.424313</ele>
        <time>2011-10-30T13:45:17Z</time>
      </trkpt>
      <trkpt lat="43.81343" lon="7.24979">
        <ele>519.424301</ele>
        <time>2011-10-30T13:45:27Z</time>
      </trkpt>
      <trkpt lat="43.81333" lon="7.24976">
        <ele>521.424282</ele>
        <time>2011-10-30T13:45:39Z</time>
      </trkpt>
      <trkpt lat="43.81333" lon="7.24976">
        <ele>521.424282</ele>
        <time>2011-10-30T13:45:40Z</time>
      </trkpt>
      <trkpt lat="43.81327" lon="7.24962">
        <ele>526.424248</ele>
        <time>2011-10-30T13:45:54Z</time>
      </trkpt>
      <trkpt lat="43.81325" lon="7.24949">
        <ele>532.424217</ele>
        <time>2011-10-30T13:46:02Z</time>
      </trkpt>
      <trkpt lat="43.81328" lon="7.24936">
        <ele>533.424194</ele>
        <time>2011-10-30T13:46:11Z</time>
      </trkpt>
      <trkpt lat="43.81333" lon="7.24924">
        <ele>536.424171</ele>
        <time>2011-10-30T13:46:21Z</time>
      </trkpt>
      <trkpt lat="43.81339" lon="7.24912">
        <ele>538.424156</ele>
        <time>2011-10-30T13:46:27Z</time>
      </trkpt>
      <trkpt lat="43.81341" lon="7.24899">
        <ele>538.424133</ele>
        <time>2011-10-30T13:46:32Z</time>
      </trkpt>
      <trkpt lat="43.81338" lon="7.24892">
        <ele>538.42411</ele>
        <time>2011-10-30T13:46:36Z</time>
      </trkpt>
      <trkpt lat="43.81329" lon="7.24888">
        <ele>534.424095</ele>
        <time>2011-10-30T13:46:43Z</time>
      </trkpt>
      <trkpt lat="43.81325" lon="7.24888">
        <ele>534.424088</ele>
        <time>2011-10-30T13:46:45Z</time>
      </trkpt>
      <trkpt lat="43.81315" lon="7.24888">
        <ele>533.424072</ele>
        <time>2011-10-30T13:46:51Z</time>
      </trkpt>
      <trkpt lat="43.81297" lon="7.24888">
        <ele>532.424049</ele>
        <time>2011-10-30T13:47:01Z</time>
      </trkpt>
      <trkpt lat="43.81286" lon="7.24889">
        <ele>533.424038</ele>
        <time>2011-10-30T13:47:06Z</time>
      </trkpt>
      <trkpt lat="43.81277" lon="7.2489">
        <ele>535.424026</ele>
        <time>2011-10-30T13:47:11Z</time>
      </trkpt>
      <trkpt lat="43.81268" lon="7.24889">
        <ele>535.424011</ele>
        <time>2011-10-30T13:47:16Z</time>
      </trkpt>
      <trkpt lat="43.81255" lon="7.24886">
        <ele>537.423988</ele>
        <time>2011-10-30T13:47:23Z</time>
      </trkpt>
      <trkpt lat="43.81253" lon="7.24885">
        <ele>537.423985</ele>
        <time>2011-10-30T13:47:24Z</time>
      </trkpt>
      <trkpt lat="43.81245" lon="7.2488">
        <ele>539.423962</ele>
        <time>2011-10-30T13:47:29Z</time>
      </trkpt>
      <trkpt lat="43.81237" lon="7.2487">
        <ele>538.423927</ele>
        <time>2011-10-30T13:47:36Z</time>
      </trkpt>
      <trkpt lat="43.81233" lon="7.24857">
        <ele>539.423897</ele>
        <time>2011-10-30T13:47:43Z</time>
      </trkpt>
      <trkpt lat="43.81231" lon="7.24845">
        <ele>541.423866</ele>
        <time>2011-10-30T13:47:50Z</time>
      </trkpt>
      <trkpt lat="43.81231" lon="7.24843">
        <ele>542.423866</ele>
        <time>2011-10-30T13:47:51Z</time>
      </trkpt>
      <trkpt lat="43.81236" lon="7.24831">
        <ele>549.423843</ele>
        <time>2011-10-30T13:48:03Z</time>
      </trkpt>
      <trkpt lat="43.8124" lon="7.2482">
        <ele>553.423828</ele>
        <time>2011-10-30T13:48:10Z</time>
      </trkpt>
      <trkpt lat="43.81239" lon="7.2481">
        <ele>555.423805</ele>
        <time>2011-10-30T13:48:15Z</time>
      </trkpt>
      <trkpt lat="43.81229" lon="7.2481">
        <ele>552.42379</ele>
        <time>2011-10-30T13:48:23Z</time>
      </trkpt>
      <trkpt lat="43.8122" lon="7.24821">
        <ele>551.423805</ele>
        <time>2011-10-30T13:48:29Z</time>
      </trkpt>
      <trkpt lat="43.81214" lon="7.24831">
        <ele>551.423813</ele>
        <time>2011-10-30T13:48:34Z</time>
      </trkpt>
      <trkpt lat="43.81206" lon="7.24841">
        <ele>552.423824</ele>
        <time>2011-10-30T13:48:40Z</time>
      </trkpt>
      <trkpt lat="43.81202" lon="7.24854">
        <ele>557.423843</ele>
        <time>2011-10-30T13:48:51Z</time>
      </trkpt>
      <trkpt lat="43.81199" lon="7.24867">
        <ele>559.42387</ele>
        <time>2011-10-30T13:48:56Z</time>
      </trkpt>
      <trkpt lat="43.81198" lon="7.2488">
        <ele>562.423897</ele>
        <time>2011-10-30T13:49:01Z</time>
      </trkpt>
      <trkpt lat="43.81198" lon="7.24883">
        <ele>563.423901</ele>
        <time>2011-10-30T13:49:02Z</time>
      </trkpt>
      <trkpt lat="43.81202" lon="7.24896">
        <ele>564.423935</ele>
        <time>2011-10-30T13:49:06Z</time>
      </trkpt>
      <trkpt lat="43.81209" lon="7.24905">
        <ele>564.423965</ele>
        <time>2011-10-30T13:49:09Z</time>
      </trkpt>
      <trkpt lat="43.81217" lon="7.24916">
        <ele>565.423996</ele>
        <time>2011-10-30T13:49:13Z</time>
      </trkpt>
      <trkpt lat="43.81222" lon="7.24926">
        <ele>563.424026</ele>
        <time>2011-10-30T13:49:17Z</time>
      </trkpt>
      <trkpt lat="43.81226" lon="7.24939">
        <ele>564.424057</ele>
        <time>2011-10-30T13:49:23Z</time>
      </trkpt>
      <trkpt lat="43.81226" lon="7.24942">
        <ele>564.424065</ele>
        <time>2011-10-30T13:49:24Z</time>
      </trkpt>
      <trkpt lat="43.81227" lon="7.24954">
        <ele>566.424091</ele>
        <time>2011-10-30T13:49:29Z</time>
      </trkpt>
      <trkpt lat="43.8123" lon="7.24968">
        <ele>568.424126</ele>
        <time>2011-10-30T13:49:35Z</time>
      </trkpt>
      <trkpt lat="43.81234" lon="7.24979">
        <ele>571.424156</ele>
        <time>2011-10-30T13:49:40Z</time>
      </trkpt>
      <trkpt lat="43.81241" lon="7.24988">
        <ele>573.424179</ele>
        <time>2011-10-30T13:49:45Z</time>
      </trkpt>
      <trkpt lat="43.81249" lon="7.24998">
        <ele>573.42421</ele>
        <time>2011-10-30T13:49:50Z</time>
      </trkpt>
      <trkpt lat="43.81254" lon="7.25009">
        <ele>574.424244</ele>
        <time>2011-10-30T13:49:55Z</time>
      </trkpt>
      <trkpt lat="43.81254" lon="7.25012">
        <ele>574.424248</ele>
        <time>2011-10-30T13:49:56Z</time>
      </trkpt>
      <trkpt lat="43.81256" lon="7.25026">
        <ele>577.424278</ele>
        <time>2011-10-30T13:50:02Z</time>
      </trkpt>
      <trkpt lat="43.81255" lon="7.25043">
        <ele>578.42432</ele>
        <time>2011-10-30T13:50:10Z</time>
      </trkpt>
      <trkpt lat="43.81253" lon="7.25057">
        <ele>577.424343</ele>
        <time>2011-10-30T13:50:17Z</time>
      </trkpt>
      <trkpt lat="43.81251" lon="7.2507">
        <ele>579.424362</ele>
        <time>2011-10-30T13:50:23Z</time>
      </trkpt>
      <trkpt lat="43.81254" lon="7.25083">
        <ele>582.424397</ele>
        <time>2011-10-30T13:50:31Z</time>
      </trkpt>
      <trkpt lat="43.81263" lon="7.25092">
        <ele>586.424431</ele>
        <time>2011-10-30T13:50:40Z</time>
      </trkpt>
      <trkpt lat="43.81271" lon="7.25097">
        <ele>588.424454</ele>
        <time>2011-10-30T13:50:46Z</time>
      </trkpt>
      <trkpt lat="43.8128" lon="7.25102">
        <ele>589.424477</ele>
        <time>2011-10-30T13:50:51Z</time>
      </trkpt>
      <trkpt lat="43.81289" lon="7.25107">
        <ele>589.424496</ele>
        <time>2011-10-30T13:50:56Z</time>
      </trkpt>
      <trkpt lat="43.81298" lon="7.25112">
        <ele>588.424515</ele>
        <time>2011-10-30T13:51:01Z</time>
      </trkpt>
      <trkpt lat="43.81305" lon="7.25118">
        <ele>586.424545</ele>
        <time>2011-10-30T13:51:05Z</time>
      </trkpt>
      <trkpt lat="43.81314" lon="7.25127">
        <ele>584.424568</ele>
        <time>2011-10-30T13:51:10Z</time>
      </trkpt>
      <trkpt lat="43.81323" lon="7.25142">
        <ele>586.424614</ele>
        <time>2011-10-30T13:51:18Z</time>
      </trkpt>
      <trkpt lat="43.81324" lon="7.25143">
        <ele>587.424622</ele>
        <time>2011-10-30T13:51:19Z</time>
      </trkpt>
      <trkpt lat="43.81327" lon="7.25156">
        <ele>587.424652</ele>
        <time>2011-10-30T13:51:26Z</time>
      </trkpt>
      <trkpt lat="43.81328" lon="7.2517">
        <ele>588.424683</ele>
        <time>2011-10-30T13:51:34Z</time>
      </trkpt>
      <trkpt lat="43.81327" lon="7.25183">
        <ele>592.424706</ele>
        <time>2011-10-30T13:51:47Z</time>
      </trkpt>
      <trkpt lat="43.81336" lon="7.25189">
        <ele>596.424736</ele>
        <time>2011-10-30T13:51:55Z</time>
      </trkpt>
      <trkpt lat="43.81339" lon="7.25191">
        <ele>597.424744</ele>
        <time>2011-10-30T13:51:58Z</time>
      </trkpt>
      <trkpt lat="43.81349" lon="7.25193">
        <ele>598.424759</ele>
        <time>2011-10-30T13:52:06Z</time>
      </trkpt>
      <trkpt lat="43.81358" lon="7.25196">
        <ele>600.424774</ele>
        <time>2011-10-30T13:52:15Z</time>
      </trkpt>
      <trkpt lat="43.81359" lon="7.25196">
        <ele>601.424778</ele>
        <time>2011-10-30T13:52:16Z</time>
      </trkpt>
      <trkpt lat="43.81375" lon="7.25195">
        <ele>604.424801</ele>
        <time>2011-10-30T13:52:28Z</time>
      </trkpt>
      <trkpt lat="43.81384" lon="7.25193">
        <ele>605.424805</ele>
        <time>2011-10-30T13:52:34Z</time>
      </trkpt>
      <trkpt lat="43.81396" lon="7.25191">
        <ele>608.42482</ele>
        <time>2011-10-30T13:52:42Z</time>
      </trkpt>
      <trkpt lat="43.81405" lon="7.25189">
        <ele>610.424828</ele>
        <time>2011-10-30T13:52:48Z</time>
      </trkpt>
      <trkpt lat="43.81418" lon="7.25184">
        <ele>609.424835</ele>
        <time>2011-10-30T13:52:58Z</time>
      </trkpt>
      <trkpt lat="43.81427" lon="7.25181">
        <ele>610.424843</ele>
        <time>2011-10-30T13:53:05Z</time>
      </trkpt>
      <trkpt lat="43.81439" lon="7.25177">
        <ele>615.424847</ele>
        <time>2011-10-30T13:53:14Z</time>
      </trkpt>
      <trkpt lat="43.81448" lon="7.25174">
        <ele>617.424854</ele>
        <time>2011-10-30T13:53:21Z</time>
      </trkpt>
      <trkpt lat="43.81449" lon="7.25174">
        <ele>617.424858</ele>
        <time>2011-10-30T13:53:23Z</time>
      </trkpt>
      <trkpt lat="43.81458" lon="7.25174">
        <ele>616.42487</ele>
        <time>2011-10-30T13:53:32Z</time>
      </trkpt>
      <trkpt lat="43.81466" lon="7.25177">
        <ele>614.424889</ele>
        <time>2011-10-30T13:53:37Z</time>
      </trkpt>
      <trkpt lat="43.81476" lon="7.25182">
        <ele>611.424911</ele>
        <time>2011-10-30T13:53:43Z</time>
      </trkpt>
      <trkpt lat="43.81486" lon="7.25187">
        <ele>610.424934</ele>
        <time>2011-10-30T13:53:49Z</time>
      </trkpt>
      <trkpt lat="43.81497" lon="7.25196">
        <ele>609.424965</ele>
        <time>2011-10-30T13:53:57Z</time>
      </trkpt>
      <trkpt lat="43.81507" lon="7.25201">
        <ele>610.424992</ele>
        <time>2011-10-30T13:54:04Z</time>
      </trkpt>
      <trkpt lat="43.81516" lon="7.25207">
        <ele>613.425018</ele>
        <time>2011-10-30T13:54:12Z</time>
      </trkpt>
      <trkpt lat="43.81517" lon="7.25208">
        <ele>613.425018</ele>
        <time>2011-10-30T13:54:13Z</time>
      </trkpt>
      <trkpt lat="43.81526" lon="7.25212">
        <ele>612.425041</ele>
        <time>2011-10-30T13:54:21Z</time>
      </trkpt>
      <trkpt lat="43.81535" lon="7.25216">
        <ele>614.425064</ele>
        <time>2011-10-30T13:54:28Z</time>
      </trkpt>
      <trkpt lat="43.81544" lon="7.2522">
        <ele>615.425079</ele>
        <time>2011-10-30T13:54:34Z</time>
      </trkpt>
      <trkpt lat="43.81554" lon="7.25223">
        <ele>616.425102</ele>
        <time>2011-10-30T13:54:41Z</time>
      </trkpt>
      <trkpt lat="43.81563" lon="7.25227">
        <ele>617.425125</ele>
        <time>2011-10-30T13:54:48Z</time>
      </trkpt>
      <trkpt lat="43.81568" lon="7.25231">
        <ele>618.42514</ele>
        <time>2011-10-30T13:54:54Z</time>
      </trkpt>
      <trkpt lat="43.81576" lon="7.25239">
        <ele>618.425167</ele>
        <time>2011-10-30T13:54:59Z</time>
      </trkpt>
      <trkpt lat="43.81589" lon="7.25252">
        <ele>619.425213</ele>
        <time>2011-10-30T13:55:11Z</time>
      </trkpt>
      <trkpt lat="43.81596" lon="7.2526">
        <ele>620.42524</ele>
        <time>2011-10-30T13:55:17Z</time>
      </trkpt>
      <trkpt lat="43.81604" lon="7.25267">
        <ele>620.425262</ele>
        <time>2011-10-30T13:55:23Z</time>
      </trkpt>
      <trkpt lat="43.81611" lon="7.25275">
        <ele>619.425293</ele>
        <time>2011-10-30T13:55:29Z</time>
      </trkpt>
      <trkpt lat="43.81619" lon="7.25284">
        <ele>618.425323</ele>
        <time>2011-10-30T13:55:36Z</time>
      </trkpt>
      <trkpt lat="43.81627" lon="7.25293">
        <ele>620.425346</ele>
        <time>2011-10-30T13:55:44Z</time>
      </trkpt>
      <trkpt lat="43.81633" lon="7.25302">
        <ele>621.425377</ele>
        <time>2011-10-30T13:55:53Z</time>
      </trkpt>
      <trkpt lat="43.81637" lon="7.25314">
        <ele>623.425407</ele>
        <time>2011-10-30T13:56:01Z</time>
      </trkpt>
      <trkpt lat="43.81642" lon="7.25325">
        <ele>623.425438</ele>
        <time>2011-10-30T13:56:09Z</time>
      </trkpt>
      <trkpt lat="43.81647" lon="7.25338">
        <ele>626.425472</ele>
        <time>2011-10-30T13:56:18Z</time>
      </trkpt>
      <trkpt lat="43.81651" lon="7.25351">
        <ele>628.425507</ele>
        <time>2011-10-30T13:56:25Z</time>
      </trkpt>
      <trkpt lat="43.81655" lon="7.25363">
        <ele>628.425533</ele>
        <time>2011-10-30T13:56:32Z</time>
      </trkpt>
      <trkpt lat="43.81659" lon="7.25374">
        <ele>631.425564</ele>
        <time>2011-10-30T13:56:39Z</time>
      </trkpt>
      <trkpt lat="43.81665" lon="7.25386">
        <ele>631.425598</ele>
        <time>2011-10-30T13:56:46Z</time>
      </trkpt>
      <trkpt lat="43.81669" lon="7.25393">
        <ele>633.425621</ele>
        <time>2011-10-30T13:56:50Z</time>
      </trkpt>
      <trkpt lat="43.81676" lon="7.25405">
        <ele>634.425652</ele>
        <time>2011-10-30T13:56:56Z</time>
      </trkpt>
      <trkpt lat="43.81677" lon="7.25407">
        <ele>634.425655</ele>
        <time>2011-10-30T13:56:57Z</time>
      </trkpt>
      <trkpt lat="43.81685" lon="7.25421">
        <ele>633.425697</ele>
        <time>2011-10-30T13:57:05Z</time>
      </trkpt>
      <trkpt lat="43.81687" lon="7.25424">
        <ele>634.425705</ele>
        <time>2011-10-30T13:57:07Z</time>
      </trkpt>
      <trkpt lat="43.81693" lon="7.25436">
        <ele>635.425735</ele>
        <time>2011-10-30T13:57:16Z</time>
      </trkpt>
      <trkpt lat="43.81697" lon="7.25448">
        <ele>636.425766</ele>
        <time>2011-10-30T13:57:25Z</time>
      </trkpt>
      <trkpt lat="43.81695" lon="7.25453">
        <ele>636.425777</ele>
        <time>2011-10-30T13:57:30Z</time>
      </trkpt>
      <trkpt lat="43.81687" lon="7.25445">
        <ele>629.425751</ele>
        <time>2011-10-30T13:57:44Z</time>
      </trkpt>
      <trkpt lat="43.81682" lon="7.25434">
        <ele>631.42572</ele>
        <time>2011-10-30T13:57:52Z</time>
      </trkpt>
      <trkpt lat="43.81681" lon="7.25433">
        <ele>632.42572</ele>
        <time>2011-10-30T13:57:53Z</time>
      </trkpt>
      <trkpt lat="43.81674" lon="7.25422">
        <ele>631.425682</ele>
        <time>2011-10-30T13:58:03Z</time>
      </trkpt>
      <trkpt lat="43.8167" lon="7.2541">
        <ele>635.425652</ele>
        <time>2011-10-30T13:58:17Z</time>
      </trkpt>
      <trkpt lat="43.81663" lon="7.25399">
        <ele>636.425621</ele>
        <time>2011-10-30T13:58:27Z</time>
      </trkpt>
      <trkpt lat="43.81662" lon="7.25398">
        <ele>636.425613</ele>
        <time>2011-10-30T13:58:28Z</time>
      </trkpt>
      <trkpt lat="43.81652" lon="7.25393">
        <ele>638.425598</ele>
        <time>2011-10-30T13:58:36Z</time>
      </trkpt>
      <trkpt lat="43.81644" lon="7.25386">
        <ele>637.425568</ele>
        <time>2011-10-30T13:58:43Z</time>
      </trkpt>
      <trkpt lat="43.81642" lon="7.25384">
        <ele>637.42556</ele>
        <time>2011-10-30T13:58:45Z</time>
      </trkpt>
      <trkpt lat="43.81633" lon="7.25378">
        <ele>639.425537</ele>
        <time>2011-10-30T13:58:53Z</time>
      </trkpt>
      <trkpt lat="43.81625" lon="7.25372">
        <ele>642.425514</ele>
        <time>2011-10-30T13:59:01Z</time>
      </trkpt>
      <trkpt lat="43.81616" lon="7.25368">
        <ele>644.425491</ele>
        <time>2011-10-30T13:59:11Z</time>
      </trkpt>
      <trkpt lat="43.81607" lon="7.2537">
        <ele>639.425484</ele>
        <time>2011-10-30T13:59:54Z</time>
      </trkpt>
      <trkpt lat="43.81599" lon="7.25365">
        <ele>641.425461</ele>
        <time>2011-10-30T14:00:08Z</time>
      </trkpt>
      <trkpt lat="43.8159" lon="7.2536">
        <ele>643.425438</ele>
        <time>2011-10-30T14:00:26Z</time>
      </trkpt>
      <trkpt lat="43.81581" lon="7.25356">
        <ele>645.425419</ele>
        <time>2011-10-30T14:00:43Z</time>
      </trkpt>
      <trkpt lat="43.81573" lon="7.25343">
        <ele>647.425381</ele>
        <time>2011-10-30T14:01:09Z</time>
      </trkpt>
      <trkpt lat="43.81565" lon="7.25338">
        <ele>649.425362</ele>
        <time>2011-10-30T14:01:26Z</time>
      </trkpt>
      <trkpt lat="43.81555" lon="7.25338">
        <ele>650.425346</ele>
        <time>2011-10-30T14:01:32Z</time>
      </trkpt>
      <trkpt lat="43.81545" lon="7.25338">
        <ele>650.425331</ele>
        <time>2011-10-30T14:01:37Z</time>
      </trkpt>
      <trkpt lat="43.81543" lon="7.25338">
        <ele>651.425331</ele>
        <time>2011-10-30T14:01:40Z</time>
      </trkpt>
      <trkpt lat="43.81534" lon="7.25339">
        <ele>652.425316</ele>
        <time>2011-10-30T14:01:43Z</time>
      </trkpt>
      <trkpt lat="43.8152" lon="7.25343">
        <ele>655.425308</ele>
        <time>2011-10-30T14:01:54Z</time>
      </trkpt>
      <trkpt lat="43.81511" lon="7.25346">
        <ele>657.425301</ele>
        <time>2011-10-30T14:02:01Z</time>
      </trkpt>
      <trkpt lat="43.81503" lon="7.25351">
        <ele>660.425301</ele>
        <time>2011-10-30T14:02:17Z</time>
      </trkpt>
      <trkpt lat="43.81494" lon="7.25353">
        <ele>665.425293</ele>
        <time>2011-10-30T14:02:32Z</time>
      </trkpt>
      <trkpt lat="43.81483" lon="7.25362">
        <ele>667.425293</ele>
        <time>2011-10-30T14:02:50Z</time>
      </trkpt>
      <trkpt lat="43.81473" lon="7.25362">
        <ele>672.425285</ele>
        <time>2011-10-30T14:03:10Z</time>
      </trkpt>
      <trkpt lat="43.81459" lon="7.25367">
        <ele>679.42527</ele>
        <time>2011-10-30T14:03:32Z</time>
      </trkpt>
      <trkpt lat="43.81457" lon="7.25368">
        <ele>680.425274</ele>
        <time>2011-10-30T14:03:35Z</time>
      </trkpt>
      <trkpt lat="43.81447" lon="7.25369">
        <ele>688.425262</ele>
        <time>2011-10-30T14:03:50Z</time>
      </trkpt>
      <trkpt lat="43.81447" lon="7.25369">
        <ele>688.425262</ele>
        <time>2011-10-30T14:03:51Z</time>
      </trkpt>
      <trkpt lat="43.81437" lon="7.25372">
        <ele>688.425255</ele>
        <time>2011-10-30T14:04:07Z</time>
      </trkpt>
      <trkpt lat="43.81437" lon="7.25373">
        <ele>688.425255</ele>
        <time>2011-10-30T14:04:08Z</time>
      </trkpt>
      <trkpt lat="43.81426" lon="7.25376">
        <ele>690.425247</ele>
        <time>2011-10-30T14:04:20Z</time>
      </trkpt>
      <trkpt lat="43.81415" lon="7.25377">
        <ele>690.425232</ele>
        <time>2011-10-30T14:04:23Z</time>
      </trkpt>
      <trkpt lat="43.81406" lon="7.25377">
        <ele>689.42522</ele>
        <time>2011-10-30T14:04:25Z</time>
      </trkpt>
      <trkpt lat="43.81394" lon="7.25375">
        <ele>689.425201</ele>
        <time>2011-10-30T14:04:27Z</time>
      </trkpt>
      <trkpt lat="43.8138" lon="7.25373">
        <ele>689.425175</ele>
        <time>2011-10-30T14:04:29Z</time>
      </trkpt>
      <trkpt lat="43.81367" lon="7.2537">
        <ele>689.425156</ele>
        <time>2011-10-30T14:04:31Z</time>
      </trkpt>
      <trkpt lat="43.8136" lon="7.25368">
        <ele>689.42514</ele>
        <time>2011-10-30T14:04:32Z</time>
      </trkpt>
      <trkpt lat="43.81346" lon="7.25364">
        <ele>688.425117</ele>
        <time>2011-10-30T14:04:34Z</time>
      </trkpt>
      <trkpt lat="43.81331" lon="7.25359">
        <ele>689.425083</ele>
        <time>2011-10-30T14:04:36Z</time>
      </trkpt>
      <trkpt lat="43.81325" lon="7.25356">
        <ele>689.425072</ele>
        <time>2011-10-30T14:04:37Z</time>
      </trkpt>
      <trkpt lat="43.81316" lon="7.25352">
        <ele>689.425049</ele>
        <time>2011-10-30T14:04:40Z</time>
      </trkpt>
      <trkpt lat="43.81309" lon="7.25349">
        <ele>688.425034</ele>
        <time>2011-10-30T14:04:41Z</time>
      </trkpt>
      <trkpt lat="43.81301" lon="7.2534">
        <ele>688.425003</ele>
        <time>2011-10-30T14:04:47Z</time>
      </trkpt>
      <trkpt lat="43.81294" lon="7.25332">
        <ele>691.424973</ele>
        <time>2011-10-30T14:04:54Z</time>
      </trkpt>
      <trkpt lat="43.81285" lon="7.25327">
        <ele>694.42495</ele>
        <time>2011-10-30T14:05:06Z</time>
      </trkpt>
      <trkpt lat="43.81275" lon="7.2533">
        <ele>697.424946</ele>
        <time>2011-10-30T14:05:17Z</time>
      </trkpt>
      <trkpt lat="43.81263" lon="7.25329">
        <ele>700.424923</ele>
        <time>2011-10-30T14:05:26Z</time>
      </trkpt>
      <trkpt lat="43.81254" lon="7.25327">
        <ele>700.424908</ele>
        <time>2011-10-30T14:05:33Z</time>
      </trkpt>
      <trkpt lat="43.81245" lon="7.25324">
        <ele>701.424892</ele>
        <time>2011-10-30T14:05:44Z</time>
      </trkpt>
      <trkpt lat="43.81235" lon="7.25323">
        <ele>702.424873</ele>
        <time>2011-10-30T14:05:53Z</time>
      </trkpt>
      <trkpt lat="43.81226" lon="7.25319">
        <ele>704.424854</ele>
        <time>2011-10-30T14:05:59Z</time>
      </trkpt>
      <trkpt lat="43.81218" lon="7.25315">
        <ele>705.424835</ele>
        <time>2011-10-30T14:06:05Z</time>
      </trkpt>
      <trkpt lat="43.81208" lon="7.25316">
        <ele>706.42482</ele>
        <time>2011-10-30T14:06:11Z</time>
      </trkpt>
      <trkpt lat="43.81195" lon="7.2532">
        <ele>703.424812</ele>
        <time>2011-10-30T14:06:31Z</time>
      </trkpt>
      <trkpt lat="43.81186" lon="7.25316">
        <ele>701.424789</ele>
        <time>2011-10-30T14:06:43Z</time>
      </trkpt>
      <trkpt lat="43.81178" lon="7.25307">
        <ele>701.424767</ele>
        <time>2011-10-30T14:06:54Z</time>
      </trkpt>
      <trkpt lat="43.8117" lon="7.25301">
        <ele>701.424736</ele>
        <time>2011-10-30T14:07:01Z</time>
      </trkpt>
      <trkpt lat="43.81164" lon="7.25292">
        <ele>701.424713</ele>
        <time>2011-10-30T14:07:12Z</time>
      </trkpt>
      <trkpt lat="43.81152" lon="7.25286">
        <ele>702.424683</ele>
        <time>2011-10-30T14:07:21Z</time>
      </trkpt>
      <trkpt lat="43.81146" lon="7.25286">
        <ele>703.424675</ele>
        <time>2011-10-30T14:07:25Z</time>
      </trkpt>
      <trkpt lat="43.81136" lon="7.25285">
        <ele>704.42466</ele>
        <time>2011-10-30T14:07:32Z</time>
      </trkpt>
      <trkpt lat="43.81134" lon="7.25285">
        <ele>705.424656</ele>
        <time>2011-10-30T14:07:34Z</time>
      </trkpt>
      <trkpt lat="43.81125" lon="7.25283">
        <ele>705.424637</ele>
        <time>2011-10-30T14:07:42Z</time>
      </trkpt>
      <trkpt lat="43.81117" lon="7.25276">
        <ele>705.424614</ele>
        <time>2011-10-30T14:07:52Z</time>
      </trkpt>
      <trkpt lat="43.8111" lon="7.25267">
        <ele>707.424587</ele>
        <time>2011-10-30T14:08:00Z</time>
      </trkpt>
      <trkpt lat="43.81103" lon="7.25259">
        <ele>707.424561</ele>
        <time>2011-10-30T14:08:07Z</time>
      </trkpt>
      <trkpt lat="43.81098" lon="7.25256">
        <ele>708.424549</ele>
        <time>2011-10-30T14:08:10Z</time>
      </trkpt>
      <trkpt lat="43.8109" lon="7.2525">
        <ele>709.424522</ele>
        <time>2011-10-30T14:08:17Z</time>
      </trkpt>
      <trkpt lat="43.81061" lon="7.25225">
        <ele>715.424431</ele>
        <time>2011-10-30T14:08:57Z</time>
      </trkpt>
      <trkpt lat="43.81038" lon="7.25201">
        <ele>714.424347</ele>
        <time>2011-10-30T14:09:11Z</time>
      </trkpt>
      <trkpt lat="43.81038" lon="7.25201">
        <ele>714.424347</ele>
        <time>2011-10-30T14:09:14Z</time>
      </trkpt>
      <trkpt lat="43.81027" lon="7.25188">
        <ele>716.424309</ele>
        <time>2011-10-30T14:09:21Z</time>
      </trkpt>
      <trkpt lat="43.81022" lon="7.25181">
        <ele>716.424286</ele>
        <time>2011-10-30T14:09:25Z</time>
      </trkpt>
      <trkpt lat="43.81015" lon="7.25171">
        <ele>716.424248</ele>
        <time>2011-10-30T14:09:30Z</time>
      </trkpt>
      <trkpt lat="43.81006" lon="7.25158">
        <ele>717.42421</ele>
        <time>2011-10-30T14:09:35Z</time>
      </trkpt>
      <trkpt lat="43.80999" lon="7.25148">
        <ele>718.424187</ele>
        <time>2011-10-30T14:09:40Z</time>
      </trkpt>
      <trkpt lat="43.80993" lon="7.25139">
        <ele>718.42416</ele>
        <time>2011-10-30T14:09:45Z</time>
      </trkpt>
      <trkpt lat="43.80986" lon="7.25128">
        <ele>719.424122</ele>
        <time>2011-10-30T14:09:51Z</time>
      </trkpt>
      <trkpt lat="43.80979" lon="7.25115">
        <ele>720.424088</ele>
        <time>2011-10-30T14:09:57Z</time>
      </trkpt>
      <trkpt lat="43.80973" lon="7.25103">
        <ele>721.424057</ele>
        <time>2011-10-30T14:10:04Z</time>
      </trkpt>
      <trkpt lat="43.80966" lon="7.25094">
        <ele>722.424023</ele>
        <time>2011-10-30T14:10:11Z</time>
      </trkpt>
      <trkpt lat="43.80949" lon="7.25084">
        <ele>723.423981</ele>
        <time>2011-10-30T14:10:26Z</time>
      </trkpt>
      <trkpt lat="43.80939" lon="7.2508">
        <ele>724.423958</ele>
        <time>2011-10-30T14:10:32Z</time>
      </trkpt>
      <trkpt lat="43.8093" lon="7.25078">
        <ele>725.423946</ele>
        <time>2011-10-30T14:10:40Z</time>
      </trkpt>
      <trkpt lat="43.80921" lon="7.25073">
        <ele>726.42392</ele>
        <time>2011-10-30T14:10:47Z</time>
      </trkpt>
      <trkpt lat="43.80912" lon="7.25069">
        <ele>726.423897</ele>
        <time>2011-10-30T14:10:52Z</time>
      </trkpt>
      <trkpt lat="43.8089" lon="7.25055">
        <ele>728.42384</ele>
        <time>2011-10-30T14:11:06Z</time>
      </trkpt>
      <trkpt lat="43.80882" lon="7.2505">
        <ele>729.423817</ele>
        <time>2011-10-30T14:11:11Z</time>
      </trkpt>
      <trkpt lat="43.80881" lon="7.25051">
        <ele>730.42382</ele>
        <time>2011-10-30T14:11:13Z</time>
      </trkpt>
      <trkpt lat="43.80871" lon="7.25049">
        <ele>731.423805</ele>
        <time>2011-10-30T14:11:18Z</time>
      </trkpt>
      <trkpt lat="43.80836" lon="7.25041">
        <ele>739.423737</ele>
        <time>2011-10-30T14:11:46Z</time>
      </trkpt>
      <trkpt lat="43.80824" lon="7.25047">
        <ele>739.423729</ele>
        <time>2011-10-30T14:11:49Z</time>
      </trkpt>
      <trkpt lat="43.80815" lon="7.25055">
        <ele>742.423737</ele>
        <time>2011-10-30T14:11:58Z</time>
      </trkpt>
      <trkpt lat="43.8081" lon="7.25059">
        <ele>743.423737</ele>
        <time>2011-10-30T14:12:02Z</time>
      </trkpt>
      <trkpt lat="43.80799" lon="7.25069">
        <ele>748.423744</ele>
        <time>2011-10-30T14:12:12Z</time>
      </trkpt>
      <trkpt lat="43.80789" lon="7.25079">
        <ele>750.423748</ele>
        <time>2011-10-30T14:12:20Z</time>
      </trkpt>
      <trkpt lat="43.80766" lon="7.25091">
        <ele>752.423737</ele>
        <time>2011-10-30T14:12:27Z</time>
      </trkpt>
      <trkpt lat="43.80754" lon="7.25095">
        <ele>752.423737</ele>
        <time>2011-10-30T14:12:29Z</time>
      </trkpt>
      <trkpt lat="43.80737" lon="7.25091">
        <ele>752.423698</ele>
        <time>2011-10-30T14:12:31Z</time>
      </trkpt>
      <trkpt lat="43.80722" lon="7.25084">
        <ele>753.423672</ele>
        <time>2011-10-30T14:12:33Z</time>
      </trkpt>
      <trkpt lat="43.8071" lon="7.25079">
        <ele>753.423641</ele>
        <time>2011-10-30T14:12:35Z</time>
      </trkpt>
      <trkpt lat="43.80699" lon="7.25074">
        <ele>754.423615</ele>
        <time>2011-10-30T14:12:37Z</time>
      </trkpt>
      <trkpt lat="43.80688" lon="7.25073">
        <ele>754.423599</ele>
        <time>2011-10-30T14:12:39Z</time>
      </trkpt>
      <trkpt lat="43.80681" lon="7.25076">
        <ele>755.423599</ele>
        <time>2011-10-30T14:12:40Z</time>
      </trkpt>
      <trkpt lat="43.80668" lon="7.25079">
        <ele>755.423584</ele>
        <time>2011-10-30T14:12:42Z</time>
      </trkpt>
      <trkpt lat="43.80657" lon="7.25081">
        <ele>755.423569</ele>
        <time>2011-10-30T14:12:44Z</time>
      </trkpt>
      <trkpt lat="43.80646" lon="7.25085">
        <ele>756.423565</ele>
        <time>2011-10-30T14:12:48Z</time>
      </trkpt>
      <trkpt lat="43.80633" lon="7.2509">
        <ele>758.423557</ele>
        <time>2011-10-30T14:12:59Z</time>
      </trkpt>
      <trkpt lat="43.80604" lon="7.25094">
        <ele>757.423527</ele>
        <time>2011-10-30T14:13:09Z</time>
      </trkpt>
      <trkpt lat="43.80593" lon="7.25094">
        <ele>758.423515</ele>
        <time>2011-10-30T14:13:12Z</time>
      </trkpt>
      <trkpt lat="43.80583" lon="7.25093">
        <ele>758.423492</ele>
        <time>2011-10-30T14:13:14Z</time>
      </trkpt>
      <trkpt lat="43.80569" lon="7.25094">
        <ele>758.423477</ele>
        <time>2011-10-30T14:13:16Z</time>
      </trkpt>
      <trkpt lat="43.80555" lon="7.25096">
        <ele>758.423462</ele>
        <time>2011-10-30T14:13:18Z</time>
      </trkpt>
      <trkpt lat="43.80539" lon="7.25098">
        <ele>759.423447</ele>
        <time>2011-10-30T14:13:20Z</time>
      </trkpt>
      <trkpt lat="43.80524" lon="7.251">
        <ele>759.423431</ele>
        <time>2011-10-30T14:13:22Z</time>
      </trkpt>
      <trkpt lat="43.80513" lon="7.25104">
        <ele>759.423424</ele>
        <time>2011-10-30T14:13:24Z</time>
      </trkpt>
      <trkpt lat="43.80504" lon="7.25108">
        <ele>760.423416</ele>
        <time>2011-10-30T14:13:26Z</time>
      </trkpt>
      <trkpt lat="43.80494" lon="7.25111">
        <ele>760.423412</ele>
        <time>2011-10-30T14:13:28Z</time>
      </trkpt>
      <trkpt lat="43.80488" lon="7.25113">
        <ele>760.423409</ele>
        <time>2011-10-30T14:13:29Z</time>
      </trkpt>
      <trkpt lat="43.80479" lon="7.25115">
        <ele>761.423401</ele>
        <time>2011-10-30T14:13:31Z</time>
      </trkpt>
      <trkpt lat="43.80467" lon="7.25118">
        <ele>761.423386</ele>
        <time>2011-10-30T14:13:34Z</time>
      </trkpt>
      <trkpt lat="43.80455" lon="7.25123">
        <ele>760.423386</ele>
        <time>2011-10-30T14:13:37Z</time>
      </trkpt>
      <trkpt lat="43.80444" lon="7.25128">
        <ele>759.423378</ele>
        <time>2011-10-30T14:13:40Z</time>
      </trkpt>
      <trkpt lat="43.80432" lon="7.25132">
        <ele>758.42337</ele>
        <time>2011-10-30T14:13:43Z</time>
      </trkpt>
      <trkpt lat="43.80419" lon="7.25136">
        <ele>756.423363</ele>
        <time>2011-10-30T14:13:46Z</time>
      </trkpt>
      <trkpt lat="43.80411" lon="7.2514">
        <ele>756.423355</ele>
        <time>2011-10-30T14:13:48Z</time>
      </trkpt>
      <trkpt lat="43.80401" lon="7.25144">
        <ele>756.423351</ele>
        <time>2011-10-30T14:13:50Z</time>
      </trkpt>
      <trkpt lat="43.80391" lon="7.25148">
        <ele>756.423347</ele>
        <time>2011-10-30T14:13:52Z</time>
      </trkpt>
      <trkpt lat="43.80381" lon="7.25151">
        <ele>756.42334</ele>
        <time>2011-10-30T14:13:54Z</time>
      </trkpt>
      <trkpt lat="43.80376" lon="7.25153">
        <ele>756.423336</ele>
        <time>2011-10-30T14:13:55Z</time>
      </trkpt>
      <trkpt lat="43.80365" lon="7.25157">
        <ele>756.423332</ele>
        <time>2011-10-30T14:13:57Z</time>
      </trkpt>
      <trkpt lat="43.80352" lon="7.25159">
        <ele>756.423317</ele>
        <time>2011-10-30T14:13:59Z</time>
      </trkpt>
      <trkpt lat="43.80337" lon="7.2516">
        <ele>756.423302</ele>
        <time>2011-10-30T14:14:01Z</time>
      </trkpt>
      <trkpt lat="43.80326" lon="7.25161">
        <ele>755.423286</ele>
        <time>2011-10-30T14:14:03Z</time>
      </trkpt>
      <trkpt lat="43.80316" lon="7.25152">
        <ele>755.423248</ele>
        <time>2011-10-30T14:14:04Z</time>
      </trkpt>
      <trkpt lat="43.803" lon="7.25144">
        <ele>755.42321</ele>
        <time>2011-10-30T14:14:06Z</time>
      </trkpt>
      <trkpt lat="43.80284" lon="7.25137">
        <ele>755.42318</ele>
        <time>2011-10-30T14:14:08Z</time>
      </trkpt>
      <trkpt lat="43.80268" lon="7.25129">
        <ele>754.423138</ele>
        <time>2011-10-30T14:14:10Z</time>
      </trkpt>
      <trkpt lat="43.80263" lon="7.25119">
        <ele>754.423111</ele>
        <time>2011-10-30T14:14:13Z</time>
      </trkpt>
      <trkpt lat="43.80257" lon="7.25108">
        <ele>753.42308</ele>
        <time>2011-10-30T14:14:17Z</time>
      </trkpt>
      <trkpt lat="43.8025" lon="7.25097">
        <ele>752.423046</ele>
        <time>2011-10-30T14:14:20Z</time>
      </trkpt>
      <trkpt lat="43.80244" lon="7.25087">
        <ele>752.423016</ele>
        <time>2011-10-30T14:14:22Z</time>
      </trkpt>
      <trkpt lat="43.80238" lon="7.25076">
        <ele>752.422989</ele>
        <time>2011-10-30T14:14:24Z</time>
      </trkpt>
      <trkpt lat="43.80233" lon="7.25065">
        <ele>751.422955</ele>
        <time>2011-10-30T14:14:26Z</time>
      </trkpt>
      <trkpt lat="43.80227" lon="7.25055">
        <ele>750.422924</ele>
        <time>2011-10-30T14:14:28Z</time>
      </trkpt>
      <trkpt lat="43.80222" lon="7.25043">
        <ele>750.422897</ele>
        <time>2011-10-30T14:14:30Z</time>
      </trkpt>
      <trkpt lat="43.80217" lon="7.25031">
        <ele>750.422863</ele>
        <time>2011-10-30T14:14:32Z</time>
      </trkpt>
      <trkpt lat="43.80212" lon="7.2502">
        <ele>749.422829</ele>
        <time>2011-10-30T14:14:34Z</time>
      </trkpt>
      <trkpt lat="43.80208" lon="7.25009">
        <ele>748.422802</ele>
        <time>2011-10-30T14:14:36Z</time>
      </trkpt>
      <trkpt lat="43.80201" lon="7.24999">
        <ele>746.422775</ele>
        <time>2011-10-30T14:14:38Z</time>
      </trkpt>
      <trkpt lat="43.80193" lon="7.24987">
        <ele>745.422737</ele>
        <time>2011-10-30T14:14:40Z</time>
      </trkpt>
      <trkpt lat="43.80185" lon="7.24975">
        <ele>744.422703</ele>
        <time>2011-10-30T14:14:42Z</time>
      </trkpt>
      <trkpt lat="43.80177" lon="7.24964">
        <ele>742.422668</ele>
        <time>2011-10-30T14:14:44Z</time>
      </trkpt>
      <trkpt lat="43.80165" lon="7.24963">
        <ele>740.422646</ele>
        <time>2011-10-30T14:14:46Z</time>
      </trkpt>
      <trkpt lat="43.80149" lon="7.24963">
        <ele>739.42263</ele>
        <time>2011-10-30T14:14:48Z</time>
      </trkpt>
      <trkpt lat="43.80136" lon="7.24959">
        <ele>739.4226</ele>
        <time>2011-10-30T14:14:50Z</time>
      </trkpt>
      <trkpt lat="43.80128" lon="7.24949">
        <ele>738.422569</ele>
        <time>2011-10-30T14:14:52Z</time>
      </trkpt>
      <trkpt lat="43.8012" lon="7.24939">
        <ele>738.422539</ele>
        <time>2011-10-30T14:14:54Z</time>
      </trkpt>
      <trkpt lat="43.80117" lon="7.24934">
        <ele>738.42252</ele>
        <time>2011-10-30T14:14:55Z</time>
      </trkpt>
      <trkpt lat="43.80109" lon="7.24924">
        <ele>737.422489</ele>
        <time>2011-10-30T14:14:57Z</time>
      </trkpt>
      <trkpt lat="43.80102" lon="7.24912">
        <ele>736.422451</ele>
        <time>2011-10-30T14:14:59Z</time>
      </trkpt>
      <trkpt lat="43.80097" lon="7.249">
        <ele>735.422421</ele>
        <time>2011-10-30T14:15:01Z</time>
      </trkpt>
      <trkpt lat="43.80092" lon="7.24886">
        <ele>734.422386</ele>
        <time>2011-10-30T14:15:04Z</time>
      </trkpt>
      <trkpt lat="43.80087" lon="7.24867">
        <ele>733.42234</ele>
        <time>2011-10-30T14:15:07Z</time>
      </trkpt>
      <trkpt lat="43.80084" lon="7.24848">
        <ele>731.422295</ele>
        <time>2011-10-30T14:15:09Z</time>
      </trkpt>
      <trkpt lat="43.80083" lon="7.24839">
        <ele>731.422272</ele>
        <time>2011-10-30T14:15:10Z</time>
      </trkpt>
      <trkpt lat="43.80082" lon="7.24821">
        <ele>731.422237</ele>
        <time>2011-10-30T14:15:12Z</time>
      </trkpt>
      <trkpt lat="43.80082" lon="7.24812">
        <ele>731.422218</ele>
        <time>2011-10-30T14:15:13Z</time>
      </trkpt>
      <trkpt lat="43.80081" lon="7.24795">
        <ele>731.42218</ele>
        <time>2011-10-30T14:15:15Z</time>
      </trkpt>
      <trkpt lat="43.80081" lon="7.24779">
        <ele>730.42215</ele>
        <time>2011-10-30T14:15:17Z</time>
      </trkpt>
      <trkpt lat="43.80079" lon="7.24761">
        <ele>730.422104</ele>
        <time>2011-10-30T14:15:20Z</time>
      </trkpt>
      <trkpt lat="43.80078" lon="7.24754">
        <ele>730.422089</ele>
        <time>2011-10-30T14:15:21Z</time>
      </trkpt>
      <trkpt lat="43.80077" lon="7.24739">
        <ele>730.422058</ele>
        <time>2011-10-30T14:15:23Z</time>
      </trkpt>
      <trkpt lat="43.80075" lon="7.24725">
        <ele>730.422028</ele>
        <time>2011-10-30T14:15:25Z</time>
      </trkpt>
      <trkpt lat="43.80068" lon="7.24708">
        <ele>730.421982</ele>
        <time>2011-10-30T14:15:27Z</time>
      </trkpt>
      <trkpt lat="43.80063" lon="7.24693">
        <ele>730.421944</ele>
        <time>2011-10-30T14:15:29Z</time>
      </trkpt>
      <trkpt lat="43.80058" lon="7.24679">
        <ele>729.421906</ele>
        <time>2011-10-30T14:15:31Z</time>
      </trkpt>
      <trkpt lat="43.80054" lon="7.24665">
        <ele>729.421867</ele>
        <time>2011-10-30T14:15:33Z</time>
      </trkpt>
      <trkpt lat="43.80028" lon="7.24662">
        <ele>725.421829</ele>
        <time>2011-10-30T14:15:44Z</time>
      </trkpt>
      <trkpt lat="43.80028" lon="7.24662">
        <ele>725.421829</ele>
        <time>2011-10-30T14:15:50Z</time>
      </trkpt>
      <trkpt lat="43.80014" lon="7.24662">
        <ele>720.42181</ele>
        <time>2011-10-30T14:15:59Z</time>
      </trkpt>
      <trkpt lat="43.80005" lon="7.24667">
        <ele>712.421806</ele>
        <time>2011-10-30T14:16:08Z</time>
      </trkpt>
      <trkpt lat="43.79996" lon="7.24669">
        <ele>708.421799</ele>
        <time>2011-10-30T14:16:24Z</time>
      </trkpt>
      <trkpt lat="43.79986" lon="7.24672">
        <ele>705.421791</ele>
        <time>2011-10-30T14:16:35Z</time>
      </trkpt>
      <trkpt lat="43.79976" lon="7.24669">
        <ele>702.421772</ele>
        <time>2011-10-30T14:16:44Z</time>
      </trkpt>
      <trkpt lat="43.79965" lon="7.24671">
        <ele>698.421761</ele>
        <time>2011-10-30T14:16:50Z</time>
      </trkpt>
      <trkpt lat="43.79954" lon="7.24673">
        <ele>699.421753</ele>
        <time>2011-10-30T14:16:55Z</time>
      </trkpt>
      <trkpt lat="43.79943" lon="7.24677">
        <ele>700.421745</ele>
        <time>2011-10-30T14:17:01Z</time>
      </trkpt>
      <trkpt lat="43.7993" lon="7.2468">
        <ele>704.421734</ele>
        <time>2011-10-30T14:17:11Z</time>
      </trkpt>
      <trkpt lat="43.79921" lon="7.24683">
        <ele>704.421726</ele>
        <time>2011-10-30T14:17:17Z</time>
      </trkpt>
      <trkpt lat="43.79912" lon="7.24686">
        <ele>704.421719</ele>
        <time>2011-10-30T14:17:23Z</time>
      </trkpt>
      <trkpt lat="43.79903" lon="7.24689">
        <ele>708.421715</ele>
        <time>2011-10-30T14:17:29Z</time>
      </trkpt>
      <trkpt lat="43.79894" lon="7.24692">
        <ele>710.421707</ele>
        <time>2011-10-30T14:17:39Z</time>
      </trkpt>
      <trkpt lat="43.79884" lon="7.24696">
        <ele>712.4217</ele>
        <time>2011-10-30T14:17:48Z</time>
      </trkpt>
      <trkpt lat="43.79873" lon="7.24699">
        <ele>713.421692</ele>
        <time>2011-10-30T14:17:55Z</time>
      </trkpt>
      <trkpt lat="43.7986" lon="7.24706">
        <ele>715.421688</ele>
        <time>2011-10-30T14:18:02Z</time>
      </trkpt>
      <trkpt lat="43.79857" lon="7.24707">
        <ele>715.421688</ele>
        <time>2011-10-30T14:18:04Z</time>
      </trkpt>
      <trkpt lat="43.79846" lon="7.24714">
        <ele>716.421692</ele>
        <time>2011-10-30T14:18:09Z</time>
      </trkpt>
      <trkpt lat="43.79837" lon="7.2472">
        <ele>717.421684</ele>
        <time>2011-10-30T14:18:15Z</time>
      </trkpt>
      <trkpt lat="43.79833" lon="7.24723">
        <ele>717.421692</ele>
        <time>2011-10-30T14:18:18Z</time>
      </trkpt>
      <trkpt lat="43.79823" lon="7.24732">
        <ele>722.421692</ele>
        <time>2011-10-30T14:18:28Z</time>
      </trkpt>
      <trkpt lat="43.79809" lon="7.24734">
        <ele>723.421677</ele>
        <time>2011-10-30T14:18:39Z</time>
      </trkpt>
      <trkpt lat="43.79793" lon="7.24744">
        <ele>722.421677</ele>
        <time>2011-10-30T14:18:47Z</time>
      </trkpt>
      <trkpt lat="43.79783" lon="7.24751">
        <ele>722.42168</ele>
        <time>2011-10-30T14:18:50Z</time>
      </trkpt>
      <trkpt lat="43.79773" lon="7.24757">
        <ele>724.421677</ele>
        <time>2011-10-30T14:18:53Z</time>
      </trkpt>
      <trkpt lat="43.79764" lon="7.24761">
        <ele>724.421669</ele>
        <time>2011-10-30T14:18:56Z</time>
      </trkpt>
      <trkpt lat="43.79752" lon="7.24767">
        <ele>725.421669</ele>
        <time>2011-10-30T14:18:59Z</time>
      </trkpt>
      <trkpt lat="43.79743" lon="7.24773">
        <ele>725.421669</ele>
        <time>2011-10-30T14:19:00Z</time>
      </trkpt>
      <trkpt lat="43.7973" lon="7.24781">
        <ele>725.421669</ele>
        <time>2011-10-30T14:19:02Z</time>
      </trkpt>
      <trkpt lat="43.79719" lon="7.24789">
        <ele>725.421669</ele>
        <time>2011-10-30T14:19:04Z</time>
      </trkpt>
      <trkpt lat="43.79706" lon="7.248">
        <ele>725.421677</ele>
        <time>2011-10-30T14:19:06Z</time>
      </trkpt>
      <trkpt lat="43.79694" lon="7.24809">
        <ele>725.421677</ele>
        <time>2011-10-30T14:19:08Z</time>
      </trkpt>
      <trkpt lat="43.79681" lon="7.24819">
        <ele>726.42168</ele>
        <time>2011-10-30T14:19:10Z</time>
      </trkpt>
      <trkpt lat="43.79671" lon="7.24828">
        <ele>726.421684</ele>
        <time>2011-10-30T14:19:12Z</time>
      </trkpt>
      <trkpt lat="43.79662" lon="7.24836">
        <ele>727.421692</ele>
        <time>2011-10-30T14:19:14Z</time>
      </trkpt>
      <trkpt lat="43.7965" lon="7.24846">
        <ele>727.421692</ele>
        <time>2011-10-30T14:19:16Z</time>
      </trkpt>
      <trkpt lat="43.7964" lon="7.24855">
        <ele>727.4217</ele>
        <time>2011-10-30T14:19:18Z</time>
      </trkpt>
      <trkpt lat="43.79629" lon="7.24861">
        <ele>728.4217</ele>
        <time>2011-10-30T14:19:20Z</time>
      </trkpt>
      <trkpt lat="43.79624" lon="7.24863">
        <ele>728.421692</ele>
        <time>2011-10-30T14:19:21Z</time>
      </trkpt>
      <trkpt lat="43.79613" lon="7.24866">
        <ele>728.421684</ele>
        <time>2011-10-30T14:19:23Z</time>
      </trkpt>
      <trkpt lat="43.79602" lon="7.24867">
        <ele>729.421673</ele>
        <time>2011-10-30T14:19:25Z</time>
      </trkpt>
      <trkpt lat="43.79592" lon="7.24869">
        <ele>729.421661</ele>
        <time>2011-10-30T14:19:27Z</time>
      </trkpt>
      <trkpt lat="43.79582" lon="7.24871">
        <ele>729.421654</ele>
        <time>2011-10-30T14:19:29Z</time>
      </trkpt>
      <trkpt lat="43.7957" lon="7.24871">
        <ele>729.421638</ele>
        <time>2011-10-30T14:19:32Z</time>
      </trkpt>
      <trkpt lat="43.7956" lon="7.24868">
        <ele>729.421619</ele>
        <time>2011-10-30T14:19:34Z</time>
      </trkpt>
      <trkpt lat="43.7955" lon="7.24866">
        <ele>729.4216</ele>
        <time>2011-10-30T14:19:36Z</time>
      </trkpt>
      <trkpt lat="43.79542" lon="7.2486">
        <ele>729.421574</ele>
        <time>2011-10-30T14:19:38Z</time>
      </trkpt>
      <trkpt lat="43.79535" lon="7.24851">
        <ele>729.421547</ele>
        <time>2011-10-30T14:19:40Z</time>
      </trkpt>
      <trkpt lat="43.79523" lon="7.24842">
        <ele>728.421513</ele>
        <time>2011-10-30T14:19:42Z</time>
      </trkpt>
      <trkpt lat="43.79517" lon="7.24837">
        <ele>728.42149</ele>
        <time>2011-10-30T14:19:43Z</time>
      </trkpt>
      <trkpt lat="43.79504" lon="7.24831">
        <ele>727.421459</ele>
        <time>2011-10-30T14:19:45Z</time>
      </trkpt>
      <trkpt lat="43.7949" lon="7.2483">
        <ele>726.42144</ele>
        <time>2011-10-30T14:19:47Z</time>
      </trkpt>
      <trkpt lat="43.79479" lon="7.24828">
        <ele>724.421417</ele>
        <time>2011-10-30T14:19:49Z</time>
      </trkpt>
      <trkpt lat="43.79466" lon="7.24827">
        <ele>722.421402</ele>
        <time>2011-10-30T14:19:51Z</time>
      </trkpt>
      <trkpt lat="43.79453" lon="7.24825">
        <ele>720.421379</ele>
        <time>2011-10-30T14:19:53Z</time>
      </trkpt>
      <trkpt lat="43.79439" lon="7.24818">
        <ele>720.421349</ele>
        <time>2011-10-30T14:19:55Z</time>
      </trkpt>
      <trkpt lat="43.79432" lon="7.24826">
        <ele>715.421352</ele>
        <time>2011-10-30T14:19:57Z</time>
      </trkpt>
      <trkpt lat="43.79419" lon="7.24823">
        <ele>714.421329</ele>
        <time>2011-10-30T14:19:58Z</time>
      </trkpt>
      <trkpt lat="43.79407" lon="7.24817">
        <ele>714.421303</ele>
        <time>2011-10-30T14:20:00Z</time>
      </trkpt>
      <trkpt lat="43.79396" lon="7.24815">
        <ele>712.42128</ele>
        <time>2011-10-30T14:20:02Z</time>
      </trkpt>
      <trkpt lat="43.79392" lon="7.24818">
        <ele>711.42128</ele>
        <time>2011-10-30T14:20:03Z</time>
      </trkpt>
      <trkpt lat="43.79381" lon="7.24815">
        <ele>710.421265</ele>
        <time>2011-10-30T14:20:07Z</time>
      </trkpt>
      <trkpt lat="43.7937" lon="7.24816">
        <ele>707.421246</ele>
        <time>2011-10-30T14:20:10Z</time>
      </trkpt>
      <trkpt lat="43.79355" lon="7.24816">
        <ele>703.421227</ele>
        <time>2011-10-30T14:20:17Z</time>
      </trkpt>
      <trkpt lat="43.79335" lon="7.24814">
        <ele>701.421196</ele>
        <time>2011-10-30T14:20:25Z</time>
      </trkpt>
      <trkpt lat="43.79322" lon="7.24808">
        <ele>699.421162</ele>
        <time>2011-10-30T14:20:28Z</time>
      </trkpt>
      <trkpt lat="43.79312" lon="7.24802">
        <ele>698.421135</ele>
        <time>2011-10-30T14:20:30Z</time>
      </trkpt>
      <trkpt lat="43.79303" lon="7.24795">
        <ele>698.421112</ele>
        <time>2011-10-30T14:20:32Z</time>
      </trkpt>
      <trkpt lat="43.7929" lon="7.24788">
        <ele>697.421082</ele>
        <time>2011-10-30T14:20:34Z</time>
      </trkpt>
      <trkpt lat="43.79279" lon="7.24784">
        <ele>697.421055</ele>
        <time>2011-10-30T14:20:36Z</time>
      </trkpt>
      <trkpt lat="43.79267" lon="7.24785">
        <ele>696.421043</ele>
        <time>2011-10-30T14:20:38Z</time>
      </trkpt>
      <trkpt lat="43.79256" lon="7.24795">
        <ele>695.421043</ele>
        <time>2011-10-30T14:20:40Z</time>
      </trkpt>
      <trkpt lat="43.79245" lon="7.24806">
        <ele>694.421051</ele>
        <time>2011-10-30T14:20:42Z</time>
      </trkpt>
      <trkpt lat="43.79234" lon="7.24812">
        <ele>693.421051</ele>
        <time>2011-10-30T14:20:44Z</time>
      </trkpt>
      <trkpt lat="43.79224" lon="7.24818">
        <ele>692.421051</ele>
        <time>2011-10-30T14:20:46Z</time>
      </trkpt>
      <trkpt lat="43.79216" lon="7.24824">
        <ele>691.421051</ele>
        <time>2011-10-30T14:20:48Z</time>
      </trkpt>
      <trkpt lat="43.79206" lon="7.24829">
        <ele>691.421047</ele>
        <time>2011-10-30T14:20:52Z</time>
      </trkpt>
      <trkpt lat="43.79206" lon="7.24829">
        <ele>691.421047</ele>
        <time>2011-10-30T14:20:53Z</time>
      </trkpt>
      <trkpt lat="43.79194" lon="7.24863">
        <ele>693.421104</ele>
        <time>2011-10-30T14:21:11Z</time>
      </trkpt>
      <trkpt lat="43.79198" lon="7.24875">
        <ele>695.421135</ele>
        <time>2011-10-30T14:21:14Z</time>
      </trkpt>
      <trkpt lat="43.79195" lon="7.2489">
        <ele>693.421162</ele>
        <time>2011-10-30T14:21:41Z</time>
      </trkpt>
      <trkpt lat="43.79201" lon="7.24903">
        <ele>693.421196</ele>
        <time>2011-10-30T14:21:47Z</time>
      </trkpt>
      <trkpt lat="43.79204" lon="7.24905">
        <ele>693.421204</ele>
        <time>2011-10-30T14:21:49Z</time>
      </trkpt>
      <trkpt lat="43.79211" lon="7.24919">
        <ele>690.421242</ele>
        <time>2011-10-30T14:21:53Z</time>
      </trkpt>
      <trkpt lat="43.79214" lon="7.24932">
        <ele>688.421272</ele>
        <time>2011-10-30T14:21:58Z</time>
      </trkpt>
      <trkpt lat="43.79221" lon="7.2494">
        <ele>684.421303</ele>
        <time>2011-10-30T14:22:10Z</time>
      </trkpt>
      <trkpt lat="43.79221" lon="7.2494">
        <ele>684.421303</ele>
        <time>2011-10-30T14:22:12Z</time>
      </trkpt>
      <trkpt lat="43.79231" lon="7.24942">
        <ele>681.421318</ele>
        <time>2011-10-30T14:22:14Z</time>
      </trkpt>
      <trkpt lat="43.79241" lon="7.24947">
        <ele>678.421341</ele>
        <time>2011-10-30T14:22:19Z</time>
      </trkpt>
      <trkpt lat="43.79252" lon="7.24961">
        <ele>673.421387</ele>
        <time>2011-10-30T14:22:27Z</time>
      </trkpt>
      <trkpt lat="43.79255" lon="7.24974">
        <ele>671.421421</ele>
        <time>2011-10-30T14:22:33Z</time>
      </trkpt>
      <trkpt lat="43.79263" lon="7.24988">
        <ele>667.421455</ele>
        <time>2011-10-30T14:22:42Z</time>
      </trkpt>
      <trkpt lat="43.79239" lon="7.2501">
        <ele>664.421471</ele>
        <time>2011-10-30T14:22:57Z</time>
      </trkpt>
      <trkpt lat="43.79221" lon="7.25023">
        <ele>662.421478</ele>
        <time>2011-10-30T14:23:05Z</time>
      </trkpt>
      <trkpt lat="43.79214" lon="7.25032">
        <ele>663.421486</ele>
        <time>2011-10-30T14:23:13Z</time>
      </trkpt>
      <trkpt lat="43.79207" lon="7.2504">
        <ele>662.421494</ele>
        <time>2011-10-30T14:23:17Z</time>
      </trkpt>
      <trkpt lat="43.79193" lon="7.25064">
        <ele>659.421524</ele>
        <time>2011-10-30T14:23:25Z</time>
      </trkpt>
      <trkpt lat="43.79172" lon="7.25098">
        <ele>656.421566</ele>
        <time>2011-10-30T14:23:32Z</time>
      </trkpt>
      <trkpt lat="43.79163" lon="7.25112">
        <ele>655.421585</ele>
        <time>2011-10-30T14:23:35Z</time>
      </trkpt>
      <trkpt lat="43.79157" lon="7.25124">
        <ele>654.4216</ele>
        <time>2011-10-30T14:23:37Z</time>
      </trkpt>
      <trkpt lat="43.7915" lon="7.25137">
        <ele>653.421619</ele>
        <time>2011-10-30T14:23:39Z</time>
      </trkpt>
      <trkpt lat="43.79144" lon="7.25148">
        <ele>652.421631</ele>
        <time>2011-10-30T14:23:41Z</time>
      </trkpt>
      <trkpt lat="43.79137" lon="7.2516">
        <ele>651.421654</ele>
        <time>2011-10-30T14:23:44Z</time>
      </trkpt>
      <trkpt lat="43.79133" lon="7.25169">
        <ele>651.421661</ele>
        <time>2011-10-30T14:23:46Z</time>
      </trkpt>
      <trkpt lat="43.79127" lon="7.25182">
        <ele>650.421684</ele>
        <time>2011-10-30T14:23:49Z</time>
      </trkpt>
      <trkpt lat="43.7912" lon="7.25193">
        <ele>648.4217</ele>
        <time>2011-10-30T14:23:52Z</time>
      </trkpt>
      <trkpt lat="43.79111" lon="7.25209">
        <ele>647.421715</ele>
        <time>2011-10-30T14:24:01Z</time>
      </trkpt>
      <trkpt lat="43.79118" lon="7.25219">
        <ele>645.421749</ele>
        <time>2011-10-30T14:24:05Z</time>
      </trkpt>
      <trkpt lat="43.79126" lon="7.25225">
        <ele>643.421776</ele>
        <time>2011-10-30T14:24:08Z</time>
      </trkpt>
      <trkpt lat="43.79136" lon="7.25227">
        <ele>641.421791</ele>
        <time>2011-10-30T14:24:11Z</time>
      </trkpt>
      <trkpt lat="43.79146" lon="7.2523">
        <ele>639.421806</ele>
        <time>2011-10-30T14:24:19Z</time>
      </trkpt>
      <trkpt lat="43.79146" lon="7.2523">
        <ele>638.421806</ele>
        <time>2011-10-30T14:24:20Z</time>
      </trkpt>
      <trkpt lat="43.79155" lon="7.25223">
        <ele>632.421806</ele>
        <time>2011-10-30T14:24:42Z</time>
      </trkpt>
      <trkpt lat="43.79164" lon="7.25215">
        <ele>631.421806</ele>
        <time>2011-10-30T14:24:46Z</time>
      </trkpt>
      <trkpt lat="43.79171" lon="7.25206">
        <ele>630.421791</ele>
        <time>2011-10-30T14:24:49Z</time>
      </trkpt>
      <trkpt lat="43.79178" lon="7.25198">
        <ele>628.421787</ele>
        <time>2011-10-30T14:24:52Z</time>
      </trkpt>
      <trkpt lat="43.79187" lon="7.2519">
        <ele>628.421783</ele>
        <time>2011-10-30T14:24:55Z</time>
      </trkpt>
      <trkpt lat="43.79199" lon="7.25182">
        <ele>627.421783</ele>
        <time>2011-10-30T14:24:58Z</time>
      </trkpt>
      <trkpt lat="43.79207" lon="7.25177">
        <ele>626.421783</ele>
        <time>2011-10-30T14:25:00Z</time>
      </trkpt>
      <trkpt lat="43.79218" lon="7.25171">
        <ele>625.421783</ele>
        <time>2011-10-30T14:25:03Z</time>
      </trkpt>
      <trkpt lat="43.79229" lon="7.25166">
        <ele>624.421791</ele>
        <time>2011-10-30T14:25:06Z</time>
      </trkpt>
      <trkpt lat="43.79236" lon="7.25164">
        <ele>624.421795</ele>
        <time>2011-10-30T14:25:08Z</time>
      </trkpt>
      <trkpt lat="43.79246" lon="7.25162">
        <ele>624.421806</ele>
        <time>2011-10-30T14:25:11Z</time>
      </trkpt>
      <trkpt lat="43.79249" lon="7.25163">
        <ele>624.42181</ele>
        <time>2011-10-30T14:25:12Z</time>
      </trkpt>
      <trkpt lat="43.7926" lon="7.25166">
        <ele>623.421829</ele>
        <time>2011-10-30T14:25:15Z</time>
      </trkpt>
      <trkpt lat="43.7927" lon="7.25167">
        <ele>622.421844</ele>
        <time>2011-10-30T14:25:18Z</time>
      </trkpt>
      <trkpt lat="43.7928" lon="7.25167">
        <ele>620.42186</ele>
        <time>2011-10-30T14:25:21Z</time>
      </trkpt>
      <trkpt lat="43.79291" lon="7.25165">
        <ele>618.421867</ele>
        <time>2011-10-30T14:25:24Z</time>
      </trkpt>
      <trkpt lat="43.79301" lon="7.2516">
        <ele>617.421875</ele>
        <time>2011-10-30T14:25:27Z</time>
      </trkpt>
      <trkpt lat="43.7931" lon="7.25152">
        <ele>617.421875</ele>
        <time>2011-10-30T14:25:30Z</time>
      </trkpt>
      <trkpt lat="43.79317" lon="7.25144">
        <ele>617.42186</ele>
        <time>2011-10-30T14:25:33Z</time>
      </trkpt>
      <trkpt lat="43.7932" lon="7.25137">
        <ele>616.421856</ele>
        <time>2011-10-30T14:25:35Z</time>
      </trkpt>
      <trkpt lat="43.79323" lon="7.25116">
        <ele>616.42181</ele>
        <time>2011-10-30T14:25:50Z</time>
      </trkpt>
      <trkpt lat="43.79333" lon="7.25114">
        <ele>619.421822</ele>
        <time>2011-10-30T14:26:07Z</time>
      </trkpt>
      <trkpt lat="43.79348" lon="7.25118">
        <ele>616.421848</ele>
        <time>2011-10-30T14:26:15Z</time>
      </trkpt>
      <trkpt lat="43.7935" lon="7.25118">
        <ele>616.421856</ele>
        <time>2011-10-30T14:26:19Z</time>
      </trkpt>
      <trkpt lat="43.79359" lon="7.25116">
        <ele>614.421867</ele>
        <time>2011-10-30T14:26:20Z</time>
      </trkpt>
      <trkpt lat="43.79373" lon="7.25117">
        <ele>610.421883</ele>
        <time>2011-10-30T14:26:28Z</time>
      </trkpt>
      <trkpt lat="43.79383" lon="7.2513">
        <ele>605.421925</ele>
        <time>2011-10-30T14:26:37Z</time>
      </trkpt>
      <trkpt lat="43.79389" lon="7.25145">
        <ele>605.421967</ele>
        <time>2011-10-30T14:26:41Z</time>
      </trkpt>
      <trkpt lat="43.79393" lon="7.25157">
        <ele>605.421993</ele>
        <time>2011-10-30T14:26:44Z</time>
      </trkpt>
      <trkpt lat="43.79394" lon="7.25171">
        <ele>604.422028</ele>
        <time>2011-10-30T14:26:47Z</time>
      </trkpt>
      <trkpt lat="43.79396" lon="7.25185">
        <ele>603.422058</ele>
        <time>2011-10-30T14:26:50Z</time>
      </trkpt>
      <trkpt lat="43.79398" lon="7.25198">
        <ele>604.422089</ele>
        <time>2011-10-30T14:26:53Z</time>
      </trkpt>
      <trkpt lat="43.79401" lon="7.25211">
        <ele>605.422119</ele>
        <time>2011-10-30T14:26:56Z</time>
      </trkpt>
      <trkpt lat="43.79404" lon="7.25224">
        <ele>607.42215</ele>
        <time>2011-10-30T14:26:59Z</time>
      </trkpt>
      <trkpt lat="43.79406" lon="7.25232">
        <ele>607.422169</ele>
        <time>2011-10-30T14:27:01Z</time>
      </trkpt>
      <trkpt lat="43.79408" lon="7.25248">
        <ele>608.422207</ele>
        <time>2011-10-30T14:27:06Z</time>
      </trkpt>
      <trkpt lat="43.79395" lon="7.25285">
        <ele>613.422264</ele>
        <time>2011-10-30T14:27:17Z</time>
      </trkpt>
      <trkpt lat="43.79392" lon="7.25297">
        <ele>614.422291</ele>
        <time>2011-10-30T14:27:19Z</time>
      </trkpt>
      <trkpt lat="43.79387" lon="7.25311">
        <ele>614.42231</ele>
        <time>2011-10-30T14:27:22Z</time>
      </trkpt>
      <trkpt lat="43.79383" lon="7.25325">
        <ele>614.422333</ele>
        <time>2011-10-30T14:27:25Z</time>
      </trkpt>
      <trkpt lat="43.79379" lon="7.25339">
        <ele>614.422356</ele>
        <time>2011-10-30T14:27:28Z</time>
      </trkpt>
      <trkpt lat="43.79376" lon="7.25353">
        <ele>614.422386</ele>
        <time>2011-10-30T14:27:31Z</time>
      </trkpt>
      <trkpt lat="43.79374" lon="7.25368">
        <ele>614.422413</ele>
        <time>2011-10-30T14:27:34Z</time>
      </trkpt>
      <trkpt lat="43.7937" lon="7.25381">
        <ele>613.422436</ele>
        <time>2011-10-30T14:27:37Z</time>
      </trkpt>
      <trkpt lat="43.79364" lon="7.25396">
        <ele>612.422455</ele>
        <time>2011-10-30T14:27:41Z</time>
      </trkpt>
      <trkpt lat="43.79363" lon="7.25414">
        <ele>612.422493</ele>
        <time>2011-10-30T14:27:44Z</time>
      </trkpt>
      <trkpt lat="43.79365" lon="7.25426">
        <ele>612.422523</ele>
        <time>2011-10-30T14:27:46Z</time>
      </trkpt>
      <trkpt lat="43.79372" lon="7.25437">
        <ele>611.422554</ele>
        <time>2011-10-30T14:27:48Z</time>
      </trkpt>
      <trkpt lat="43.79383" lon="7.25447">
        <ele>610.422592</ele>
        <time>2011-10-30T14:27:50Z</time>
      </trkpt>
      <trkpt lat="43.79397" lon="7.25453">
        <ele>610.422623</ele>
        <time>2011-10-30T14:27:52Z</time>
      </trkpt>
      <trkpt lat="43.7941" lon="7.25456">
        <ele>611.422646</ele>
        <time>2011-10-30T14:27:54Z</time>
      </trkpt>
      <trkpt lat="43.79423" lon="7.25457">
        <ele>610.422665</ele>
        <time>2011-10-30T14:27:56Z</time>
      </trkpt>
      <trkpt lat="43.79435" lon="7.25458">
        <ele>609.422684</ele>
        <time>2011-10-30T14:27:58Z</time>
      </trkpt>
      <trkpt lat="43.79449" lon="7.25459">
        <ele>608.422703</ele>
        <time>2011-10-30T14:28:02Z</time>
      </trkpt>
      <trkpt lat="43.7946" lon="7.25459">
        <ele>608.422722</ele>
        <time>2011-10-30T14:28:05Z</time>
      </trkpt>
      <trkpt lat="43.79465" lon="7.2546">
        <ele>607.422733</ele>
        <time>2011-10-30T14:28:06Z</time>
      </trkpt>
      <trkpt lat="43.79477" lon="7.25458">
        <ele>606.422745</ele>
        <time>2011-10-30T14:28:09Z</time>
      </trkpt>
      <trkpt lat="43.79487" lon="7.25457">
        <ele>603.422752</ele>
        <time>2011-10-30T14:28:11Z</time>
      </trkpt>
      <trkpt lat="43.79497" lon="7.25459">
        <ele>601.422775</ele>
        <time>2011-10-30T14:28:14Z</time>
      </trkpt>
      <trkpt lat="43.79496" lon="7.25475">
        <ele>599.422806</ele>
        <time>2011-10-30T14:28:18Z</time>
      </trkpt>
      <trkpt lat="43.79495" lon="7.25487">
        <ele>595.422829</ele>
        <time>2011-10-30T14:28:21Z</time>
      </trkpt>
      <trkpt lat="43.79504" lon="7.25494">
        <ele>592.422855</ele>
        <time>2011-10-30T14:28:25Z</time>
      </trkpt>
      <trkpt lat="43.79515" lon="7.25505">
        <ele>586.42289</ele>
        <time>2011-10-30T14:28:29Z</time>
      </trkpt>
      <trkpt lat="43.79493" lon="7.25533">
        <ele>568.42292</ele>
        <time>2011-10-30T14:28:58Z</time>
      </trkpt>
      <trkpt lat="43.79461" lon="7.2554">
        <ele>555.422897</ele>
        <time>2011-10-30T14:29:14Z</time>
      </trkpt>
      <trkpt lat="43.79429" lon="7.25538">
        <ele>548.422844</ele>
        <time>2011-10-30T14:29:20Z</time>
      </trkpt>
      <trkpt lat="43.79398" lon="7.25538">
        <ele>543.422806</ele>
        <time>2011-10-30T14:29:29Z</time>
      </trkpt>
      <trkpt lat="43.7937" lon="7.25526">
        <ele>538.422745</ele>
        <time>2011-10-30T14:29:39Z</time>
      </trkpt>
      <trkpt lat="43.79359" lon="7.25518">
        <ele>536.42271</ele>
        <time>2011-10-30T14:29:43Z</time>
      </trkpt>
      <trkpt lat="43.79338" lon="7.25495">
        <ele>531.42263</ele>
        <time>2011-10-30T14:29:53Z</time>
      </trkpt>
      <trkpt lat="43.79328" lon="7.25482">
        <ele>528.422585</ele>
        <time>2011-10-30T14:29:58Z</time>
      </trkpt>
      <trkpt lat="43.79323" lon="7.25468">
        <ele>528.42255</ele>
        <time>2011-10-30T14:30:02Z</time>
      </trkpt>
      <trkpt lat="43.79308" lon="7.2542">
        <ele>526.422432</ele>
        <time>2011-10-30T14:30:19Z</time>
      </trkpt>
      <trkpt lat="43.79305" lon="7.25383">
        <ele>526.422352</ele>
        <time>2011-10-30T14:30:27Z</time>
      </trkpt>
      <trkpt lat="43.793" lon="7.25342">
        <ele>526.422256</ele>
        <time>2011-10-30T14:30:35Z</time>
      </trkpt>
      <trkpt lat="43.79292" lon="7.25315">
        <ele>524.422188</ele>
        <time>2011-10-30T14:30:41Z</time>
      </trkpt>
      <trkpt lat="43.79286" lon="7.25303">
        <ele>524.422153</ele>
        <time>2011-10-30T14:30:46Z</time>
      </trkpt>
      <trkpt lat="43.79275" lon="7.25301">
        <ele>525.422142</ele>
        <time>2011-10-30T14:30:51Z</time>
      </trkpt>
      <trkpt lat="43.79261" lon="7.25303">
        <ele>525.422123</ele>
        <time>2011-10-30T14:30:55Z</time>
      </trkpt>
      <trkpt lat="43.79252" lon="7.25305">
        <ele>525.422119</ele>
        <time>2011-10-30T14:30:58Z</time>
      </trkpt>
      <trkpt lat="43.79243" lon="7.25307">
        <ele>525.422104</ele>
        <time>2011-10-30T14:31:00Z</time>
      </trkpt>
      <trkpt lat="43.79233" lon="7.2531">
        <ele>525.422096</ele>
        <time>2011-10-30T14:31:02Z</time>
      </trkpt>
      <trkpt lat="43.79222" lon="7.25314">
        <ele>525.422089</ele>
        <time>2011-10-30T14:31:04Z</time>
      </trkpt>
      <trkpt lat="43.7921" lon="7.25318">
        <ele>525.422081</ele>
        <time>2011-10-30T14:31:06Z</time>
      </trkpt>
      <trkpt lat="43.79201" lon="7.25323">
        <ele>525.422077</ele>
        <time>2011-10-30T14:31:08Z</time>
      </trkpt>
      <trkpt lat="43.79189" lon="7.25329">
        <ele>525.422077</ele>
        <time>2011-10-30T14:31:11Z</time>
      </trkpt>
      <trkpt lat="43.79177" lon="7.25336">
        <ele>524.422073</ele>
        <time>2011-10-30T14:31:14Z</time>
      </trkpt>
      <trkpt lat="43.79166" lon="7.25342">
        <ele>524.422073</ele>
        <time>2011-10-30T14:31:17Z</time>
      </trkpt>
      <trkpt lat="43.79155" lon="7.25346">
        <ele>524.422066</ele>
        <time>2011-10-30T14:31:20Z</time>
      </trkpt>
      <trkpt lat="43.79144" lon="7.25353">
        <ele>525.422066</ele>
        <time>2011-10-30T14:31:23Z</time>
      </trkpt>
      <trkpt lat="43.79135" lon="7.25357">
        <ele>526.422058</ele>
        <time>2011-10-30T14:31:26Z</time>
      </trkpt>
      <trkpt lat="43.79124" lon="7.25359">
        <ele>526.42205</ele>
        <time>2011-10-30T14:31:29Z</time>
      </trkpt>
      <trkpt lat="43.79115" lon="7.25361">
        <ele>527.422043</ele>
        <time>2011-10-30T14:31:32Z</time>
      </trkpt>
      <trkpt lat="43.79104" lon="7.25364">
        <ele>528.422035</ele>
        <time>2011-10-30T14:31:35Z</time>
      </trkpt>
      <trkpt lat="43.79093" lon="7.25366">
        <ele>529.422024</ele>
        <time>2011-10-30T14:31:38Z</time>
      </trkpt>
      <trkpt lat="43.79083" lon="7.25368">
        <ele>530.422016</ele>
        <time>2011-10-30T14:31:40Z</time>
      </trkpt>
      <trkpt lat="43.79071" lon="7.2537">
        <ele>531.422005</ele>
        <time>2011-10-30T14:31:42Z</time>
      </trkpt>
      <trkpt lat="43.79061" lon="7.2537">
        <ele>531.421989</ele>
        <time>2011-10-30T14:31:44Z</time>
      </trkpt>
      <trkpt lat="43.79056" lon="7.2537">
        <ele>531.421982</ele>
        <time>2011-10-30T14:31:46Z</time>
      </trkpt>
      <trkpt lat="43.79045" lon="7.2537">
        <ele>532.421967</ele>
        <time>2011-10-30T14:31:47Z</time>
      </trkpt>
      <trkpt lat="43.79035" lon="7.25369">
        <ele>532.421951</ele>
        <time>2011-10-30T14:31:49Z</time>
      </trkpt>
      <trkpt lat="43.79025" lon="7.25367">
        <ele>533.421928</ele>
        <time>2011-10-30T14:31:51Z</time>
      </trkpt>
      <trkpt lat="43.79015" lon="7.25366">
        <ele>532.421917</ele>
        <time>2011-10-30T14:31:53Z</time>
      </trkpt>
      <trkpt lat="43.7901" lon="7.25366">
        <ele>532.421906</ele>
        <time>2011-10-30T14:31:54Z</time>
      </trkpt>
      <trkpt lat="43.79" lon="7.25365">
        <ele>531.42189</ele>
        <time>2011-10-30T14:31:56Z</time>
      </trkpt>
      <trkpt lat="43.7899" lon="7.25363">
        <ele>530.421875</ele>
        <time>2011-10-30T14:31:58Z</time>
      </trkpt>
      <trkpt lat="43.78981" lon="7.2536">
        <ele>530.42186</ele>
        <time>2011-10-30T14:32:00Z</time>
      </trkpt>
      <trkpt lat="43.78972" lon="7.25357">
        <ele>530.421837</ele>
        <time>2011-10-30T14:32:02Z</time>
      </trkpt>
      <trkpt lat="43.78964" lon="7.25352">
        <ele>531.421814</ele>
        <time>2011-10-30T14:32:04Z</time>
      </trkpt>
      <trkpt lat="43.78952" lon="7.25343">
        <ele>531.421783</ele>
        <time>2011-10-30T14:32:07Z</time>
      </trkpt>
      <trkpt lat="43.78942" lon="7.25332">
        <ele>531.421745</ele>
        <time>2011-10-30T14:32:10Z</time>
      </trkpt>
      <trkpt lat="43.78935" lon="7.2532">
        <ele>532.421711</ele>
        <time>2011-10-30T14:32:13Z</time>
      </trkpt>
      <trkpt lat="43.7893" lon="7.25307">
        <ele>531.421677</ele>
        <time>2011-10-30T14:32:17Z</time>
      </trkpt>
      <trkpt lat="43.78927" lon="7.25296">
        <ele>531.421646</ele>
        <time>2011-10-30T14:32:20Z</time>
      </trkpt>
      <trkpt lat="43.78922" lon="7.25283">
        <ele>531.421608</ele>
        <time>2011-10-30T14:32:23Z</time>
      </trkpt>
      <trkpt lat="43.78917" lon="7.25271">
        <ele>532.421585</ele>
        <time>2011-10-30T14:32:26Z</time>
      </trkpt>
      <trkpt lat="43.78885" lon="7.25241">
        <ele>532.421474</ele>
        <time>2011-10-30T14:32:46Z</time>
      </trkpt>
      <trkpt lat="43.78855" lon="7.25227">
        <ele>530.421406</ele>
        <time>2011-10-30T14:32:56Z</time>
      </trkpt>
      <trkpt lat="43.78822" lon="7.25214">
        <ele>527.421329</ele>
        <time>2011-10-30T14:33:05Z</time>
      </trkpt>
      <trkpt lat="43.78794" lon="7.25218">
        <ele>526.421303</ele>
        <time>2011-10-30T14:33:12Z</time>
      </trkpt>
      <trkpt lat="43.78767" lon="7.25228">
        <ele>525.421284</ele>
        <time>2011-10-30T14:33:18Z</time>
      </trkpt>
      <trkpt lat="43.78757" lon="7.25231">
        <ele>525.42128</ele>
        <time>2011-10-30T14:33:19Z</time>
      </trkpt>
      <trkpt lat="43.78743" lon="7.25235">
        <ele>525.421265</ele>
        <time>2011-10-30T14:33:21Z</time>
      </trkpt>
      <trkpt lat="43.78724" lon="7.25241">
        <ele>525.421253</ele>
        <time>2011-10-30T14:33:24Z</time>
      </trkpt>
      <trkpt lat="43.78712" lon="7.25247">
        <ele>525.421249</ele>
        <time>2011-10-30T14:33:26Z</time>
      </trkpt>
      <trkpt lat="43.78698" lon="7.25254">
        <ele>525.421246</ele>
        <time>2011-10-30T14:33:28Z</time>
      </trkpt>
      <trkpt lat="43.78683" lon="7.25258">
        <ele>525.421234</ele>
        <time>2011-10-30T14:33:31Z</time>
      </trkpt>
      <trkpt lat="43.78674" lon="7.25259">
        <ele>525.421227</ele>
        <time>2011-10-30T14:33:33Z</time>
      </trkpt>
      <trkpt lat="43.78662" lon="7.25257">
        <ele>525.421204</ele>
        <time>2011-10-30T14:33:36Z</time>
      </trkpt>
      <trkpt lat="43.7865" lon="7.25254">
        <ele>525.421181</ele>
        <time>2011-10-30T14:33:39Z</time>
      </trkpt>
      <trkpt lat="43.78641" lon="7.25254">
        <ele>525.421165</ele>
        <time>2011-10-30T14:33:42Z</time>
      </trkpt>
      <trkpt lat="43.78631" lon="7.25254">
        <ele>526.42115</ele>
        <time>2011-10-30T14:33:45Z</time>
      </trkpt>
      <trkpt lat="43.78621" lon="7.25255">
        <ele>526.421139</ele>
        <time>2011-10-30T14:33:48Z</time>
      </trkpt>
      <trkpt lat="43.78609" lon="7.25253">
        <ele>527.42112</ele>
        <time>2011-10-30T14:33:52Z</time>
      </trkpt>
      <trkpt lat="43.78569" lon="7.25257">
        <ele>530.42107</ele>
        <time>2011-10-30T14:34:09Z</time>
      </trkpt>
      <trkpt lat="43.78559" lon="7.25258">
        <ele>531.421062</ele>
        <time>2011-10-30T14:34:11Z</time>
      </trkpt>
      <trkpt lat="43.78547" lon="7.25259">
        <ele>531.421051</ele>
        <time>2011-10-30T14:34:14Z</time>
      </trkpt>
      <trkpt lat="43.78538" lon="7.25261">
        <ele>531.421043</ele>
        <time>2011-10-30T14:34:16Z</time>
      </trkpt>
      <trkpt lat="43.78528" lon="7.25264">
        <ele>531.421036</ele>
        <time>2011-10-30T14:34:18Z</time>
      </trkpt>
      <trkpt lat="43.78513" lon="7.25267">
        <ele>531.421021</ele>
        <time>2011-10-30T14:34:20Z</time>
      </trkpt>
      <trkpt lat="43.78502" lon="7.2527">
        <ele>532.421005</ele>
        <time>2011-10-30T14:34:22Z</time>
      </trkpt>
      <trkpt lat="43.78492" lon="7.25272">
        <ele>532.420998</ele>
        <time>2011-10-30T14:34:24Z</time>
      </trkpt>
      <trkpt lat="43.78481" lon="7.25276">
        <ele>532.420994</ele>
        <time>2011-10-30T14:34:28Z</time>
      </trkpt>
      <trkpt lat="43.78471" lon="7.25281">
        <ele>532.42099</ele>
        <time>2011-10-30T14:34:30Z</time>
      </trkpt>
      <trkpt lat="43.7846" lon="7.25282">
        <ele>532.420982</ele>
        <time>2011-10-30T14:34:34Z</time>
      </trkpt>
      <trkpt lat="43.7845" lon="7.2528">
        <ele>533.420963</ele>
        <time>2011-10-30T14:34:37Z</time>
      </trkpt>
      <trkpt lat="43.7844" lon="7.25285">
        <ele>533.420956</ele>
        <time>2011-10-30T14:34:40Z</time>
      </trkpt>
      <trkpt lat="43.78425" lon="7.25291">
        <ele>534.420944</ele>
        <time>2011-10-30T14:34:43Z</time>
      </trkpt>
      <trkpt lat="43.78416" lon="7.25294">
        <ele>534.420944</ele>
        <time>2011-10-30T14:34:45Z</time>
      </trkpt>
      <trkpt lat="43.78405" lon="7.25299">
        <ele>534.420937</ele>
        <time>2011-10-30T14:34:48Z</time>
      </trkpt>
      <trkpt lat="43.78392" lon="7.25305">
        <ele>535.420929</ele>
        <time>2011-10-30T14:34:51Z</time>
      </trkpt>
      <trkpt lat="43.78381" lon="7.2531">
        <ele>535.420921</ele>
        <time>2011-10-30T14:34:54Z</time>
      </trkpt>
      <trkpt lat="43.78368" lon="7.25316">
        <ele>536.420921</ele>
        <time>2011-10-30T14:34:57Z</time>
      </trkpt>
      <trkpt lat="43.78356" lon="7.25323">
        <ele>536.420921</ele>
        <time>2011-10-30T14:35:00Z</time>
      </trkpt>
      <trkpt lat="43.78345" lon="7.25331">
        <ele>536.420921</ele>
        <time>2011-10-30T14:35:03Z</time>
      </trkpt>
      <trkpt lat="43.78333" lon="7.25339">
        <ele>536.420921</ele>
        <time>2011-10-30T14:35:06Z</time>
      </trkpt>
      <trkpt lat="43.78322" lon="7.25346">
        <ele>537.420921</ele>
        <time>2011-10-30T14:35:09Z</time>
      </trkpt>
      <trkpt lat="43.7831" lon="7.25354">
        <ele>537.420925</ele>
        <time>2011-10-30T14:35:12Z</time>
      </trkpt>
      <trkpt lat="43.783" lon="7.25362">
        <ele>538.420929</ele>
        <time>2011-10-30T14:35:15Z</time>
      </trkpt>
      <trkpt lat="43.7829" lon="7.25369">
        <ele>539.420929</ele>
        <time>2011-10-30T14:35:18Z</time>
      </trkpt>
      <trkpt lat="43.7828" lon="7.25374">
        <ele>540.420925</ele>
        <time>2011-10-30T14:35:21Z</time>
      </trkpt>
      <trkpt lat="43.7827" lon="7.25382">
        <ele>541.420929</ele>
        <time>2011-10-30T14:35:24Z</time>
      </trkpt>
      <trkpt lat="43.78245" lon="7.25392">
        <ele>544.420914</ele>
        <time>2011-10-30T14:35:35Z</time>
      </trkpt>
      <trkpt lat="43.78219" lon="7.25366">
        <ele>546.420822</ele>
        <time>2011-10-30T14:35:49Z</time>
      </trkpt>
      <trkpt lat="43.78212" lon="7.25328">
        <ele>547.420738</ele>
        <time>2011-10-30T14:35:59Z</time>
      </trkpt>
      <trkpt lat="43.78213" lon="7.25286">
        <ele>548.420647</ele>
        <time>2011-10-30T14:36:13Z</time>
      </trkpt>
      <trkpt lat="43.78224" lon="7.25263">
        <ele>549.420616</ele>
        <time>2011-10-30T14:36:18Z</time>
      </trkpt>
      <trkpt lat="43.7823" lon="7.25254">
        <ele>549.420601</ele>
        <time>2011-10-30T14:36:21Z</time>
      </trkpt>
      <trkpt lat="43.78246" lon="7.25222">
        <ele>551.420555</ele>
        <time>2011-10-30T14:36:36Z</time>
      </trkpt>
      <trkpt lat="43.78246" lon="7.25222">
        <ele>551.420555</ele>
        <time>2011-10-30T14:36:47Z</time>
      </trkpt>
      <trkpt lat="43.78245" lon="7.25208">
        <ele>549.420525</ele>
        <time>2011-10-30T14:36:48Z</time>
      </trkpt>
    </trkseg>
  </trk>
</gpx>